<?xml version="1.0" encoding="UTF-8" standalone="no" ?>
<gpx xmlns="http://www.topografix.com/GPX/1/1" xmlns:xsi="http://www.w3.org/2001/XMLSchema-instance" xsi:schemaLocation="http://www.topografix.com/GPX/1/1 http://www.topografix.com/GPX/1/1/gpx.xsd" version="1.1" creator="VisuGPX - https://www.visugpx.com">
  <metadata>
    <name>Double boucle Pontoise et St Ouen La Liesse 2019-05-21</name>
  </metadata>
  <trk>
    <name><![CDATA[MA-Rando-2019-05-21-152924]]></name>
    <trkseg>
      <trkpt lat="49.04838" lon="2.10134">
        <ele>30</ele>
        <time>2019-05-21T12:01:06Z</time>
      </trkpt>
      <trkpt lat="49.04843" lon="2.10146">
        <ele>30</ele>
        <time>2019-05-21T12:03:09Z</time>
      </trkpt>
      <trkpt lat="49.04851" lon="2.10153">
        <ele>30</ele>
        <time>2019-05-21T12:03:15Z</time>
      </trkpt>
      <trkpt lat="49.0486" lon="2.10162">
        <ele>30</ele>
        <time>2019-05-21T12:03:22Z</time>
      </trkpt>
      <trkpt lat="49.04869" lon="2.1017">
        <ele>27</ele>
        <time>2019-05-21T12:03:29Z</time>
      </trkpt>
      <trkpt lat="49.04879" lon="2.10175">
        <ele>28</ele>
        <time>2019-05-21T12:03:34Z</time>
      </trkpt>
      <trkpt lat="49.04887" lon="2.10184">
        <ele>28</ele>
        <time>2019-05-21T12:03:41Z</time>
      </trkpt>
      <trkpt lat="49.04894" lon="2.10194">
        <ele>28</ele>
        <time>2019-05-21T12:03:49Z</time>
      </trkpt>
      <trkpt lat="49.049" lon="2.10206">
        <ele>28</ele>
        <time>2019-05-21T12:03:55Z</time>
      </trkpt>
      <trkpt lat="49.04905" lon="2.10218">
        <ele>28</ele>
        <time>2019-05-21T12:04:03Z</time>
      </trkpt>
      <trkpt lat="49.04909" lon="2.10232">
        <ele>28</ele>
        <time>2019-05-21T12:04:10Z</time>
      </trkpt>
      <trkpt lat="49.04915" lon="2.10242">
        <ele>28</ele>
        <time>2019-05-21T12:04:14Z</time>
      </trkpt>
      <trkpt lat="49.0492" lon="2.10253">
        <ele>28</ele>
        <time>2019-05-21T12:04:21Z</time>
      </trkpt>
      <trkpt lat="49.04928" lon="2.10263">
        <ele>27</ele>
        <time>2019-05-21T12:04:28Z</time>
      </trkpt>
      <trkpt lat="49.04934" lon="2.10273">
        <ele>27</ele>
        <time>2019-05-21T12:04:35Z</time>
      </trkpt>
      <trkpt lat="49.0494" lon="2.10286">
        <ele>26</ele>
        <time>2019-05-21T12:04:41Z</time>
      </trkpt>
      <trkpt lat="49.04945" lon="2.10298">
        <ele>26</ele>
        <time>2019-05-21T12:04:47Z</time>
      </trkpt>
      <trkpt lat="49.04951" lon="2.10309">
        <ele>26</ele>
        <time>2019-05-21T12:04:53Z</time>
      </trkpt>
      <trkpt lat="49.04958" lon="2.1032">
        <ele>26</ele>
        <time>2019-05-21T12:05:00Z</time>
      </trkpt>
      <trkpt lat="49.04966" lon="2.10328">
        <ele>26</ele>
        <time>2019-05-21T12:05:06Z</time>
      </trkpt>
      <trkpt lat="49.04974" lon="2.10337">
        <ele>24</ele>
        <time>2019-05-21T12:05:14Z</time>
      </trkpt>
      <trkpt lat="49.04981" lon="2.10347">
        <ele>24</ele>
        <time>2019-05-21T12:05:19Z</time>
      </trkpt>
      <trkpt lat="49.04986" lon="2.1036">
        <ele>24</ele>
        <time>2019-05-21T12:05:26Z</time>
      </trkpt>
      <trkpt lat="49.04992" lon="2.10373">
        <ele>24</ele>
        <time>2019-05-21T12:05:32Z</time>
      </trkpt>
      <trkpt lat="49.04997" lon="2.10385">
        <ele>24</ele>
        <time>2019-05-21T12:05:38Z</time>
      </trkpt>
      <trkpt lat="49.05003" lon="2.10398">
        <ele>25</ele>
        <time>2019-05-21T12:05:44Z</time>
      </trkpt>
      <trkpt lat="49.05009" lon="2.1041">
        <ele>24</ele>
        <time>2019-05-21T12:05:50Z</time>
      </trkpt>
      <trkpt lat="49.05016" lon="2.1042">
        <ele>23</ele>
        <time>2019-05-21T12:05:57Z</time>
      </trkpt>
      <trkpt lat="49.05023" lon="2.10428">
        <ele>24</ele>
        <time>2019-05-21T12:06:02Z</time>
      </trkpt>
      <trkpt lat="49.05032" lon="2.10437">
        <ele>24</ele>
        <time>2019-05-21T12:06:08Z</time>
      </trkpt>
      <trkpt lat="49.05038" lon="2.10447">
        <ele>24</ele>
        <time>2019-05-21T12:06:19Z</time>
      </trkpt>
      <trkpt lat="49.05044" lon="2.1046">
        <ele>24</ele>
        <time>2019-05-21T12:06:26Z</time>
      </trkpt>
      <trkpt lat="49.05052" lon="2.10473">
        <ele>24</ele>
        <time>2019-05-21T12:06:31Z</time>
      </trkpt>
      <trkpt lat="49.05058" lon="2.10484">
        <ele>24</ele>
        <time>2019-05-21T12:06:35Z</time>
      </trkpt>
      <trkpt lat="49.05061" lon="2.10498">
        <ele>25</ele>
        <time>2019-05-21T12:06:41Z</time>
      </trkpt>
      <trkpt lat="49.05065" lon="2.10511">
        <ele>24</ele>
        <time>2019-05-21T12:06:47Z</time>
      </trkpt>
      <trkpt lat="49.0507" lon="2.10523">
        <ele>24</ele>
        <time>2019-05-21T12:06:52Z</time>
      </trkpt>
      <trkpt lat="49.05075" lon="2.10536">
        <ele>23</ele>
        <time>2019-05-21T12:06:59Z</time>
      </trkpt>
      <trkpt lat="49.05081" lon="2.10549">
        <ele>23</ele>
        <time>2019-05-21T12:07:11Z</time>
      </trkpt>
      <trkpt lat="49.05087" lon="2.10559">
        <ele>24</ele>
        <time>2019-05-21T12:07:15Z</time>
      </trkpt>
      <trkpt lat="49.05092" lon="2.10575">
        <ele>24</ele>
        <time>2019-05-21T12:07:22Z</time>
      </trkpt>
      <trkpt lat="49.05097" lon="2.1059">
        <ele>23</ele>
        <time>2019-05-21T12:07:25Z</time>
      </trkpt>
      <trkpt lat="49.05101" lon="2.10603">
        <ele>23</ele>
        <time>2019-05-21T12:07:33Z</time>
      </trkpt>
      <trkpt lat="49.05108" lon="2.10614">
        <ele>23</ele>
        <time>2019-05-21T12:07:38Z</time>
      </trkpt>
      <trkpt lat="49.05113" lon="2.10628">
        <ele>23</ele>
        <time>2019-05-21T12:07:46Z</time>
      </trkpt>
      <trkpt lat="49.05118" lon="2.10643">
        <ele>23</ele>
        <time>2019-05-21T12:07:53Z</time>
      </trkpt>
      <trkpt lat="49.05123" lon="2.10654">
        <ele>23</ele>
        <time>2019-05-21T12:08:00Z</time>
      </trkpt>
      <trkpt lat="49.05126" lon="2.10668">
        <ele>23</ele>
        <time>2019-05-21T12:08:07Z</time>
      </trkpt>
      <trkpt lat="49.0513" lon="2.10682">
        <ele>23</ele>
        <time>2019-05-21T12:08:13Z</time>
      </trkpt>
      <trkpt lat="49.05136" lon="2.10696">
        <ele>23</ele>
        <time>2019-05-21T12:08:19Z</time>
      </trkpt>
      <trkpt lat="49.05142" lon="2.10708">
        <ele>23</ele>
        <time>2019-05-21T12:08:27Z</time>
      </trkpt>
      <trkpt lat="49.05148" lon="2.10717">
        <ele>23</ele>
        <time>2019-05-21T12:08:34Z</time>
      </trkpt>
      <trkpt lat="49.05154" lon="2.10728">
        <ele>23</ele>
        <time>2019-05-21T12:08:39Z</time>
      </trkpt>
      <trkpt lat="49.05162" lon="2.10739">
        <ele>23</ele>
        <time>2019-05-21T12:08:43Z</time>
      </trkpt>
      <trkpt lat="49.0517" lon="2.1075">
        <ele>23</ele>
        <time>2019-05-21T12:08:48Z</time>
      </trkpt>
      <trkpt lat="49.05176" lon="2.1076">
        <ele>24</ele>
        <time>2019-05-21T12:08:56Z</time>
      </trkpt>
      <trkpt lat="49.05182" lon="2.10771">
        <ele>25</ele>
        <time>2019-05-21T12:09:03Z</time>
      </trkpt>
      <trkpt lat="49.0519" lon="2.10781">
        <ele>25</ele>
        <time>2019-05-21T12:09:08Z</time>
      </trkpt>
      <trkpt lat="49.05194" lon="2.10794">
        <ele>25</ele>
        <time>2019-05-21T12:09:14Z</time>
      </trkpt>
      <trkpt lat="49.05199" lon="2.10808">
        <ele>25</ele>
        <time>2019-05-21T12:09:19Z</time>
      </trkpt>
      <trkpt lat="49.05206" lon="2.10818">
        <ele>25</ele>
        <time>2019-05-21T12:09:24Z</time>
      </trkpt>
      <trkpt lat="49.05212" lon="2.10831">
        <ele>25</ele>
        <time>2019-05-21T12:09:33Z</time>
      </trkpt>
      <trkpt lat="49.05218" lon="2.10842">
        <ele>25</ele>
        <time>2019-05-21T12:09:42Z</time>
      </trkpt>
      <trkpt lat="49.05225" lon="2.10854">
        <ele>24</ele>
        <time>2019-05-21T12:09:50Z</time>
      </trkpt>
      <trkpt lat="49.05231" lon="2.10865">
        <ele>24</ele>
        <time>2019-05-21T12:09:55Z</time>
      </trkpt>
      <trkpt lat="49.05237" lon="2.10878">
        <ele>24</ele>
        <time>2019-05-21T12:10:01Z</time>
      </trkpt>
      <trkpt lat="49.05244" lon="2.1089">
        <ele>23</ele>
        <time>2019-05-21T12:10:06Z</time>
      </trkpt>
      <trkpt lat="49.05248" lon="2.10903">
        <ele>23</ele>
        <time>2019-05-21T12:10:12Z</time>
      </trkpt>
      <trkpt lat="49.05253" lon="2.10915">
        <ele>22</ele>
        <time>2019-05-21T12:10:20Z</time>
      </trkpt>
      <trkpt lat="49.0526" lon="2.10925">
        <ele>22</ele>
        <time>2019-05-21T12:10:29Z</time>
      </trkpt>
      <trkpt lat="49.05268" lon="2.10934">
        <ele>22</ele>
        <time>2019-05-21T12:10:34Z</time>
      </trkpt>
      <trkpt lat="49.05275" lon="2.10943">
        <ele>23</ele>
        <time>2019-05-21T12:10:40Z</time>
      </trkpt>
      <trkpt lat="49.05281" lon="2.10955">
        <ele>23</ele>
        <time>2019-05-21T12:10:45Z</time>
      </trkpt>
      <trkpt lat="49.05288" lon="2.10968">
        <ele>23</ele>
        <time>2019-05-21T12:10:52Z</time>
      </trkpt>
      <trkpt lat="49.05294" lon="2.10982">
        <ele>23</ele>
        <time>2019-05-21T12:10:58Z</time>
      </trkpt>
      <trkpt lat="49.053" lon="2.10993">
        <ele>23</ele>
        <time>2019-05-21T12:11:02Z</time>
      </trkpt>
      <trkpt lat="49.05307" lon="2.11003">
        <ele>22</ele>
        <time>2019-05-21T12:11:10Z</time>
      </trkpt>
      <trkpt lat="49.05311" lon="2.11016">
        <ele>22</ele>
        <time>2019-05-21T12:11:19Z</time>
      </trkpt>
      <trkpt lat="49.05315" lon="2.11028">
        <ele>22</ele>
        <time>2019-05-21T12:11:26Z</time>
      </trkpt>
      <trkpt lat="49.05322" lon="2.1104">
        <ele>22</ele>
        <time>2019-05-21T12:11:32Z</time>
      </trkpt>
      <trkpt lat="49.0533" lon="2.11049">
        <ele>22</ele>
        <time>2019-05-21T12:11:36Z</time>
      </trkpt>
      <trkpt lat="49.05339" lon="2.11057">
        <ele>22</ele>
        <time>2019-05-21T12:11:41Z</time>
      </trkpt>
      <trkpt lat="49.05349" lon="2.11068">
        <ele>22</ele>
        <time>2019-05-21T12:11:47Z</time>
      </trkpt>
      <trkpt lat="49.05356" lon="2.11079">
        <ele>22</ele>
        <time>2019-05-21T12:11:51Z</time>
      </trkpt>
      <trkpt lat="49.0536" lon="2.11092">
        <ele>22</ele>
        <time>2019-05-21T12:12:01Z</time>
      </trkpt>
      <trkpt lat="49.05366" lon="2.11105">
        <ele>22</ele>
        <time>2019-05-21T12:12:08Z</time>
      </trkpt>
      <trkpt lat="49.05374" lon="2.11115">
        <ele>22</ele>
        <time>2019-05-21T12:12:13Z</time>
      </trkpt>
      <trkpt lat="49.05382" lon="2.11122">
        <ele>22</ele>
        <time>2019-05-21T12:12:17Z</time>
      </trkpt>
      <trkpt lat="49.05387" lon="2.11135">
        <ele>22</ele>
        <time>2019-05-21T12:12:24Z</time>
      </trkpt>
      <trkpt lat="49.05392" lon="2.11147">
        <ele>22</ele>
        <time>2019-05-21T12:12:30Z</time>
      </trkpt>
      <trkpt lat="49.05399" lon="2.11157">
        <ele>22</ele>
        <time>2019-05-21T12:12:35Z</time>
      </trkpt>
      <trkpt lat="49.05404" lon="2.11169">
        <ele>22</ele>
        <time>2019-05-21T12:12:40Z</time>
      </trkpt>
      <trkpt lat="49.0541" lon="2.11181">
        <ele>22</ele>
        <time>2019-05-21T12:12:50Z</time>
      </trkpt>
      <trkpt lat="49.05418" lon="2.11191">
        <ele>22</ele>
        <time>2019-05-21T12:12:57Z</time>
      </trkpt>
      <trkpt lat="49.05425" lon="2.112">
        <ele>22</ele>
        <time>2019-05-21T12:13:03Z</time>
      </trkpt>
      <trkpt lat="49.05434" lon="2.1121">
        <ele>22</ele>
        <time>2019-05-21T12:13:11Z</time>
      </trkpt>
      <trkpt lat="49.05438" lon="2.11222">
        <ele>22</ele>
        <time>2019-05-21T12:13:18Z</time>
      </trkpt>
      <trkpt lat="49.05444" lon="2.11233">
        <ele>22</ele>
        <time>2019-05-21T12:13:23Z</time>
      </trkpt>
      <trkpt lat="49.0545" lon="2.11244">
        <ele>22</ele>
        <time>2019-05-21T12:13:27Z</time>
      </trkpt>
      <trkpt lat="49.05458" lon="2.11251">
        <ele>22</ele>
        <time>2019-05-21T12:13:32Z</time>
      </trkpt>
      <trkpt lat="49.05466" lon="2.11259">
        <ele>22</ele>
        <time>2019-05-21T12:13:37Z</time>
      </trkpt>
      <trkpt lat="49.05473" lon="2.11267">
        <ele>22</ele>
        <time>2019-05-21T12:13:47Z</time>
      </trkpt>
      <trkpt lat="49.05482" lon="2.11276">
        <ele>22</ele>
        <time>2019-05-21T12:13:54Z</time>
      </trkpt>
      <trkpt lat="49.0549" lon="2.11285">
        <ele>22</ele>
        <time>2019-05-21T12:14:00Z</time>
      </trkpt>
      <trkpt lat="49.05497" lon="2.11296">
        <ele>22</ele>
        <time>2019-05-21T12:14:06Z</time>
      </trkpt>
      <trkpt lat="49.05504" lon="2.11304">
        <ele>23</ele>
        <time>2019-05-21T12:14:13Z</time>
      </trkpt>
      <trkpt lat="49.05511" lon="2.11315">
        <ele>23</ele>
        <time>2019-05-21T12:14:20Z</time>
      </trkpt>
      <trkpt lat="49.05518" lon="2.11327">
        <ele>23</ele>
        <time>2019-05-21T12:14:26Z</time>
      </trkpt>
      <trkpt lat="49.05526" lon="2.11338">
        <ele>23</ele>
        <time>2019-05-21T12:14:31Z</time>
      </trkpt>
      <trkpt lat="49.05532" lon="2.1135">
        <ele>23</ele>
        <time>2019-05-21T12:14:40Z</time>
      </trkpt>
      <trkpt lat="49.05539" lon="2.11359">
        <ele>23</ele>
        <time>2019-05-21T12:14:47Z</time>
      </trkpt>
      <trkpt lat="49.05547" lon="2.11368">
        <ele>23</ele>
        <time>2019-05-21T12:14:52Z</time>
      </trkpt>
      <trkpt lat="49.05554" lon="2.11379">
        <ele>23</ele>
        <time>2019-05-21T12:15:01Z</time>
      </trkpt>
      <trkpt lat="49.05562" lon="2.1139">
        <ele>23</ele>
        <time>2019-05-21T12:15:07Z</time>
      </trkpt>
      <trkpt lat="49.05569" lon="2.114">
        <ele>23</ele>
        <time>2019-05-21T12:15:12Z</time>
      </trkpt>
      <trkpt lat="49.05577" lon="2.11409">
        <ele>23</ele>
        <time>2019-05-21T12:15:18Z</time>
      </trkpt>
      <trkpt lat="49.05584" lon="2.11418">
        <ele>23</ele>
        <time>2019-05-21T12:15:24Z</time>
      </trkpt>
      <trkpt lat="49.0559" lon="2.11429">
        <ele>23</ele>
        <time>2019-05-21T12:15:32Z</time>
      </trkpt>
      <trkpt lat="49.05597" lon="2.11439">
        <ele>24</ele>
        <time>2019-05-21T12:15:38Z</time>
      </trkpt>
      <trkpt lat="49.05605" lon="2.11448">
        <ele>24</ele>
        <time>2019-05-21T12:15:45Z</time>
      </trkpt>
      <trkpt lat="49.05613" lon="2.11457">
        <ele>24</ele>
        <time>2019-05-21T12:15:55Z</time>
      </trkpt>
      <trkpt lat="49.05617" lon="2.11471">
        <ele>24</ele>
        <time>2019-05-21T12:16:04Z</time>
      </trkpt>
      <trkpt lat="49.05624" lon="2.11484">
        <ele>24</ele>
        <time>2019-05-21T12:16:09Z</time>
      </trkpt>
      <trkpt lat="49.0563" lon="2.11495">
        <ele>24</ele>
        <time>2019-05-21T12:16:13Z</time>
      </trkpt>
      <trkpt lat="49.05637" lon="2.11504">
        <ele>24</ele>
        <time>2019-05-21T12:16:18Z</time>
      </trkpt>
      <trkpt lat="49.05645" lon="2.11511">
        <ele>24</ele>
        <time>2019-05-21T12:16:25Z</time>
      </trkpt>
      <trkpt lat="49.05655" lon="2.11518">
        <ele>24</ele>
        <time>2019-05-21T12:16:33Z</time>
      </trkpt>
      <trkpt lat="49.05663" lon="2.11526">
        <ele>23</ele>
        <time>2019-05-21T12:16:39Z</time>
      </trkpt>
      <trkpt lat="49.05672" lon="2.11536">
        <ele>23</ele>
        <time>2019-05-21T12:16:48Z</time>
      </trkpt>
      <trkpt lat="49.05681" lon="2.11541">
        <ele>23</ele>
        <time>2019-05-21T12:16:52Z</time>
      </trkpt>
      <trkpt lat="49.05688" lon="2.1155">
        <ele>23</ele>
        <time>2019-05-21T12:16:57Z</time>
      </trkpt>
      <trkpt lat="49.05697" lon="2.11559">
        <ele>23</ele>
        <time>2019-05-21T12:17:02Z</time>
      </trkpt>
      <trkpt lat="49.05705" lon="2.11567">
        <ele>23</ele>
        <time>2019-05-21T12:17:10Z</time>
      </trkpt>
      <trkpt lat="49.05715" lon="2.11568">
        <ele>23</ele>
        <time>2019-05-21T12:17:25Z</time>
      </trkpt>
      <trkpt lat="49.05723" lon="2.11576">
        <ele>23</ele>
        <time>2019-05-21T12:17:32Z</time>
      </trkpt>
      <trkpt lat="49.05731" lon="2.11584">
        <ele>22</ele>
        <time>2019-05-21T12:17:47Z</time>
      </trkpt>
      <trkpt lat="49.05743" lon="2.116">
        <ele>22</ele>
        <time>2019-05-21T12:17:53Z</time>
      </trkpt>
      <trkpt lat="49.05753" lon="2.11606">
        <ele>23</ele>
        <time>2019-05-21T12:18:02Z</time>
      </trkpt>
      <trkpt lat="49.05761" lon="2.11612">
        <ele>23</ele>
        <time>2019-05-21T12:18:04Z</time>
      </trkpt>
      <trkpt lat="49.05771" lon="2.11619">
        <ele>23</ele>
        <time>2019-05-21T12:18:13Z</time>
      </trkpt>
      <trkpt lat="49.05781" lon="2.11627">
        <ele>23</ele>
        <time>2019-05-21T12:18:25Z</time>
      </trkpt>
      <trkpt lat="49.0579" lon="2.11632">
        <ele>23</ele>
        <time>2019-05-21T12:18:35Z</time>
      </trkpt>
      <trkpt lat="49.05799" lon="2.1164">
        <ele>23</ele>
        <time>2019-05-21T12:18:38Z</time>
      </trkpt>
      <trkpt lat="49.05808" lon="2.11651">
        <ele>23</ele>
        <time>2019-05-21T12:18:41Z</time>
      </trkpt>
      <trkpt lat="49.05816" lon="2.11662">
        <ele>23</ele>
        <time>2019-05-21T12:18:47Z</time>
      </trkpt>
      <trkpt lat="49.05825" lon="2.11665">
        <ele>23</ele>
        <time>2019-05-21T12:18:54Z</time>
      </trkpt>
      <trkpt lat="49.05835" lon="2.11669">
        <ele>23</ele>
        <time>2019-05-21T12:19:02Z</time>
      </trkpt>
      <trkpt lat="49.05843" lon="2.1168">
        <ele>23</ele>
        <time>2019-05-21T12:19:08Z</time>
      </trkpt>
      <trkpt lat="49.0585" lon="2.11692">
        <ele>23</ele>
        <time>2019-05-21T12:19:12Z</time>
      </trkpt>
      <trkpt lat="49.05857" lon="2.117">
        <ele>23</ele>
        <time>2019-05-21T12:19:16Z</time>
      </trkpt>
      <trkpt lat="49.05865" lon="2.11711">
        <ele>23</ele>
        <time>2019-05-21T12:19:23Z</time>
      </trkpt>
      <trkpt lat="49.05871" lon="2.11722">
        <ele>23</ele>
        <time>2019-05-21T12:19:27Z</time>
      </trkpt>
      <trkpt lat="49.05877" lon="2.11733">
        <ele>23</ele>
        <time>2019-05-21T12:19:31Z</time>
      </trkpt>
      <trkpt lat="49.05885" lon="2.11741">
        <ele>24</ele>
        <time>2019-05-21T12:19:43Z</time>
      </trkpt>
      <trkpt lat="49.05894" lon="2.11747">
        <ele>24</ele>
        <time>2019-05-21T12:19:52Z</time>
      </trkpt>
      <trkpt lat="49.059" lon="2.11758">
        <ele>23</ele>
        <time>2019-05-21T12:19:58Z</time>
      </trkpt>
      <trkpt lat="49.05904" lon="2.11772">
        <ele>23</ele>
        <time>2019-05-21T12:20:04Z</time>
      </trkpt>
      <trkpt lat="49.05911" lon="2.11784">
        <ele>23</ele>
        <time>2019-05-21T12:20:10Z</time>
      </trkpt>
      <trkpt lat="49.0592" lon="2.1179">
        <ele>24</ele>
        <time>2019-05-21T12:20:17Z</time>
      </trkpt>
      <trkpt lat="49.05927" lon="2.118">
        <ele>23</ele>
        <time>2019-05-21T12:20:23Z</time>
      </trkpt>
      <trkpt lat="49.05935" lon="2.11807">
        <ele>23</ele>
        <time>2019-05-21T12:20:29Z</time>
      </trkpt>
      <trkpt lat="49.05942" lon="2.11818">
        <ele>23</ele>
        <time>2019-05-21T12:20:33Z</time>
      </trkpt>
      <trkpt lat="49.0595" lon="2.11825">
        <ele>23</ele>
        <time>2019-05-21T12:20:40Z</time>
      </trkpt>
      <trkpt lat="49.05959" lon="2.11832">
        <ele>23</ele>
        <time>2019-05-21T12:20:47Z</time>
      </trkpt>
      <trkpt lat="49.05968" lon="2.11838">
        <ele>23</ele>
        <time>2019-05-21T12:20:56Z</time>
      </trkpt>
      <trkpt lat="49.05974" lon="2.11849">
        <ele>23</ele>
        <time>2019-05-21T12:21:06Z</time>
      </trkpt>
      <trkpt lat="49.05982" lon="2.11856">
        <ele>23</ele>
        <time>2019-05-21T12:21:14Z</time>
      </trkpt>
      <trkpt lat="49.05991" lon="2.11864">
        <ele>23</ele>
        <time>2019-05-21T12:21:17Z</time>
      </trkpt>
      <trkpt lat="49.05998" lon="2.11874">
        <ele>23</ele>
        <time>2019-05-21T12:21:20Z</time>
      </trkpt>
      <trkpt lat="49.06008" lon="2.11879">
        <ele>23</ele>
        <time>2019-05-21T12:21:29Z</time>
      </trkpt>
      <trkpt lat="49.06017" lon="2.11885">
        <ele>24</ele>
        <time>2019-05-21T12:21:37Z</time>
      </trkpt>
      <trkpt lat="49.06024" lon="2.11895">
        <ele>24</ele>
        <time>2019-05-21T12:21:43Z</time>
      </trkpt>
      <trkpt lat="49.06031" lon="2.11906">
        <ele>24</ele>
        <time>2019-05-21T12:21:48Z</time>
      </trkpt>
      <trkpt lat="49.06037" lon="2.11919">
        <ele>23</ele>
        <time>2019-05-21T12:21:53Z</time>
      </trkpt>
      <trkpt lat="49.06043" lon="2.11931">
        <ele>23</ele>
        <time>2019-05-21T12:21:57Z</time>
      </trkpt>
      <trkpt lat="49.06049" lon="2.11943">
        <ele>23</ele>
        <time>2019-05-21T12:22:03Z</time>
      </trkpt>
      <trkpt lat="49.06057" lon="2.11952">
        <ele>23</ele>
        <time>2019-05-21T12:22:11Z</time>
      </trkpt>
      <trkpt lat="49.06064" lon="2.11963">
        <ele>23</ele>
        <time>2019-05-21T12:22:18Z</time>
      </trkpt>
      <trkpt lat="49.0607" lon="2.11975">
        <ele>23</ele>
        <time>2019-05-21T12:22:24Z</time>
      </trkpt>
      <trkpt lat="49.06075" lon="2.11986">
        <ele>23</ele>
        <time>2019-05-21T12:22:30Z</time>
      </trkpt>
      <trkpt lat="49.06082" lon="2.11996">
        <ele>23</ele>
        <time>2019-05-21T12:22:39Z</time>
      </trkpt>
      <trkpt lat="49.0609" lon="2.12005">
        <ele>23</ele>
        <time>2019-05-21T12:22:47Z</time>
      </trkpt>
      <trkpt lat="49.06096" lon="2.12017">
        <ele>23</ele>
        <time>2019-05-21T12:22:53Z</time>
      </trkpt>
      <trkpt lat="49.06102" lon="2.12027">
        <ele>22</ele>
        <time>2019-05-21T12:23:01Z</time>
      </trkpt>
      <trkpt lat="49.06111" lon="2.1204">
        <ele>22</ele>
        <time>2019-05-21T12:23:09Z</time>
      </trkpt>
      <trkpt lat="49.06117" lon="2.12052">
        <ele>22</ele>
        <time>2019-05-21T12:23:14Z</time>
      </trkpt>
      <trkpt lat="49.06124" lon="2.12062">
        <ele>22</ele>
        <time>2019-05-21T12:23:21Z</time>
      </trkpt>
      <trkpt lat="49.0613" lon="2.12073">
        <ele>22</ele>
        <time>2019-05-21T12:23:27Z</time>
      </trkpt>
      <trkpt lat="49.06137" lon="2.12083">
        <ele>21</ele>
        <time>2019-05-21T12:23:39Z</time>
      </trkpt>
      <trkpt lat="49.06146" lon="2.12092">
        <ele>21</ele>
        <time>2019-05-21T12:23:48Z</time>
      </trkpt>
      <trkpt lat="49.06151" lon="2.12105">
        <ele>21</ele>
        <time>2019-05-21T12:23:53Z</time>
      </trkpt>
      <trkpt lat="49.0616" lon="2.12113">
        <ele>21</ele>
        <time>2019-05-21T12:23:58Z</time>
      </trkpt>
      <trkpt lat="49.06165" lon="2.12124">
        <ele>21</ele>
        <time>2019-05-21T12:24:06Z</time>
      </trkpt>
      <trkpt lat="49.06172" lon="2.12134">
        <ele>23</ele>
        <time>2019-05-21T12:24:14Z</time>
      </trkpt>
      <trkpt lat="49.06181" lon="2.12146">
        <ele>23</ele>
        <time>2019-05-21T12:24:20Z</time>
      </trkpt>
      <trkpt lat="49.06187" lon="2.12159">
        <ele>23</ele>
        <time>2019-05-21T12:24:26Z</time>
      </trkpt>
      <trkpt lat="49.06194" lon="2.12172">
        <ele>22</ele>
        <time>2019-05-21T12:24:32Z</time>
      </trkpt>
      <trkpt lat="49.06199" lon="2.12187">
        <ele>22</ele>
        <time>2019-05-21T12:24:36Z</time>
      </trkpt>
      <trkpt lat="49.06204" lon="2.12201">
        <ele>22</ele>
        <time>2019-05-21T12:24:42Z</time>
      </trkpt>
      <trkpt lat="49.0621" lon="2.12213">
        <ele>23</ele>
        <time>2019-05-21T12:24:49Z</time>
      </trkpt>
      <trkpt lat="49.06217" lon="2.12225">
        <ele>23</ele>
        <time>2019-05-21T12:24:59Z</time>
      </trkpt>
      <trkpt lat="49.06221" lon="2.12238">
        <ele>23</ele>
        <time>2019-05-21T12:25:09Z</time>
      </trkpt>
      <trkpt lat="49.06229" lon="2.12246">
        <ele>23</ele>
        <time>2019-05-21T12:25:14Z</time>
      </trkpt>
      <trkpt lat="49.06233" lon="2.12262">
        <ele>23</ele>
        <time>2019-05-21T12:25:23Z</time>
      </trkpt>
      <trkpt lat="49.06239" lon="2.12273">
        <ele>23</ele>
        <time>2019-05-21T12:25:29Z</time>
      </trkpt>
      <trkpt lat="49.06243" lon="2.12286">
        <ele>23</ele>
        <time>2019-05-21T12:25:36Z</time>
      </trkpt>
      <trkpt lat="49.0625" lon="2.12296">
        <ele>23</ele>
        <time>2019-05-21T12:25:42Z</time>
      </trkpt>
      <trkpt lat="49.06254" lon="2.12309">
        <ele>24</ele>
        <time>2019-05-21T12:25:48Z</time>
      </trkpt>
      <trkpt lat="49.06264" lon="2.12312">
        <ele>24</ele>
        <time>2019-05-21T12:25:55Z</time>
      </trkpt>
      <trkpt lat="49.0627" lon="2.12325">
        <ele>24</ele>
        <time>2019-05-21T12:26:02Z</time>
      </trkpt>
      <trkpt lat="49.06272" lon="2.12342">
        <ele>23</ele>
        <time>2019-05-21T12:26:06Z</time>
      </trkpt>
      <trkpt lat="49.06279" lon="2.12351">
        <ele>23</ele>
        <time>2019-05-21T12:26:12Z</time>
      </trkpt>
      <trkpt lat="49.06281" lon="2.12367">
        <ele>23</ele>
        <time>2019-05-21T12:26:19Z</time>
      </trkpt>
      <trkpt lat="49.06286" lon="2.12379">
        <ele>23</ele>
        <time>2019-05-21T12:26:26Z</time>
      </trkpt>
      <trkpt lat="49.06291" lon="2.12391">
        <ele>23</ele>
        <time>2019-05-21T12:26:31Z</time>
      </trkpt>
      <trkpt lat="49.06299" lon="2.124">
        <ele>23</ele>
        <time>2019-05-21T12:26:38Z</time>
      </trkpt>
      <trkpt lat="49.06305" lon="2.12411">
        <ele>23</ele>
        <time>2019-05-21T12:26:43Z</time>
      </trkpt>
      <trkpt lat="49.06313" lon="2.12419">
        <ele>22</ele>
        <time>2019-05-21T12:26:52Z</time>
      </trkpt>
      <trkpt lat="49.06321" lon="2.12427">
        <ele>22</ele>
        <time>2019-05-21T12:26:57Z</time>
      </trkpt>
      <trkpt lat="49.06329" lon="2.12437">
        <ele>22</ele>
        <time>2019-05-21T12:27:03Z</time>
      </trkpt>
      <trkpt lat="49.06334" lon="2.12449">
        <ele>22</ele>
        <time>2019-05-21T12:27:13Z</time>
      </trkpt>
      <trkpt lat="49.06341" lon="2.12461">
        <ele>22</ele>
        <time>2019-05-21T12:27:18Z</time>
      </trkpt>
      <trkpt lat="49.06348" lon="2.12474">
        <ele>22</ele>
        <time>2019-05-21T12:27:23Z</time>
      </trkpt>
      <trkpt lat="49.06355" lon="2.12485">
        <ele>22</ele>
        <time>2019-05-21T12:27:31Z</time>
      </trkpt>
      <trkpt lat="49.06364" lon="2.12493">
        <ele>22</ele>
        <time>2019-05-21T12:27:37Z</time>
      </trkpt>
      <trkpt lat="49.0637" lon="2.12505">
        <ele>22</ele>
        <time>2019-05-21T12:27:45Z</time>
      </trkpt>
      <trkpt lat="49.06376" lon="2.12517">
        <ele>22</ele>
        <time>2019-05-21T12:27:52Z</time>
      </trkpt>
      <trkpt lat="49.06383" lon="2.12529">
        <ele>22</ele>
        <time>2019-05-21T12:27:59Z</time>
      </trkpt>
      <trkpt lat="49.06389" lon="2.12541">
        <ele>22</ele>
        <time>2019-05-21T12:28:08Z</time>
      </trkpt>
      <trkpt lat="49.06396" lon="2.12553">
        <ele>22</ele>
        <time>2019-05-21T12:28:14Z</time>
      </trkpt>
      <trkpt lat="49.06401" lon="2.12567">
        <ele>22</ele>
        <time>2019-05-21T12:28:19Z</time>
      </trkpt>
      <trkpt lat="49.06404" lon="2.12581">
        <ele>22</ele>
        <time>2019-05-21T12:28:24Z</time>
      </trkpt>
      <trkpt lat="49.06411" lon="2.1259">
        <ele>22</ele>
        <time>2019-05-21T12:28:32Z</time>
      </trkpt>
      <trkpt lat="49.06416" lon="2.12601">
        <ele>22</ele>
        <time>2019-05-21T12:28:41Z</time>
      </trkpt>
      <trkpt lat="49.06421" lon="2.12616">
        <ele>23</ele>
        <time>2019-05-21T12:28:47Z</time>
      </trkpt>
      <trkpt lat="49.06426" lon="2.12628">
        <ele>23</ele>
        <time>2019-05-21T12:28:52Z</time>
      </trkpt>
      <trkpt lat="49.0643" lon="2.1264">
        <ele>23</ele>
        <time>2019-05-21T12:29:02Z</time>
      </trkpt>
      <trkpt lat="49.06439" lon="2.12649">
        <ele>23</ele>
        <time>2019-05-21T12:29:09Z</time>
      </trkpt>
      <trkpt lat="49.06442" lon="2.12663">
        <ele>23</ele>
        <time>2019-05-21T12:29:14Z</time>
      </trkpt>
      <trkpt lat="49.06447" lon="2.12675">
        <ele>23</ele>
        <time>2019-05-21T12:29:21Z</time>
      </trkpt>
      <trkpt lat="49.06454" lon="2.12686">
        <ele>23</ele>
        <time>2019-05-21T12:29:28Z</time>
      </trkpt>
      <trkpt lat="49.06461" lon="2.12698">
        <ele>24</ele>
        <time>2019-05-21T12:29:36Z</time>
      </trkpt>
      <trkpt lat="49.06466" lon="2.12711">
        <ele>24</ele>
        <time>2019-05-21T12:29:42Z</time>
      </trkpt>
      <trkpt lat="49.06467" lon="2.12725">
        <ele>24</ele>
        <time>2019-05-21T12:29:47Z</time>
      </trkpt>
      <trkpt lat="49.06471" lon="2.12739">
        <ele>24</ele>
        <time>2019-05-21T12:29:55Z</time>
      </trkpt>
      <trkpt lat="49.06477" lon="2.1275">
        <ele>24</ele>
        <time>2019-05-21T12:30:03Z</time>
      </trkpt>
      <trkpt lat="49.06479" lon="2.12765">
        <ele>24</ele>
        <time>2019-05-21T12:30:09Z</time>
      </trkpt>
      <trkpt lat="49.06482" lon="2.12779">
        <ele>24</ele>
        <time>2019-05-21T12:30:16Z</time>
      </trkpt>
      <trkpt lat="49.06483" lon="2.12793">
        <ele>24</ele>
        <time>2019-05-21T12:30:24Z</time>
      </trkpt>
      <trkpt lat="49.06485" lon="2.12806">
        <ele>24</ele>
        <time>2019-05-21T12:30:30Z</time>
      </trkpt>
      <trkpt lat="49.06494" lon="2.12819">
        <ele>24</ele>
        <time>2019-05-21T12:30:37Z</time>
      </trkpt>
      <trkpt lat="49.06501" lon="2.12828">
        <ele>24</ele>
        <time>2019-05-21T12:30:44Z</time>
      </trkpt>
      <trkpt lat="49.06507" lon="2.12844">
        <ele>23</ele>
        <time>2019-05-21T12:30:50Z</time>
      </trkpt>
      <trkpt lat="49.06514" lon="2.12855">
        <ele>23</ele>
        <time>2019-05-21T12:30:54Z</time>
      </trkpt>
      <trkpt lat="49.06522" lon="2.12864">
        <ele>23</ele>
        <time>2019-05-21T12:31:06Z</time>
      </trkpt>
      <trkpt lat="49.0653" lon="2.12875">
        <ele>23</ele>
        <time>2019-05-21T12:31:12Z</time>
      </trkpt>
      <trkpt lat="49.06535" lon="2.12887">
        <ele>23</ele>
        <time>2019-05-21T12:31:16Z</time>
      </trkpt>
      <trkpt lat="49.06544" lon="2.12891">
        <ele>23</ele>
        <time>2019-05-21T12:31:24Z</time>
      </trkpt>
      <trkpt lat="49.06554" lon="2.12895">
        <ele>23</ele>
        <time>2019-05-21T12:31:33Z</time>
      </trkpt>
      <trkpt lat="49.06562" lon="2.12907">
        <ele>22</ele>
        <time>2019-05-21T12:31:36Z</time>
      </trkpt>
      <trkpt lat="49.06567" lon="2.12918">
        <ele>22</ele>
        <time>2019-05-21T12:31:40Z</time>
      </trkpt>
      <trkpt lat="49.06575" lon="2.12927">
        <ele>22</ele>
        <time>2019-05-21T12:31:51Z</time>
      </trkpt>
      <trkpt lat="49.06582" lon="2.12934">
        <ele>22</ele>
        <time>2019-05-21T12:32:00Z</time>
      </trkpt>
      <trkpt lat="49.06592" lon="2.12938">
        <ele>23</ele>
        <time>2019-05-21T12:32:13Z</time>
      </trkpt>
      <trkpt lat="49.06594" lon="2.12953">
        <ele>23</ele>
        <time>2019-05-21T12:32:20Z</time>
      </trkpt>
      <trkpt lat="49.06606" lon="2.12955">
        <ele>23</ele>
        <time>2019-05-21T12:32:28Z</time>
      </trkpt>
      <trkpt lat="49.06615" lon="2.12965">
        <ele>24</ele>
        <time>2019-05-21T12:32:34Z</time>
      </trkpt>
      <trkpt lat="49.06623" lon="2.12975">
        <ele>24</ele>
        <time>2019-05-21T12:32:40Z</time>
      </trkpt>
      <trkpt lat="49.06632" lon="2.12978">
        <ele>24</ele>
        <time>2019-05-21T12:32:45Z</time>
      </trkpt>
      <trkpt lat="49.06641" lon="2.12983">
        <ele>24</ele>
        <time>2019-05-21T12:32:52Z</time>
      </trkpt>
      <trkpt lat="49.0665" lon="2.12991">
        <ele>24</ele>
        <time>2019-05-21T12:32:56Z</time>
      </trkpt>
      <trkpt lat="49.06655" lon="2.13004">
        <ele>24</ele>
        <time>2019-05-21T12:32:59Z</time>
      </trkpt>
      <trkpt lat="49.06662" lon="2.13015">
        <ele>24</ele>
        <time>2019-05-21T12:33:02Z</time>
      </trkpt>
      <trkpt lat="49.06667" lon="2.13027">
        <ele>29</ele>
        <time>2019-05-21T12:33:11Z</time>
      </trkpt>
      <trkpt lat="49.06673" lon="2.13039">
        <ele>29</ele>
        <time>2019-05-21T12:33:20Z</time>
      </trkpt>
      <trkpt lat="49.0668" lon="2.13049">
        <ele>29</ele>
        <time>2019-05-21T12:33:28Z</time>
      </trkpt>
      <trkpt lat="49.06688" lon="2.13061">
        <ele>30</ele>
        <time>2019-05-21T12:33:33Z</time>
      </trkpt>
      <trkpt lat="49.06692" lon="2.13074">
        <ele>30</ele>
        <time>2019-05-21T12:33:39Z</time>
      </trkpt>
      <trkpt lat="49.06696" lon="2.13086">
        <ele>29</ele>
        <time>2019-05-21T12:33:50Z</time>
      </trkpt>
      <trkpt lat="49.06703" lon="2.131">
        <ele>29</ele>
        <time>2019-05-21T12:33:56Z</time>
      </trkpt>
      <trkpt lat="49.06707" lon="2.13112">
        <ele>30</ele>
        <time>2019-05-21T12:34:00Z</time>
      </trkpt>
      <trkpt lat="49.06714" lon="2.13126">
        <ele>30</ele>
        <time>2019-05-21T12:34:04Z</time>
      </trkpt>
      <trkpt lat="49.06721" lon="2.13138">
        <ele>30</ele>
        <time>2019-05-21T12:34:15Z</time>
      </trkpt>
      <trkpt lat="49.06724" lon="2.13153">
        <ele>30</ele>
        <time>2019-05-21T12:34:18Z</time>
      </trkpt>
      <trkpt lat="49.06723" lon="2.1317">
        <ele>28</ele>
        <time>2019-05-21T12:34:31Z</time>
      </trkpt>
      <trkpt lat="49.06726" lon="2.13183">
        <ele>27</ele>
        <time>2019-05-21T12:34:39Z</time>
      </trkpt>
      <trkpt lat="49.06727" lon="2.13199">
        <ele>27</ele>
        <time>2019-05-21T12:34:45Z</time>
      </trkpt>
      <trkpt lat="49.06729" lon="2.13212">
        <ele>26</ele>
        <time>2019-05-21T12:34:50Z</time>
      </trkpt>
      <trkpt lat="49.06731" lon="2.1323">
        <ele>26</ele>
        <time>2019-05-21T12:34:57Z</time>
      </trkpt>
      <trkpt lat="49.06738" lon="2.13243">
        <ele>25</ele>
        <time>2019-05-21T12:35:00Z</time>
      </trkpt>
      <trkpt lat="49.06743" lon="2.13254">
        <ele>24</ele>
        <time>2019-05-21T12:35:04Z</time>
      </trkpt>
      <trkpt lat="49.06746" lon="2.13269">
        <ele>25</ele>
        <time>2019-05-21T12:35:10Z</time>
      </trkpt>
      <trkpt lat="49.0675" lon="2.13283">
        <ele>25</ele>
        <time>2019-05-21T12:35:16Z</time>
      </trkpt>
      <trkpt lat="49.06752" lon="2.13297">
        <ele>29</ele>
        <time>2019-05-21T12:35:25Z</time>
      </trkpt>
      <trkpt lat="49.06754" lon="2.13311">
        <ele>29</ele>
        <time>2019-05-21T12:35:34Z</time>
      </trkpt>
      <trkpt lat="49.0676" lon="2.13321">
        <ele>28</ele>
        <time>2019-05-21T12:35:39Z</time>
      </trkpt>
      <trkpt lat="49.06767" lon="2.13331">
        <ele>29</ele>
        <time>2019-05-21T12:35:43Z</time>
      </trkpt>
      <trkpt lat="49.06765" lon="2.13347">
        <ele>27</ele>
        <time>2019-05-21T12:35:51Z</time>
      </trkpt>
      <trkpt lat="49.06768" lon="2.1336">
        <ele>28</ele>
        <time>2019-05-21T12:35:58Z</time>
      </trkpt>
      <trkpt lat="49.06769" lon="2.13374">
        <ele>28</ele>
        <time>2019-05-21T12:36:07Z</time>
      </trkpt>
      <trkpt lat="49.06772" lon="2.1339">
        <ele>28</ele>
        <time>2019-05-21T12:36:14Z</time>
      </trkpt>
      <trkpt lat="49.06769" lon="2.13403">
        <ele>27</ele>
        <time>2019-05-21T12:36:23Z</time>
      </trkpt>
      <trkpt lat="49.06769" lon="2.13417">
        <ele>27</ele>
        <time>2019-05-21T12:36:29Z</time>
      </trkpt>
      <trkpt lat="49.06771" lon="2.13432">
        <ele>27</ele>
        <time>2019-05-21T12:36:37Z</time>
      </trkpt>
      <trkpt lat="49.06769" lon="2.13448">
        <ele>27</ele>
        <time>2019-05-21T12:36:44Z</time>
      </trkpt>
      <trkpt lat="49.06774" lon="2.13463">
        <ele>27</ele>
        <time>2019-05-21T12:36:50Z</time>
      </trkpt>
      <trkpt lat="49.06775" lon="2.13478">
        <ele>27</ele>
        <time>2019-05-21T12:36:58Z</time>
      </trkpt>
      <trkpt lat="49.06781" lon="2.13491">
        <ele>27</ele>
        <time>2019-05-21T12:37:06Z</time>
      </trkpt>
      <trkpt lat="49.06776" lon="2.13503">
        <ele>27</ele>
        <time>2019-05-21T12:37:11Z</time>
      </trkpt>
      <trkpt lat="49.06779" lon="2.13518">
        <ele>27</ele>
        <time>2019-05-21T12:37:17Z</time>
      </trkpt>
      <trkpt lat="49.0678" lon="2.13534">
        <ele>27</ele>
        <time>2019-05-21T12:37:29Z</time>
      </trkpt>
      <trkpt lat="49.06779" lon="2.13548">
        <ele>27</ele>
        <time>2019-05-21T12:37:34Z</time>
      </trkpt>
      <trkpt lat="49.06772" lon="2.13565">
        <ele>27</ele>
        <time>2019-05-21T12:37:37Z</time>
      </trkpt>
      <trkpt lat="49.0677" lon="2.13579">
        <ele>26</ele>
        <time>2019-05-21T12:37:42Z</time>
      </trkpt>
      <trkpt lat="49.06771" lon="2.13594">
        <ele>26</ele>
        <time>2019-05-21T12:37:50Z</time>
      </trkpt>
      <trkpt lat="49.06769" lon="2.13607">
        <ele>25</ele>
        <time>2019-05-21T12:37:56Z</time>
      </trkpt>
      <trkpt lat="49.06767" lon="2.13621">
        <ele>25</ele>
        <time>2019-05-21T12:38:03Z</time>
      </trkpt>
      <trkpt lat="49.06763" lon="2.13636">
        <ele>25</ele>
        <time>2019-05-21T12:38:10Z</time>
      </trkpt>
      <trkpt lat="49.06762" lon="2.13651">
        <ele>24</ele>
        <time>2019-05-21T12:38:15Z</time>
      </trkpt>
      <trkpt lat="49.06757" lon="2.13663">
        <ele>24</ele>
        <time>2019-05-21T12:38:21Z</time>
      </trkpt>
      <trkpt lat="49.06755" lon="2.13678">
        <ele>23</ele>
        <time>2019-05-21T12:38:29Z</time>
      </trkpt>
      <trkpt lat="49.0675" lon="2.1369">
        <ele>23</ele>
        <time>2019-05-21T12:38:37Z</time>
      </trkpt>
      <trkpt lat="49.06744" lon="2.13702">
        <ele>22</ele>
        <time>2019-05-21T12:38:44Z</time>
      </trkpt>
      <trkpt lat="49.06741" lon="2.13717">
        <ele>22</ele>
        <time>2019-05-21T12:38:48Z</time>
      </trkpt>
      <trkpt lat="49.06745" lon="2.13732">
        <ele>22</ele>
        <time>2019-05-21T12:38:51Z</time>
      </trkpt>
      <trkpt lat="49.0675" lon="2.13744">
        <ele>22</ele>
        <time>2019-05-21T12:38:55Z</time>
      </trkpt>
      <trkpt lat="49.06757" lon="2.13755">
        <ele>22</ele>
        <time>2019-05-21T12:38:59Z</time>
      </trkpt>
      <trkpt lat="49.06762" lon="2.13768">
        <ele>23</ele>
        <time>2019-05-21T12:39:03Z</time>
      </trkpt>
      <trkpt lat="49.06765" lon="2.13781">
        <ele>23</ele>
        <time>2019-05-21T12:39:11Z</time>
      </trkpt>
      <trkpt lat="49.06773" lon="2.1379">
        <ele>23</ele>
        <time>2019-05-21T12:39:22Z</time>
      </trkpt>
      <trkpt lat="49.06782" lon="2.13792">
        <ele>23</ele>
        <time>2019-05-21T12:39:39Z</time>
      </trkpt>
      <trkpt lat="49.06788" lon="2.1378">
        <ele>23</ele>
        <time>2019-05-21T12:39:45Z</time>
      </trkpt>
      <trkpt lat="49.06798" lon="2.13777">
        <ele>23</ele>
        <time>2019-05-21T12:39:52Z</time>
      </trkpt>
      <trkpt lat="49.06807" lon="2.13772">
        <ele>23</ele>
        <time>2019-05-21T12:39:56Z</time>
      </trkpt>
      <trkpt lat="49.06806" lon="2.13757">
        <ele>23</ele>
        <time>2019-05-21T12:40:02Z</time>
      </trkpt>
      <trkpt lat="49.06813" lon="2.13748">
        <ele>23</ele>
        <time>2019-05-21T12:40:05Z</time>
      </trkpt>
      <trkpt lat="49.06815" lon="2.13732">
        <ele>23</ele>
        <time>2019-05-21T12:40:10Z</time>
      </trkpt>
      <trkpt lat="49.06817" lon="2.13718">
        <ele>23</ele>
        <time>2019-05-21T12:40:17Z</time>
      </trkpt>
      <trkpt lat="49.06816" lon="2.13703">
        <ele>23</ele>
        <time>2019-05-21T12:40:25Z</time>
      </trkpt>
      <trkpt lat="49.06815" lon="2.13689">
        <ele>24</ele>
        <time>2019-05-21T12:40:34Z</time>
      </trkpt>
      <trkpt lat="49.06815" lon="2.13674">
        <ele>24</ele>
        <time>2019-05-21T12:40:40Z</time>
      </trkpt>
      <trkpt lat="49.06815" lon="2.13659">
        <ele>25</ele>
        <time>2019-05-21T12:40:48Z</time>
      </trkpt>
      <trkpt lat="49.06813" lon="2.13645">
        <ele>25</ele>
        <time>2019-05-21T12:40:55Z</time>
      </trkpt>
      <trkpt lat="49.06816" lon="2.1363">
        <ele>25</ele>
        <time>2019-05-21T12:41:05Z</time>
      </trkpt>
      <trkpt lat="49.06815" lon="2.13614">
        <ele>26</ele>
        <time>2019-05-21T12:41:11Z</time>
      </trkpt>
      <trkpt lat="49.0681" lon="2.13599">
        <ele>26</ele>
        <time>2019-05-21T12:41:16Z</time>
      </trkpt>
      <trkpt lat="49.06814" lon="2.13584">
        <ele>26</ele>
        <time>2019-05-21T12:41:22Z</time>
      </trkpt>
      <trkpt lat="49.0682" lon="2.1357">
        <ele>27</ele>
        <time>2019-05-21T12:41:27Z</time>
      </trkpt>
      <trkpt lat="49.06819" lon="2.13553">
        <ele>27</ele>
        <time>2019-05-21T12:41:35Z</time>
      </trkpt>
      <trkpt lat="49.06819" lon="2.13537">
        <ele>27</ele>
        <time>2019-05-21T12:41:42Z</time>
      </trkpt>
      <trkpt lat="49.06819" lon="2.13522">
        <ele>27</ele>
        <time>2019-05-21T12:41:49Z</time>
      </trkpt>
      <trkpt lat="49.06819" lon="2.13506">
        <ele>27</ele>
        <time>2019-05-21T12:41:56Z</time>
      </trkpt>
      <trkpt lat="49.0682" lon="2.13491">
        <ele>27</ele>
        <time>2019-05-21T12:42:02Z</time>
      </trkpt>
      <trkpt lat="49.06823" lon="2.13477">
        <ele>27</ele>
        <time>2019-05-21T12:42:07Z</time>
      </trkpt>
      <trkpt lat="49.06821" lon="2.13462">
        <ele>27</ele>
        <time>2019-05-21T12:42:12Z</time>
      </trkpt>
      <trkpt lat="49.06824" lon="2.13449">
        <ele>27</ele>
        <time>2019-05-21T12:42:22Z</time>
      </trkpt>
      <trkpt lat="49.06825" lon="2.13436">
        <ele>27</ele>
        <time>2019-05-21T12:42:29Z</time>
      </trkpt>
      <trkpt lat="49.06826" lon="2.1342">
        <ele>28</ele>
        <time>2019-05-21T12:42:36Z</time>
      </trkpt>
      <trkpt lat="49.06827" lon="2.13406">
        <ele>28</ele>
        <time>2019-05-21T12:42:41Z</time>
      </trkpt>
      <trkpt lat="49.06827" lon="2.13389">
        <ele>29</ele>
        <time>2019-05-21T12:42:47Z</time>
      </trkpt>
      <trkpt lat="49.06824" lon="2.13375">
        <ele>29</ele>
        <time>2019-05-21T12:42:53Z</time>
      </trkpt>
      <trkpt lat="49.06824" lon="2.13359">
        <ele>31</ele>
        <time>2019-05-21T12:42:58Z</time>
      </trkpt>
      <trkpt lat="49.06822" lon="2.13346">
        <ele>32</ele>
        <time>2019-05-21T12:43:04Z</time>
      </trkpt>
      <trkpt lat="49.06823" lon="2.13332">
        <ele>34</ele>
        <time>2019-05-21T12:43:11Z</time>
      </trkpt>
      <trkpt lat="49.06824" lon="2.13317">
        <ele>34</ele>
        <time>2019-05-21T12:43:21Z</time>
      </trkpt>
      <trkpt lat="49.06828" lon="2.13304">
        <ele>35</ele>
        <time>2019-05-21T12:43:28Z</time>
      </trkpt>
      <trkpt lat="49.06829" lon="2.1329">
        <ele>36</ele>
        <time>2019-05-21T12:43:35Z</time>
      </trkpt>
      <trkpt lat="49.06829" lon="2.13273">
        <ele>38</ele>
        <time>2019-05-21T12:43:41Z</time>
      </trkpt>
      <trkpt lat="49.06832" lon="2.13259">
        <ele>42</ele>
        <time>2019-05-21T12:43:47Z</time>
      </trkpt>
      <trkpt lat="49.06831" lon="2.13243">
        <ele>44</ele>
        <time>2019-05-21T12:43:54Z</time>
      </trkpt>
      <trkpt lat="49.06827" lon="2.1323">
        <ele>43</ele>
        <time>2019-05-21T12:43:58Z</time>
      </trkpt>
      <trkpt lat="49.0682" lon="2.13218">
        <ele>43</ele>
        <time>2019-05-21T12:44:05Z</time>
      </trkpt>
      <trkpt lat="49.06817" lon="2.13205">
        <ele>43</ele>
        <time>2019-05-21T12:44:11Z</time>
      </trkpt>
      <trkpt lat="49.06808" lon="2.13196">
        <ele>43</ele>
        <time>2019-05-21T12:44:19Z</time>
      </trkpt>
      <trkpt lat="49.06803" lon="2.1318">
        <ele>44</ele>
        <time>2019-05-21T12:44:26Z</time>
      </trkpt>
      <trkpt lat="49.06804" lon="2.13166">
        <ele>50</ele>
        <time>2019-05-21T12:44:33Z</time>
      </trkpt>
      <trkpt lat="49.06798" lon="2.13153">
        <ele>48</ele>
        <time>2019-05-21T12:44:42Z</time>
      </trkpt>
      <trkpt lat="49.06796" lon="2.1314">
        <ele>48</ele>
        <time>2019-05-21T12:44:47Z</time>
      </trkpt>
      <trkpt lat="49.06791" lon="2.13128">
        <ele>48</ele>
        <time>2019-05-21T12:44:55Z</time>
      </trkpt>
      <trkpt lat="49.06783" lon="2.13117">
        <ele>47</ele>
        <time>2019-05-21T12:45:00Z</time>
      </trkpt>
      <trkpt lat="49.06776" lon="2.13106">
        <ele>46</ele>
        <time>2019-05-21T12:45:07Z</time>
      </trkpt>
      <trkpt lat="49.06773" lon="2.13092">
        <ele>45</ele>
        <time>2019-05-21T12:45:12Z</time>
      </trkpt>
      <trkpt lat="49.06769" lon="2.13079">
        <ele>45</ele>
        <time>2019-05-21T12:45:18Z</time>
      </trkpt>
      <trkpt lat="49.06767" lon="2.13066">
        <ele>46</ele>
        <time>2019-05-21T12:45:25Z</time>
      </trkpt>
      <trkpt lat="49.06763" lon="2.13053">
        <ele>47</ele>
        <time>2019-05-21T12:45:30Z</time>
      </trkpt>
      <trkpt lat="49.06762" lon="2.1304">
        <ele>47</ele>
        <time>2019-05-21T12:45:39Z</time>
      </trkpt>
      <trkpt lat="49.06755" lon="2.13027">
        <ele>46</ele>
        <time>2019-05-21T12:45:44Z</time>
      </trkpt>
      <trkpt lat="49.0675" lon="2.13013">
        <ele>36</ele>
        <time>2019-05-21T12:45:49Z</time>
      </trkpt>
      <trkpt lat="49.06747" lon="2.12999">
        <ele>38</ele>
        <time>2019-05-21T12:45:58Z</time>
      </trkpt>
      <trkpt lat="49.0674" lon="2.12987">
        <ele>36</ele>
        <time>2019-05-21T12:46:03Z</time>
      </trkpt>
      <trkpt lat="49.06736" lon="2.12975">
        <ele>35</ele>
        <time>2019-05-21T12:46:06Z</time>
      </trkpt>
      <trkpt lat="49.06736" lon="2.12958">
        <ele>35</ele>
        <time>2019-05-21T12:46:13Z</time>
      </trkpt>
      <trkpt lat="49.0673" lon="2.12947">
        <ele>34</ele>
        <time>2019-05-21T12:46:21Z</time>
      </trkpt>
      <trkpt lat="49.06724" lon="2.12934">
        <ele>34</ele>
        <time>2019-05-21T12:46:30Z</time>
      </trkpt>
      <trkpt lat="49.06717" lon="2.12925">
        <ele>34</ele>
        <time>2019-05-21T12:46:37Z</time>
      </trkpt>
      <trkpt lat="49.06715" lon="2.1291">
        <ele>33</ele>
        <time>2019-05-21T12:46:45Z</time>
      </trkpt>
      <trkpt lat="49.06715" lon="2.12895">
        <ele>33</ele>
        <time>2019-05-21T12:46:50Z</time>
      </trkpt>
      <trkpt lat="49.06715" lon="2.12881">
        <ele>32</ele>
        <time>2019-05-21T12:46:56Z</time>
      </trkpt>
      <trkpt lat="49.06716" lon="2.12867">
        <ele>32</ele>
        <time>2019-05-21T12:47:03Z</time>
      </trkpt>
      <trkpt lat="49.06718" lon="2.12853">
        <ele>32</ele>
        <time>2019-05-21T12:47:08Z</time>
      </trkpt>
      <trkpt lat="49.06721" lon="2.12839">
        <ele>32</ele>
        <time>2019-05-21T12:47:13Z</time>
      </trkpt>
      <trkpt lat="49.06721" lon="2.12825">
        <ele>31</ele>
        <time>2019-05-21T12:47:20Z</time>
      </trkpt>
      <trkpt lat="49.06725" lon="2.1281">
        <ele>30</ele>
        <time>2019-05-21T12:47:27Z</time>
      </trkpt>
      <trkpt lat="49.06723" lon="2.12795">
        <ele>30</ele>
        <time>2019-05-21T12:47:31Z</time>
      </trkpt>
      <trkpt lat="49.06727" lon="2.12782">
        <ele>30</ele>
        <time>2019-05-21T12:47:37Z</time>
      </trkpt>
      <trkpt lat="49.06732" lon="2.12768">
        <ele>30</ele>
        <time>2019-05-21T12:47:44Z</time>
      </trkpt>
      <trkpt lat="49.06736" lon="2.12755">
        <ele>30</ele>
        <time>2019-05-21T12:47:50Z</time>
      </trkpt>
      <trkpt lat="49.06742" lon="2.12743">
        <ele>32</ele>
        <time>2019-05-21T12:47:57Z</time>
      </trkpt>
      <trkpt lat="49.06749" lon="2.12732">
        <ele>33</ele>
        <time>2019-05-21T12:48:04Z</time>
      </trkpt>
      <trkpt lat="49.06758" lon="2.12725">
        <ele>34</ele>
        <time>2019-05-21T12:48:10Z</time>
      </trkpt>
      <trkpt lat="49.06767" lon="2.12722">
        <ele>35</ele>
        <time>2019-05-21T12:48:14Z</time>
      </trkpt>
      <trkpt lat="49.06774" lon="2.12713">
        <ele>35</ele>
        <time>2019-05-21T12:48:23Z</time>
      </trkpt>
      <trkpt lat="49.06782" lon="2.12705">
        <ele>36</ele>
        <time>2019-05-21T12:48:29Z</time>
      </trkpt>
      <trkpt lat="49.06792" lon="2.127">
        <ele>36</ele>
        <time>2019-05-21T12:48:35Z</time>
      </trkpt>
      <trkpt lat="49.068" lon="2.12692">
        <ele>36</ele>
        <time>2019-05-21T12:48:41Z</time>
      </trkpt>
      <trkpt lat="49.06806" lon="2.12681">
        <ele>36</ele>
        <time>2019-05-21T12:48:49Z</time>
      </trkpt>
      <trkpt lat="49.06808" lon="2.12666">
        <ele>40</ele>
        <time>2019-05-21T12:48:57Z</time>
      </trkpt>
      <trkpt lat="49.06814" lon="2.12655">
        <ele>40</ele>
        <time>2019-05-21T12:49:02Z</time>
      </trkpt>
      <trkpt lat="49.06821" lon="2.12644">
        <ele>40</ele>
        <time>2019-05-21T12:49:08Z</time>
      </trkpt>
      <trkpt lat="49.06824" lon="2.1263">
        <ele>42</ele>
        <time>2019-05-21T12:49:15Z</time>
      </trkpt>
      <trkpt lat="49.06828" lon="2.12616">
        <ele>43</ele>
        <time>2019-05-21T12:49:23Z</time>
      </trkpt>
      <trkpt lat="49.06832" lon="2.12602">
        <ele>44</ele>
        <time>2019-05-21T12:49:30Z</time>
      </trkpt>
      <trkpt lat="49.06836" lon="2.12588">
        <ele>43</ele>
        <time>2019-05-21T12:49:37Z</time>
      </trkpt>
      <trkpt lat="49.06837" lon="2.12574">
        <ele>47</ele>
        <time>2019-05-21T12:49:44Z</time>
      </trkpt>
      <trkpt lat="49.0684" lon="2.12561">
        <ele>50</ele>
        <time>2019-05-21T12:49:52Z</time>
      </trkpt>
      <trkpt lat="49.0684" lon="2.12547">
        <ele>52</ele>
        <time>2019-05-21T12:50:00Z</time>
      </trkpt>
      <trkpt lat="49.06835" lon="2.12535">
        <ele>54</ele>
        <time>2019-05-21T12:50:04Z</time>
      </trkpt>
      <trkpt lat="49.06834" lon="2.12516">
        <ele>57</ele>
        <time>2019-05-21T12:50:15Z</time>
      </trkpt>
      <trkpt lat="49.06828" lon="2.12503">
        <ele>59</ele>
        <time>2019-05-21T12:50:22Z</time>
      </trkpt>
      <trkpt lat="49.06826" lon="2.1249">
        <ele>62</ele>
        <time>2019-05-21T12:50:29Z</time>
      </trkpt>
      <trkpt lat="49.06828" lon="2.12475">
        <ele>63</ele>
        <time>2019-05-21T12:50:34Z</time>
      </trkpt>
      <trkpt lat="49.0683" lon="2.1246">
        <ele>65</ele>
        <time>2019-05-21T12:50:40Z</time>
      </trkpt>
      <trkpt lat="49.06824" lon="2.12449">
        <ele>65</ele>
        <time>2019-05-21T12:50:53Z</time>
      </trkpt>
      <trkpt lat="49.06824" lon="2.12434">
        <ele>66</ele>
        <time>2019-05-21T12:50:58Z</time>
      </trkpt>
      <trkpt lat="49.06819" lon="2.12421">
        <ele>66</ele>
        <time>2019-05-21T12:51:04Z</time>
      </trkpt>
      <trkpt lat="49.06816" lon="2.12406">
        <ele>69</ele>
        <time>2019-05-21T12:51:12Z</time>
      </trkpt>
      <trkpt lat="49.06808" lon="2.12399">
        <ele>69</ele>
        <time>2019-05-21T12:51:23Z</time>
      </trkpt>
      <trkpt lat="49.068" lon="2.12391">
        <ele>70</ele>
        <time>2019-05-21T12:51:29Z</time>
      </trkpt>
      <trkpt lat="49.06793" lon="2.1238">
        <ele>70</ele>
        <time>2019-05-21T12:51:37Z</time>
      </trkpt>
      <trkpt lat="49.06784" lon="2.12371">
        <ele>71</ele>
        <time>2019-05-21T12:51:45Z</time>
      </trkpt>
      <trkpt lat="49.06777" lon="2.12359">
        <ele>71</ele>
        <time>2019-05-21T12:51:52Z</time>
      </trkpt>
      <trkpt lat="49.06772" lon="2.12347">
        <ele>72</ele>
        <time>2019-05-21T12:52:00Z</time>
      </trkpt>
      <trkpt lat="49.06767" lon="2.12336">
        <ele>72</ele>
        <time>2019-05-21T12:52:12Z</time>
      </trkpt>
      <trkpt lat="49.06758" lon="2.12329">
        <ele>74</ele>
        <time>2019-05-21T12:52:18Z</time>
      </trkpt>
      <trkpt lat="49.06749" lon="2.1233">
        <ele>74</ele>
        <time>2019-05-21T12:52:22Z</time>
      </trkpt>
      <trkpt lat="49.06744" lon="2.12315">
        <ele>75</ele>
        <time>2019-05-21T12:52:27Z</time>
      </trkpt>
      <trkpt lat="49.06735" lon="2.1231">
        <ele>75</ele>
        <time>2019-05-21T12:52:40Z</time>
      </trkpt>
      <trkpt lat="49.06724" lon="2.1231">
        <ele>76</ele>
        <time>2019-05-21T12:52:47Z</time>
      </trkpt>
      <trkpt lat="49.06717" lon="2.12298">
        <ele>76</ele>
        <time>2019-05-21T12:53:02Z</time>
      </trkpt>
      <trkpt lat="49.06711" lon="2.12286">
        <ele>76</ele>
        <time>2019-05-21T12:53:08Z</time>
      </trkpt>
      <trkpt lat="49.06706" lon="2.12274">
        <ele>76</ele>
        <time>2019-05-21T12:53:16Z</time>
      </trkpt>
      <trkpt lat="49.06696" lon="2.1227">
        <ele>76</ele>
        <time>2019-05-21T12:53:22Z</time>
      </trkpt>
      <trkpt lat="49.06693" lon="2.12255">
        <ele>77</ele>
        <time>2019-05-21T12:53:27Z</time>
      </trkpt>
      <trkpt lat="49.06681" lon="2.12254">
        <ele>77</ele>
        <time>2019-05-21T12:53:34Z</time>
      </trkpt>
      <trkpt lat="49.06673" lon="2.1225">
        <ele>78</ele>
        <time>2019-05-21T12:53:40Z</time>
      </trkpt>
      <trkpt lat="49.06667" lon="2.12239">
        <ele>78</ele>
        <time>2019-05-21T12:53:46Z</time>
      </trkpt>
      <trkpt lat="49.06659" lon="2.1223">
        <ele>78</ele>
        <time>2019-05-21T12:53:52Z</time>
      </trkpt>
      <trkpt lat="49.0665" lon="2.12221">
        <ele>78</ele>
        <time>2019-05-21T12:53:57Z</time>
      </trkpt>
      <trkpt lat="49.06647" lon="2.12206">
        <ele>78</ele>
        <time>2019-05-21T12:54:04Z</time>
      </trkpt>
      <trkpt lat="49.06643" lon="2.12191">
        <ele>79</ele>
        <time>2019-05-21T12:54:17Z</time>
      </trkpt>
      <trkpt lat="49.06639" lon="2.12177">
        <ele>79</ele>
        <time>2019-05-21T12:54:23Z</time>
      </trkpt>
      <trkpt lat="49.06633" lon="2.12163">
        <ele>80</ele>
        <time>2019-05-21T12:54:28Z</time>
      </trkpt>
      <trkpt lat="49.06627" lon="2.12151">
        <ele>80</ele>
        <time>2019-05-21T12:54:36Z</time>
      </trkpt>
      <trkpt lat="49.06618" lon="2.1214">
        <ele>80</ele>
        <time>2019-05-21T12:54:45Z</time>
      </trkpt>
      <trkpt lat="49.0661" lon="2.12132">
        <ele>79</ele>
        <time>2019-05-21T12:54:52Z</time>
      </trkpt>
      <trkpt lat="49.066" lon="2.12123">
        <ele>79</ele>
        <time>2019-05-21T12:54:58Z</time>
      </trkpt>
      <trkpt lat="49.06594" lon="2.12113">
        <ele>79</ele>
        <time>2019-05-21T12:55:04Z</time>
      </trkpt>
      <trkpt lat="49.06586" lon="2.12104">
        <ele>79</ele>
        <time>2019-05-21T12:55:11Z</time>
      </trkpt>
      <trkpt lat="49.06576" lon="2.12099">
        <ele>78</ele>
        <time>2019-05-21T12:55:19Z</time>
      </trkpt>
      <trkpt lat="49.06568" lon="2.12092">
        <ele>78</ele>
        <time>2019-05-21T12:55:25Z</time>
      </trkpt>
      <trkpt lat="49.06559" lon="2.12088">
        <ele>78</ele>
        <time>2019-05-21T12:55:31Z</time>
      </trkpt>
      <trkpt lat="49.0655" lon="2.12084">
        <ele>78</ele>
        <time>2019-05-21T12:55:36Z</time>
      </trkpt>
      <trkpt lat="49.06542" lon="2.12081">
        <ele>79</ele>
        <time>2019-05-21T12:55:45Z</time>
      </trkpt>
      <trkpt lat="49.06531" lon="2.12082">
        <ele>79</ele>
        <time>2019-05-21T12:55:53Z</time>
      </trkpt>
      <trkpt lat="49.06521" lon="2.12074">
        <ele>79</ele>
        <time>2019-05-21T12:55:58Z</time>
      </trkpt>
      <trkpt lat="49.06515" lon="2.12063">
        <ele>79</ele>
        <time>2019-05-21T12:56:03Z</time>
      </trkpt>
      <trkpt lat="49.06507" lon="2.12055">
        <ele>79</ele>
        <time>2019-05-21T12:56:09Z</time>
      </trkpt>
      <trkpt lat="49.06497" lon="2.12045">
        <ele>78</ele>
        <time>2019-05-21T12:56:13Z</time>
      </trkpt>
      <trkpt lat="49.06487" lon="2.12041">
        <ele>78</ele>
        <time>2019-05-21T12:56:16Z</time>
      </trkpt>
      <trkpt lat="49.06477" lon="2.12036">
        <ele>78</ele>
        <time>2019-05-21T12:56:23Z</time>
      </trkpt>
      <trkpt lat="49.06468" lon="2.1203">
        <ele>78</ele>
        <time>2019-05-21T12:56:32Z</time>
      </trkpt>
      <trkpt lat="49.06457" lon="2.12026">
        <ele>78</ele>
        <time>2019-05-21T12:56:49Z</time>
      </trkpt>
      <trkpt lat="49.06448" lon="2.12018">
        <ele>78</ele>
        <time>2019-05-21T12:56:53Z</time>
      </trkpt>
      <trkpt lat="49.0644" lon="2.12006">
        <ele>78</ele>
        <time>2019-05-21T12:56:59Z</time>
      </trkpt>
      <trkpt lat="49.06433" lon="2.11996">
        <ele>79</ele>
        <time>2019-05-21T12:57:09Z</time>
      </trkpt>
      <trkpt lat="49.06425" lon="2.12002">
        <ele>79</ele>
        <time>2019-05-21T12:57:12Z</time>
      </trkpt>
      <trkpt lat="49.06418" lon="2.1201">
        <ele>79</ele>
        <time>2019-05-21T12:57:19Z</time>
      </trkpt>
      <trkpt lat="49.06415" lon="2.11995">
        <ele>79</ele>
        <time>2019-05-21T12:57:29Z</time>
      </trkpt>
      <trkpt lat="49.06412" lon="2.1198">
        <ele>77</ele>
        <time>2019-05-21T12:57:33Z</time>
      </trkpt>
      <trkpt lat="49.06404" lon="2.11968">
        <ele>77</ele>
        <time>2019-05-21T12:57:39Z</time>
      </trkpt>
      <trkpt lat="49.06395" lon="2.11972">
        <ele>76</ele>
        <time>2019-05-21T12:57:44Z</time>
      </trkpt>
      <trkpt lat="49.06386" lon="2.11966">
        <ele>76</ele>
        <time>2019-05-21T12:57:48Z</time>
      </trkpt>
      <trkpt lat="49.06378" lon="2.11956">
        <ele>76</ele>
        <time>2019-05-21T12:57:55Z</time>
      </trkpt>
      <trkpt lat="49.06371" lon="2.11948">
        <ele>76</ele>
        <time>2019-05-21T12:58:01Z</time>
      </trkpt>
      <trkpt lat="49.06362" lon="2.1194">
        <ele>76</ele>
        <time>2019-05-21T12:58:07Z</time>
      </trkpt>
      <trkpt lat="49.06356" lon="2.11927">
        <ele>76</ele>
        <time>2019-05-21T12:58:13Z</time>
      </trkpt>
      <trkpt lat="49.06348" lon="2.11919">
        <ele>76</ele>
        <time>2019-05-21T12:58:18Z</time>
      </trkpt>
      <trkpt lat="49.06341" lon="2.11909">
        <ele>77</ele>
        <time>2019-05-21T12:58:24Z</time>
      </trkpt>
      <trkpt lat="49.06336" lon="2.11892">
        <ele>76</ele>
        <time>2019-05-21T12:58:42Z</time>
      </trkpt>
      <trkpt lat="49.06323" lon="2.11897">
        <ele>72</ele>
        <time>2019-05-21T12:58:46Z</time>
      </trkpt>
      <trkpt lat="49.06313" lon="2.11889">
        <ele>70</ele>
        <time>2019-05-21T12:58:48Z</time>
      </trkpt>
      <trkpt lat="49.06308" lon="2.11876">
        <ele>70</ele>
        <time>2019-05-21T12:58:54Z</time>
      </trkpt>
      <trkpt lat="49.06309" lon="2.11862">
        <ele>70</ele>
        <time>2019-05-21T12:59:09Z</time>
      </trkpt>
      <trkpt lat="49.06302" lon="2.1185">
        <ele>70</ele>
        <time>2019-05-21T12:59:20Z</time>
      </trkpt>
      <trkpt lat="49.06295" lon="2.11841">
        <ele>69</ele>
        <time>2019-05-21T12:59:33Z</time>
      </trkpt>
      <trkpt lat="49.06291" lon="2.11825">
        <ele>70</ele>
        <time>2019-05-21T12:59:41Z</time>
      </trkpt>
      <trkpt lat="49.06282" lon="2.11817">
        <ele>70</ele>
        <time>2019-05-21T12:59:46Z</time>
      </trkpt>
      <trkpt lat="49.06274" lon="2.11811">
        <ele>69</ele>
        <time>2019-05-21T12:59:55Z</time>
      </trkpt>
      <trkpt lat="49.06271" lon="2.11796">
        <ele>70</ele>
        <time>2019-05-21T13:00:08Z</time>
      </trkpt>
      <trkpt lat="49.06269" lon="2.11782">
        <ele>70</ele>
        <time>2019-05-21T13:00:14Z</time>
      </trkpt>
      <trkpt lat="49.06265" lon="2.11768">
        <ele>70</ele>
        <time>2019-05-21T13:00:21Z</time>
      </trkpt>
      <trkpt lat="49.06257" lon="2.11759">
        <ele>69</ele>
        <time>2019-05-21T13:00:27Z</time>
      </trkpt>
      <trkpt lat="49.06251" lon="2.11749">
        <ele>69</ele>
        <time>2019-05-21T13:00:42Z</time>
      </trkpt>
      <trkpt lat="49.06244" lon="2.11737">
        <ele>67</ele>
        <time>2019-05-21T13:00:49Z</time>
      </trkpt>
      <trkpt lat="49.06236" lon="2.11726">
        <ele>66</ele>
        <time>2019-05-21T13:00:54Z</time>
      </trkpt>
      <trkpt lat="49.06228" lon="2.11719">
        <ele>66</ele>
        <time>2019-05-21T13:01:02Z</time>
      </trkpt>
      <trkpt lat="49.06219" lon="2.11714">
        <ele>65</ele>
        <time>2019-05-21T13:01:13Z</time>
      </trkpt>
      <trkpt lat="49.06209" lon="2.11714">
        <ele>64</ele>
        <time>2019-05-21T13:01:22Z</time>
      </trkpt>
      <trkpt lat="49.06199" lon="2.11715">
        <ele>63</ele>
        <time>2019-05-21T13:01:28Z</time>
      </trkpt>
      <trkpt lat="49.0619" lon="2.11718">
        <ele>62</ele>
        <time>2019-05-21T13:01:43Z</time>
      </trkpt>
      <trkpt lat="49.0618" lon="2.11713">
        <ele>62</ele>
        <time>2019-05-21T13:01:48Z</time>
      </trkpt>
      <trkpt lat="49.06172" lon="2.11707">
        <ele>62</ele>
        <time>2019-05-21T13:01:52Z</time>
      </trkpt>
      <trkpt lat="49.06162" lon="2.11705">
        <ele>52</ele>
        <time>2019-05-21T13:02:05Z</time>
      </trkpt>
      <trkpt lat="49.06155" lon="2.11716">
        <ele>50</ele>
        <time>2019-05-21T13:02:16Z</time>
      </trkpt>
      <trkpt lat="49.06146" lon="2.1171">
        <ele>50</ele>
        <time>2019-05-21T13:02:26Z</time>
      </trkpt>
      <trkpt lat="49.06143" lon="2.11696">
        <ele>51</ele>
        <time>2019-05-21T13:02:31Z</time>
      </trkpt>
      <trkpt lat="49.06139" lon="2.11683">
        <ele>52</ele>
        <time>2019-05-21T13:02:37Z</time>
      </trkpt>
      <trkpt lat="49.06131" lon="2.11674">
        <ele>51</ele>
        <time>2019-05-21T13:02:44Z</time>
      </trkpt>
      <trkpt lat="49.06125" lon="2.11662">
        <ele>57</ele>
        <time>2019-05-21T13:02:51Z</time>
      </trkpt>
      <trkpt lat="49.0612" lon="2.11651">
        <ele>56</ele>
        <time>2019-05-21T13:03:01Z</time>
      </trkpt>
      <trkpt lat="49.06115" lon="2.11639">
        <ele>56</ele>
        <time>2019-05-21T13:03:08Z</time>
      </trkpt>
      <trkpt lat="49.06109" lon="2.11628">
        <ele>57</ele>
        <time>2019-05-21T13:03:13Z</time>
      </trkpt>
      <trkpt lat="49.06105" lon="2.11616">
        <ele>57</ele>
        <time>2019-05-21T13:03:20Z</time>
      </trkpt>
      <trkpt lat="49.06098" lon="2.11606">
        <ele>57</ele>
        <time>2019-05-21T13:03:29Z</time>
      </trkpt>
      <trkpt lat="49.06094" lon="2.1159">
        <ele>58</ele>
        <time>2019-05-21T13:03:36Z</time>
      </trkpt>
      <trkpt lat="49.06088" lon="2.1158">
        <ele>59</ele>
        <time>2019-05-21T13:03:44Z</time>
      </trkpt>
      <trkpt lat="49.06083" lon="2.11568">
        <ele>55</ele>
        <time>2019-05-21T13:03:52Z</time>
      </trkpt>
      <trkpt lat="49.06074" lon="2.11564">
        <ele>54</ele>
        <time>2019-05-21T13:03:59Z</time>
      </trkpt>
      <trkpt lat="49.06064" lon="2.11557">
        <ele>53</ele>
        <time>2019-05-21T13:04:06Z</time>
      </trkpt>
      <trkpt lat="49.06056" lon="2.11553">
        <ele>52</ele>
        <time>2019-05-21T13:04:11Z</time>
      </trkpt>
      <trkpt lat="49.06049" lon="2.11543">
        <ele>52</ele>
        <time>2019-05-21T13:04:19Z</time>
      </trkpt>
      <trkpt lat="49.06041" lon="2.11536">
        <ele>51</ele>
        <time>2019-05-21T13:04:26Z</time>
      </trkpt>
      <trkpt lat="49.06031" lon="2.11533">
        <ele>50</ele>
        <time>2019-05-21T13:04:34Z</time>
      </trkpt>
      <trkpt lat="49.06026" lon="2.1152">
        <ele>50</ele>
        <time>2019-05-21T13:04:40Z</time>
      </trkpt>
      <trkpt lat="49.06017" lon="2.11512">
        <ele>50</ele>
        <time>2019-05-21T13:04:44Z</time>
      </trkpt>
      <trkpt lat="49.06012" lon="2.11501">
        <ele>49</ele>
        <time>2019-05-21T13:04:52Z</time>
      </trkpt>
      <trkpt lat="49.06002" lon="2.11495">
        <ele>51</ele>
        <time>2019-05-21T13:04:59Z</time>
      </trkpt>
      <trkpt lat="49.05996" lon="2.11485">
        <ele>48</ele>
        <time>2019-05-21T13:05:08Z</time>
      </trkpt>
      <trkpt lat="49.05989" lon="2.11473">
        <ele>48</ele>
        <time>2019-05-21T13:05:14Z</time>
      </trkpt>
      <trkpt lat="49.05983" lon="2.11461">
        <ele>48</ele>
        <time>2019-05-21T13:05:20Z</time>
      </trkpt>
      <trkpt lat="49.05976" lon="2.11449">
        <ele>49</ele>
        <time>2019-05-21T13:05:29Z</time>
      </trkpt>
      <trkpt lat="49.05967" lon="2.11444">
        <ele>48</ele>
        <time>2019-05-21T13:05:37Z</time>
      </trkpt>
      <trkpt lat="49.05961" lon="2.11434">
        <ele>48</ele>
        <time>2019-05-21T13:05:42Z</time>
      </trkpt>
      <trkpt lat="49.05956" lon="2.1142">
        <ele>48</ele>
        <time>2019-05-21T13:05:51Z</time>
      </trkpt>
      <trkpt lat="49.05951" lon="2.11408">
        <ele>55</ele>
        <time>2019-05-21T13:05:57Z</time>
      </trkpt>
      <trkpt lat="49.05943" lon="2.11401">
        <ele>54</ele>
        <time>2019-05-21T13:06:03Z</time>
      </trkpt>
      <trkpt lat="49.05935" lon="2.11391">
        <ele>54</ele>
        <time>2019-05-21T13:06:11Z</time>
      </trkpt>
      <trkpt lat="49.05928" lon="2.1138">
        <ele>54</ele>
        <time>2019-05-21T13:06:15Z</time>
      </trkpt>
      <trkpt lat="49.05919" lon="2.1138">
        <ele>54</ele>
        <time>2019-05-21T13:06:26Z</time>
      </trkpt>
      <trkpt lat="49.05909" lon="2.11371">
        <ele>45</ele>
        <time>2019-05-21T13:06:33Z</time>
      </trkpt>
      <trkpt lat="49.059" lon="2.11365">
        <ele>45</ele>
        <time>2019-05-21T13:06:40Z</time>
      </trkpt>
      <trkpt lat="49.05891" lon="2.11369">
        <ele>44</ele>
        <time>2019-05-21T13:06:54Z</time>
      </trkpt>
      <trkpt lat="49.0588" lon="2.1137">
        <ele>42</ele>
        <time>2019-05-21T13:07:10Z</time>
      </trkpt>
      <trkpt lat="49.05872" lon="2.11364">
        <ele>42</ele>
        <time>2019-05-21T13:07:15Z</time>
      </trkpt>
      <trkpt lat="49.05864" lon="2.11356">
        <ele>41</ele>
        <time>2019-05-21T13:07:22Z</time>
      </trkpt>
      <trkpt lat="49.05861" lon="2.11341">
        <ele>41</ele>
        <time>2019-05-21T13:07:28Z</time>
      </trkpt>
      <trkpt lat="49.05853" lon="2.11335">
        <ele>40</ele>
        <time>2019-05-21T13:07:37Z</time>
      </trkpt>
      <trkpt lat="49.05847" lon="2.11322">
        <ele>45</ele>
        <time>2019-05-21T13:07:45Z</time>
      </trkpt>
      <trkpt lat="49.05838" lon="2.11314">
        <ele>46</ele>
        <time>2019-05-21T13:07:50Z</time>
      </trkpt>
      <trkpt lat="49.0583" lon="2.11305">
        <ele>38</ele>
        <time>2019-05-21T13:07:56Z</time>
      </trkpt>
      <trkpt lat="49.05824" lon="2.11294">
        <ele>39</ele>
        <time>2019-05-21T13:08:03Z</time>
      </trkpt>
      <trkpt lat="49.05818" lon="2.11283">
        <ele>40</ele>
        <time>2019-05-21T13:08:12Z</time>
      </trkpt>
      <trkpt lat="49.05811" lon="2.11272">
        <ele>41</ele>
        <time>2019-05-21T13:08:20Z</time>
      </trkpt>
      <trkpt lat="49.05803" lon="2.11265">
        <ele>40</ele>
        <time>2019-05-21T13:08:29Z</time>
      </trkpt>
      <trkpt lat="49.05794" lon="2.11257">
        <ele>39</ele>
        <time>2019-05-21T13:08:36Z</time>
      </trkpt>
      <trkpt lat="49.05785" lon="2.1125">
        <ele>38</ele>
        <time>2019-05-21T13:08:42Z</time>
      </trkpt>
      <trkpt lat="49.05779" lon="2.11238">
        <ele>44</ele>
        <time>2019-05-21T13:08:49Z</time>
      </trkpt>
      <trkpt lat="49.05772" lon="2.11228">
        <ele>44</ele>
        <time>2019-05-21T13:08:56Z</time>
      </trkpt>
      <trkpt lat="49.05765" lon="2.11218">
        <ele>44</ele>
        <time>2019-05-21T13:09:02Z</time>
      </trkpt>
      <trkpt lat="49.05758" lon="2.11206">
        <ele>45</ele>
        <time>2019-05-21T13:09:09Z</time>
      </trkpt>
      <trkpt lat="49.0575" lon="2.11197">
        <ele>36</ele>
        <time>2019-05-21T13:09:16Z</time>
      </trkpt>
      <trkpt lat="49.05744" lon="2.11186">
        <ele>38</ele>
        <time>2019-05-21T13:09:24Z</time>
      </trkpt>
      <trkpt lat="49.05737" lon="2.11176">
        <ele>38</ele>
        <time>2019-05-21T13:09:31Z</time>
      </trkpt>
      <trkpt lat="49.0573" lon="2.11166">
        <ele>42</ele>
        <time>2019-05-21T13:09:37Z</time>
      </trkpt>
      <trkpt lat="49.05722" lon="2.11157">
        <ele>41</ele>
        <time>2019-05-21T13:09:44Z</time>
      </trkpt>
      <trkpt lat="49.05716" lon="2.11145">
        <ele>40</ele>
        <time>2019-05-21T13:09:50Z</time>
      </trkpt>
      <trkpt lat="49.0571" lon="2.11135">
        <ele>40</ele>
        <time>2019-05-21T13:09:56Z</time>
      </trkpt>
      <trkpt lat="49.05704" lon="2.11125">
        <ele>40</ele>
        <time>2019-05-21T13:10:03Z</time>
      </trkpt>
      <trkpt lat="49.05697" lon="2.11114">
        <ele>40</ele>
        <time>2019-05-21T13:10:10Z</time>
      </trkpt>
      <trkpt lat="49.05689" lon="2.11106">
        <ele>40</ele>
        <time>2019-05-21T13:10:17Z</time>
      </trkpt>
      <trkpt lat="49.0568" lon="2.11097">
        <ele>39</ele>
        <time>2019-05-21T13:10:24Z</time>
      </trkpt>
      <trkpt lat="49.05672" lon="2.11087">
        <ele>37</ele>
        <time>2019-05-21T13:10:29Z</time>
      </trkpt>
      <trkpt lat="49.05668" lon="2.11075">
        <ele>40</ele>
        <time>2019-05-21T13:10:39Z</time>
      </trkpt>
      <trkpt lat="49.05663" lon="2.11063">
        <ele>36</ele>
        <time>2019-05-21T13:10:46Z</time>
      </trkpt>
      <trkpt lat="49.05658" lon="2.1105">
        <ele>37</ele>
        <time>2019-05-21T13:10:52Z</time>
      </trkpt>
      <trkpt lat="49.05655" lon="2.11037">
        <ele>38</ele>
        <time>2019-05-21T13:11:02Z</time>
      </trkpt>
      <trkpt lat="49.05646" lon="2.11033">
        <ele>38</ele>
        <time>2019-05-21T13:11:07Z</time>
      </trkpt>
      <trkpt lat="49.05642" lon="2.11019">
        <ele>39</ele>
        <time>2019-05-21T13:11:13Z</time>
      </trkpt>
      <trkpt lat="49.05636" lon="2.11007">
        <ele>39</ele>
        <time>2019-05-21T13:11:18Z</time>
      </trkpt>
      <trkpt lat="49.05629" lon="2.10998">
        <ele>44</ele>
        <time>2019-05-21T13:11:27Z</time>
      </trkpt>
      <trkpt lat="49.0562" lon="2.10996">
        <ele>42</ele>
        <time>2019-05-21T13:11:35Z</time>
      </trkpt>
      <trkpt lat="49.05612" lon="2.10987">
        <ele>41</ele>
        <time>2019-05-21T13:11:58Z</time>
      </trkpt>
      <trkpt lat="49.05605" lon="2.10975">
        <ele>42</ele>
        <time>2019-05-21T13:12:07Z</time>
      </trkpt>
      <trkpt lat="49.05598" lon="2.10966">
        <ele>42</ele>
        <time>2019-05-21T13:12:15Z</time>
      </trkpt>
      <trkpt lat="49.05592" lon="2.10956">
        <ele>43</ele>
        <time>2019-05-21T13:12:24Z</time>
      </trkpt>
      <trkpt lat="49.05584" lon="2.10947">
        <ele>43</ele>
        <time>2019-05-21T13:12:35Z</time>
      </trkpt>
      <trkpt lat="49.05579" lon="2.10935">
        <ele>37</ele>
        <time>2019-05-21T13:12:45Z</time>
      </trkpt>
      <trkpt lat="49.05574" lon="2.10923">
        <ele>39</ele>
        <time>2019-05-21T13:12:55Z</time>
      </trkpt>
      <trkpt lat="49.05568" lon="2.10911">
        <ele>42</ele>
        <time>2019-05-21T13:13:03Z</time>
      </trkpt>
      <trkpt lat="49.05563" lon="2.10899">
        <ele>42</ele>
        <time>2019-05-21T13:13:11Z</time>
      </trkpt>
      <trkpt lat="49.05557" lon="2.10886">
        <ele>41</ele>
        <time>2019-05-21T13:13:25Z</time>
      </trkpt>
      <trkpt lat="49.05551" lon="2.10875">
        <ele>41</ele>
        <time>2019-05-21T13:13:30Z</time>
      </trkpt>
      <trkpt lat="49.05544" lon="2.10866">
        <ele>41</ele>
        <time>2019-05-21T13:13:39Z</time>
      </trkpt>
      <trkpt lat="49.05536" lon="2.10857">
        <ele>41</ele>
        <time>2019-05-21T13:13:47Z</time>
      </trkpt>
      <trkpt lat="49.05528" lon="2.10846">
        <ele>40</ele>
        <time>2019-05-21T13:13:53Z</time>
      </trkpt>
      <trkpt lat="49.0552" lon="2.1084">
        <ele>39</ele>
        <time>2019-05-21T13:13:57Z</time>
      </trkpt>
      <trkpt lat="49.05511" lon="2.10834">
        <ele>38</ele>
        <time>2019-05-21T13:14:02Z</time>
      </trkpt>
      <trkpt lat="49.05503" lon="2.10828">
        <ele>38</ele>
        <time>2019-05-21T13:14:06Z</time>
      </trkpt>
      <trkpt lat="49.05493" lon="2.10822">
        <ele>35</ele>
        <time>2019-05-21T13:14:10Z</time>
      </trkpt>
      <trkpt lat="49.05484" lon="2.10817">
        <ele>35</ele>
        <time>2019-05-21T13:14:15Z</time>
      </trkpt>
      <trkpt lat="49.05478" lon="2.10805">
        <ele>34</ele>
        <time>2019-05-21T13:14:28Z</time>
      </trkpt>
      <trkpt lat="49.05469" lon="2.10798">
        <ele>34</ele>
        <time>2019-05-21T13:14:34Z</time>
      </trkpt>
      <trkpt lat="49.05462" lon="2.10787">
        <ele>33</ele>
        <time>2019-05-21T13:14:41Z</time>
      </trkpt>
      <trkpt lat="49.05456" lon="2.10777">
        <ele>33</ele>
        <time>2019-05-21T13:14:46Z</time>
      </trkpt>
      <trkpt lat="49.05447" lon="2.10772">
        <ele>33</ele>
        <time>2019-05-21T13:14:50Z</time>
      </trkpt>
      <trkpt lat="49.05439" lon="2.10763">
        <ele>33</ele>
        <time>2019-05-21T13:14:57Z</time>
      </trkpt>
      <trkpt lat="49.0543" lon="2.10756">
        <ele>34</ele>
        <time>2019-05-21T13:15:09Z</time>
      </trkpt>
      <trkpt lat="49.05423" lon="2.10747">
        <ele>34</ele>
        <time>2019-05-21T13:15:18Z</time>
      </trkpt>
      <trkpt lat="49.05415" lon="2.10737">
        <ele>33</ele>
        <time>2019-05-21T13:15:26Z</time>
      </trkpt>
      <trkpt lat="49.0541" lon="2.10723">
        <ele>33</ele>
        <time>2019-05-21T13:15:33Z</time>
      </trkpt>
      <trkpt lat="49.05403" lon="2.10714">
        <ele>32</ele>
        <time>2019-05-21T13:15:39Z</time>
      </trkpt>
      <trkpt lat="49.05398" lon="2.10703">
        <ele>32</ele>
        <time>2019-05-21T13:16:00Z</time>
      </trkpt>
      <trkpt lat="49.0539" lon="2.10694">
        <ele>32</ele>
        <time>2019-05-21T13:16:23Z</time>
      </trkpt>
      <trkpt lat="49.05387" lon="2.10682">
        <ele>32</ele>
        <time>2019-05-21T13:16:30Z</time>
      </trkpt>
      <trkpt lat="49.05384" lon="2.10668">
        <ele>32</ele>
        <time>2019-05-21T13:16:37Z</time>
      </trkpt>
      <trkpt lat="49.05379" lon="2.10656">
        <ele>31</ele>
        <time>2019-05-21T13:16:45Z</time>
      </trkpt>
      <trkpt lat="49.05374" lon="2.10667">
        <ele>31</ele>
        <time>2019-05-21T13:16:55Z</time>
      </trkpt>
      <trkpt lat="49.05383" lon="2.10671">
        <ele>32</ele>
        <time>2019-05-21T13:17:12Z</time>
      </trkpt>
      <trkpt lat="49.05381" lon="2.10656">
        <ele>31</ele>
        <time>2019-05-21T13:17:18Z</time>
      </trkpt>
      <trkpt lat="49.05375" lon="2.10642">
        <ele>30</ele>
        <time>2019-05-21T13:17:24Z</time>
      </trkpt>
      <trkpt lat="49.05367" lon="2.10635">
        <ele>30</ele>
        <time>2019-05-21T13:17:27Z</time>
      </trkpt>
      <trkpt lat="49.05359" lon="2.10631">
        <ele>29</ele>
        <time>2019-05-21T13:17:31Z</time>
      </trkpt>
      <trkpt lat="49.05354" lon="2.10619">
        <ele>29</ele>
        <time>2019-05-21T13:17:37Z</time>
      </trkpt>
      <trkpt lat="49.0535" lon="2.10605">
        <ele>28</ele>
        <time>2019-05-21T13:17:44Z</time>
      </trkpt>
      <trkpt lat="49.05346" lon="2.10591">
        <ele>27</ele>
        <time>2019-05-21T13:17:52Z</time>
      </trkpt>
      <trkpt lat="49.0534" lon="2.10579">
        <ele>26</ele>
        <time>2019-05-21T13:17:59Z</time>
      </trkpt>
      <trkpt lat="49.05331" lon="2.10573">
        <ele>25</ele>
        <time>2019-05-21T13:18:07Z</time>
      </trkpt>
      <trkpt lat="49.05322" lon="2.10571">
        <ele>25</ele>
        <time>2019-05-21T13:18:16Z</time>
      </trkpt>
      <trkpt lat="49.05318" lon="2.10557">
        <ele>25</ele>
        <time>2019-05-21T13:18:23Z</time>
      </trkpt>
      <trkpt lat="49.05317" lon="2.10542">
        <ele>25</ele>
        <time>2019-05-21T13:18:28Z</time>
      </trkpt>
      <trkpt lat="49.05311" lon="2.10532">
        <ele>26</ele>
        <time>2019-05-21T13:18:35Z</time>
      </trkpt>
      <trkpt lat="49.05304" lon="2.1052">
        <ele>26</ele>
        <time>2019-05-21T13:18:59Z</time>
      </trkpt>
      <trkpt lat="49.05297" lon="2.10513">
        <ele>26</ele>
        <time>2019-05-21T13:19:06Z</time>
      </trkpt>
      <trkpt lat="49.05288" lon="2.10505">
        <ele>26</ele>
        <time>2019-05-21T13:19:13Z</time>
      </trkpt>
      <trkpt lat="49.05278" lon="2.10501">
        <ele>26</ele>
        <time>2019-05-21T13:19:25Z</time>
      </trkpt>
      <trkpt lat="49.05268" lon="2.10498">
        <ele>29</ele>
        <time>2019-05-21T13:19:31Z</time>
      </trkpt>
      <trkpt lat="49.05258" lon="2.10493">
        <ele>29</ele>
        <time>2019-05-21T13:19:37Z</time>
      </trkpt>
      <trkpt lat="49.05249" lon="2.10485">
        <ele>29</ele>
        <time>2019-05-21T13:19:47Z</time>
      </trkpt>
      <trkpt lat="49.05241" lon="2.10475">
        <ele>29</ele>
        <time>2019-05-21T13:19:57Z</time>
      </trkpt>
      <trkpt lat="49.05236" lon="2.10463">
        <ele>30</ele>
        <time>2019-05-21T13:20:06Z</time>
      </trkpt>
      <trkpt lat="49.05231" lon="2.10452">
        <ele>31</ele>
        <time>2019-05-21T13:20:14Z</time>
      </trkpt>
      <trkpt lat="49.05228" lon="2.10437">
        <ele>32</ele>
        <time>2019-05-21T13:20:22Z</time>
      </trkpt>
      <trkpt lat="49.05223" lon="2.10425">
        <ele>32</ele>
        <time>2019-05-21T13:20:29Z</time>
      </trkpt>
      <trkpt lat="49.05218" lon="2.10412">
        <ele>37</ele>
        <time>2019-05-21T13:20:35Z</time>
      </trkpt>
      <trkpt lat="49.0521" lon="2.10403">
        <ele>36</ele>
        <time>2019-05-21T13:20:40Z</time>
      </trkpt>
      <trkpt lat="49.05202" lon="2.10396">
        <ele>36</ele>
        <time>2019-05-21T13:20:46Z</time>
      </trkpt>
      <trkpt lat="49.05192" lon="2.10399">
        <ele>34</ele>
        <time>2019-05-21T13:20:54Z</time>
      </trkpt>
      <trkpt lat="49.05183" lon="2.104">
        <ele>33</ele>
        <time>2019-05-21T13:21:05Z</time>
      </trkpt>
      <trkpt lat="49.05174" lon="2.10397">
        <ele>32</ele>
        <time>2019-05-21T13:21:10Z</time>
      </trkpt>
      <trkpt lat="49.05173" lon="2.10382">
        <ele>34</ele>
        <time>2019-05-21T13:21:20Z</time>
      </trkpt>
      <trkpt lat="49.05176" lon="2.10365">
        <ele>36</ele>
        <time>2019-05-21T13:21:35Z</time>
      </trkpt>
      <trkpt lat="49.05173" lon="2.10351">
        <ele>36</ele>
        <time>2019-05-21T13:21:40Z</time>
      </trkpt>
      <trkpt lat="49.05168" lon="2.10336">
        <ele>34</ele>
        <time>2019-05-21T13:21:45Z</time>
      </trkpt>
      <trkpt lat="49.05163" lon="2.1032">
        <ele>34</ele>
        <time>2019-05-21T13:21:49Z</time>
      </trkpt>
      <trkpt lat="49.05159" lon="2.103">
        <ele>35</ele>
        <time>2019-05-21T13:21:55Z</time>
      </trkpt>
      <trkpt lat="49.05154" lon="2.10287">
        <ele>36</ele>
        <time>2019-05-21T13:22:01Z</time>
      </trkpt>
      <trkpt lat="49.05146" lon="2.10283">
        <ele>36</ele>
        <time>2019-05-21T13:22:06Z</time>
      </trkpt>
      <trkpt lat="49.05136" lon="2.10279">
        <ele>36</ele>
        <time>2019-05-21T13:22:14Z</time>
      </trkpt>
      <trkpt lat="49.05127" lon="2.10275">
        <ele>36</ele>
        <time>2019-05-21T13:22:21Z</time>
      </trkpt>
      <trkpt lat="49.05118" lon="2.10273">
        <ele>35</ele>
        <time>2019-05-21T13:22:28Z</time>
      </trkpt>
      <trkpt lat="49.05108" lon="2.10273">
        <ele>35</ele>
        <time>2019-05-21T13:22:35Z</time>
      </trkpt>
      <trkpt lat="49.05096" lon="2.10277">
        <ele>35</ele>
        <time>2019-05-21T13:22:43Z</time>
      </trkpt>
      <trkpt lat="49.05087" lon="2.10277">
        <ele>35</ele>
        <time>2019-05-21T13:22:50Z</time>
      </trkpt>
      <trkpt lat="49.05077" lon="2.10278">
        <ele>32</ele>
        <time>2019-05-21T13:22:57Z</time>
      </trkpt>
      <trkpt lat="49.05069" lon="2.10275">
        <ele>32</ele>
        <time>2019-05-21T13:23:05Z</time>
      </trkpt>
      <trkpt lat="49.05058" lon="2.10275">
        <ele>31</ele>
        <time>2019-05-21T13:23:12Z</time>
      </trkpt>
      <trkpt lat="49.0505" lon="2.10279">
        <ele>31</ele>
        <time>2019-05-21T13:23:18Z</time>
      </trkpt>
      <trkpt lat="49.05043" lon="2.10289">
        <ele>30</ele>
        <time>2019-05-21T13:23:26Z</time>
      </trkpt>
      <trkpt lat="49.05037" lon="2.10302">
        <ele>30</ele>
        <time>2019-05-21T13:23:32Z</time>
      </trkpt>
      <trkpt lat="49.05029" lon="2.10312">
        <ele>29</ele>
        <time>2019-05-21T13:23:39Z</time>
      </trkpt>
      <trkpt lat="49.05024" lon="2.10325">
        <ele>28</ele>
        <time>2019-05-21T13:23:45Z</time>
      </trkpt>
      <trkpt lat="49.05018" lon="2.10336">
        <ele>26</ele>
        <time>2019-05-21T13:23:53Z</time>
      </trkpt>
      <trkpt lat="49.05012" lon="2.10349">
        <ele>26</ele>
        <time>2019-05-21T13:24:00Z</time>
      </trkpt>
      <trkpt lat="49.05004" lon="2.10358">
        <ele>25</ele>
        <time>2019-05-21T13:24:06Z</time>
      </trkpt>
      <trkpt lat="49.04995" lon="2.10364">
        <ele>24</ele>
        <time>2019-05-21T13:24:34Z</time>
      </trkpt>
      <trkpt lat="49.04985" lon="2.10368">
        <ele>24</ele>
        <time>2019-05-21T13:24:41Z</time>
      </trkpt>
      <trkpt lat="49.04978" lon="2.10358">
        <ele>24</ele>
        <time>2019-05-21T13:24:49Z</time>
      </trkpt>
      <trkpt lat="49.0497" lon="2.1035">
        <ele>24</ele>
        <time>2019-05-21T13:24:55Z</time>
      </trkpt>
      <trkpt lat="49.04964" lon="2.1034">
        <ele>24</ele>
        <time>2019-05-21T13:25:02Z</time>
      </trkpt>
      <trkpt lat="49.04958" lon="2.10328">
        <ele>25</ele>
        <time>2019-05-21T13:25:07Z</time>
      </trkpt>
      <trkpt lat="49.04953" lon="2.10316">
        <ele>26</ele>
        <time>2019-05-21T13:25:13Z</time>
      </trkpt>
      <trkpt lat="49.04947" lon="2.10305">
        <ele>26</ele>
        <time>2019-05-21T13:25:20Z</time>
      </trkpt>
      <trkpt lat="49.04942" lon="2.10293">
        <ele>26</ele>
        <time>2019-05-21T13:25:28Z</time>
      </trkpt>
      <trkpt lat="49.04935" lon="2.10283">
        <ele>26</ele>
        <time>2019-05-21T13:25:35Z</time>
      </trkpt>
      <trkpt lat="49.04928" lon="2.10272">
        <ele>27</ele>
        <time>2019-05-21T13:25:41Z</time>
      </trkpt>
      <trkpt lat="49.0492" lon="2.1026">
        <ele>27</ele>
        <time>2019-05-21T13:25:48Z</time>
      </trkpt>
      <trkpt lat="49.04914" lon="2.1025">
        <ele>28</ele>
        <time>2019-05-21T13:25:53Z</time>
      </trkpt>
      <trkpt lat="49.04907" lon="2.10239">
        <ele>28</ele>
        <time>2019-05-21T13:25:59Z</time>
      </trkpt>
      <trkpt lat="49.04902" lon="2.10226">
        <ele>27</ele>
        <time>2019-05-21T13:26:07Z</time>
      </trkpt>
      <trkpt lat="49.04896" lon="2.10214">
        <ele>28</ele>
        <time>2019-05-21T13:26:13Z</time>
      </trkpt>
      <trkpt lat="49.0489" lon="2.10202">
        <ele>28</ele>
        <time>2019-05-21T13:26:21Z</time>
      </trkpt>
      <trkpt lat="49.04883" lon="2.10192">
        <ele>28</ele>
        <time>2019-05-21T13:26:27Z</time>
      </trkpt>
      <trkpt lat="49.04875" lon="2.10182">
        <ele>28</ele>
        <time>2019-05-21T13:26:32Z</time>
      </trkpt>
      <trkpt lat="49.0487" lon="2.10171">
        <ele>27</ele>
        <time>2019-05-21T13:26:41Z</time>
      </trkpt>
      <trkpt lat="49.04862" lon="2.10162">
        <ele>30</ele>
        <time>2019-05-21T13:26:48Z</time>
      </trkpt>
      <trkpt lat="49.04856" lon="2.10152">
        <ele>30</ele>
        <time>2019-05-21T13:26:56Z</time>
      </trkpt>
      <trkpt lat="49.04846" lon="2.10156">
        <ele>29</ele>
        <time>2019-05-21T13:27:08Z</time>
      </trkpt>
      <trkpt lat="49.04839" lon="2.10167">
        <ele>26</ele>
        <time>2019-05-21T13:27:14Z</time>
      </trkpt>
      <trkpt lat="49.04834" lon="2.10179">
        <ele>26</ele>
        <time>2019-05-21T13:27:20Z</time>
      </trkpt>
      <trkpt lat="49.0483" lon="2.10191">
        <ele>25</ele>
        <time>2019-05-21T13:27:27Z</time>
      </trkpt>
      <trkpt lat="49.04824" lon="2.10203">
        <ele>24</ele>
        <time>2019-05-21T13:27:34Z</time>
      </trkpt>
      <trkpt lat="49.0482" lon="2.10215">
        <ele>24</ele>
        <time>2019-05-21T13:27:42Z</time>
      </trkpt>
      <trkpt lat="49.04815" lon="2.10227">
        <ele>24</ele>
        <time>2019-05-21T13:27:47Z</time>
      </trkpt>
      <trkpt lat="49.04811" lon="2.1024">
        <ele>23</ele>
        <time>2019-05-21T13:27:54Z</time>
      </trkpt>
      <trkpt lat="49.04802" lon="2.1025">
        <ele>24</ele>
        <time>2019-05-21T13:28:01Z</time>
      </trkpt>
      <trkpt lat="49.048" lon="2.10265">
        <ele>25</ele>
        <time>2019-05-21T13:28:09Z</time>
      </trkpt>
      <trkpt lat="49.04806" lon="2.10279">
        <ele>25</ele>
        <time>2019-05-21T13:28:15Z</time>
      </trkpt>
      <trkpt lat="49.04813" lon="2.10291">
        <ele>25</ele>
        <time>2019-05-21T13:28:20Z</time>
      </trkpt>
      <trkpt lat="49.0482" lon="2.10302">
        <ele>26</ele>
        <time>2019-05-21T13:28:28Z</time>
      </trkpt>
      <trkpt lat="49.04828" lon="2.10313">
        <ele>26</ele>
        <time>2019-05-21T13:28:34Z</time>
      </trkpt>
      <trkpt lat="49.04832" lon="2.10325">
        <ele>27</ele>
        <time>2019-05-21T13:28:41Z</time>
      </trkpt>
      <trkpt lat="49.04837" lon="2.10337">
        <ele>27</ele>
        <time>2019-05-21T13:28:48Z</time>
      </trkpt>
      <trkpt lat="49.04844" lon="2.10346">
        <ele>26</ele>
        <time>2019-05-21T13:28:56Z</time>
      </trkpt>
      <trkpt lat="49.0485" lon="2.10356">
        <ele>26</ele>
        <time>2019-05-21T13:29:03Z</time>
      </trkpt>
      <trkpt lat="49.04857" lon="2.10367">
        <ele>26</ele>
        <time>2019-05-21T13:29:09Z</time>
      </trkpt>
      <trkpt lat="49.04864" lon="2.10376">
        <ele>26</ele>
        <time>2019-05-21T13:29:16Z</time>
      </trkpt>
      <trkpt lat="49.04869" lon="2.10387">
        <ele>26</ele>
        <time>2019-05-21T13:29:23Z</time>
      </trkpt>
      <trkpt lat="49.04874" lon="2.10401">
        <ele>26</ele>
        <time>2019-05-21T13:29:30Z</time>
      </trkpt>
      <trkpt lat="49.0488" lon="2.10412">
        <ele>26</ele>
        <time>2019-05-21T13:29:37Z</time>
      </trkpt>
      <trkpt lat="49.04886" lon="2.10423">
        <ele>26</ele>
        <time>2019-05-21T13:29:44Z</time>
      </trkpt>
      <trkpt lat="49.04892" lon="2.10436">
        <ele>25</ele>
        <time>2019-05-21T13:29:52Z</time>
      </trkpt>
      <trkpt lat="49.04897" lon="2.10449">
        <ele>25</ele>
        <time>2019-05-21T13:30:00Z</time>
      </trkpt>
      <trkpt lat="49.04903" lon="2.10459">
        <ele>25</ele>
        <time>2019-05-21T13:30:06Z</time>
      </trkpt>
      <trkpt lat="49.0491" lon="2.10471">
        <ele>25</ele>
        <time>2019-05-21T13:30:12Z</time>
      </trkpt>
      <trkpt lat="49.04915" lon="2.10483">
        <ele>25</ele>
        <time>2019-05-21T13:30:18Z</time>
      </trkpt>
      <trkpt lat="49.0492" lon="2.10496">
        <ele>25</ele>
        <time>2019-05-21T13:30:25Z</time>
      </trkpt>
      <trkpt lat="49.04926" lon="2.10507">
        <ele>24</ele>
        <time>2019-05-21T13:30:30Z</time>
      </trkpt>
      <trkpt lat="49.0493" lon="2.10521">
        <ele>23</ele>
        <time>2019-05-21T13:30:40Z</time>
      </trkpt>
      <trkpt lat="49.04934" lon="2.10534">
        <ele>23</ele>
        <time>2019-05-21T13:30:47Z</time>
      </trkpt>
      <trkpt lat="49.0494" lon="2.10546">
        <ele>23</ele>
        <time>2019-05-21T13:30:52Z</time>
      </trkpt>
      <trkpt lat="49.04944" lon="2.10559">
        <ele>23</ele>
        <time>2019-05-21T13:30:59Z</time>
      </trkpt>
      <trkpt lat="49.04948" lon="2.10572">
        <ele>22</ele>
        <time>2019-05-21T13:31:06Z</time>
      </trkpt>
      <trkpt lat="49.04949" lon="2.10586">
        <ele>22</ele>
        <time>2019-05-21T13:31:14Z</time>
      </trkpt>
      <trkpt lat="49.04956" lon="2.10597">
        <ele>22</ele>
        <time>2019-05-21T13:31:22Z</time>
      </trkpt>
      <trkpt lat="49.0496" lon="2.10612">
        <ele>22</ele>
        <time>2019-05-21T13:31:31Z</time>
      </trkpt>
      <trkpt lat="49.04958" lon="2.10625">
        <ele>22</ele>
        <time>2019-05-21T13:31:37Z</time>
      </trkpt>
      <trkpt lat="49.04961" lon="2.10638">
        <ele>22</ele>
        <time>2019-05-21T13:31:45Z</time>
      </trkpt>
      <trkpt lat="49.04967" lon="2.10649">
        <ele>22</ele>
        <time>2019-05-21T13:31:52Z</time>
      </trkpt>
      <trkpt lat="49.04968" lon="2.10663">
        <ele>22</ele>
        <time>2019-05-21T13:32:11Z</time>
      </trkpt>
      <trkpt lat="49.04974" lon="2.10674">
        <ele>22</ele>
        <time>2019-05-21T13:32:16Z</time>
      </trkpt>
      <trkpt lat="49.04977" lon="2.10689">
        <ele>22</ele>
        <time>2019-05-21T13:32:23Z</time>
      </trkpt>
      <trkpt lat="49.04979" lon="2.10705">
        <ele>22</ele>
        <time>2019-05-21T13:32:31Z</time>
      </trkpt>
      <trkpt lat="49.04983" lon="2.1072">
        <ele>22</ele>
        <time>2019-05-21T13:32:40Z</time>
      </trkpt>
      <trkpt lat="49.04987" lon="2.10733">
        <ele>22</ele>
        <time>2019-05-21T13:32:44Z</time>
      </trkpt>
      <trkpt lat="49.0499" lon="2.10748">
        <ele>22</ele>
        <time>2019-05-21T13:32:49Z</time>
      </trkpt>
      <trkpt lat="49.04997" lon="2.10755">
        <ele>22</ele>
        <time>2019-05-21T13:32:56Z</time>
      </trkpt>
      <trkpt lat="49.05001" lon="2.10771">
        <ele>22</ele>
        <time>2019-05-21T13:33:03Z</time>
      </trkpt>
      <trkpt lat="49.05004" lon="2.10785">
        <ele>22</ele>
        <time>2019-05-21T13:33:11Z</time>
      </trkpt>
      <trkpt lat="49.05011" lon="2.10795">
        <ele>23</ele>
        <time>2019-05-21T13:33:19Z</time>
      </trkpt>
      <trkpt lat="49.05014" lon="2.10809">
        <ele>22</ele>
        <time>2019-05-21T13:33:24Z</time>
      </trkpt>
      <trkpt lat="49.0502" lon="2.10823">
        <ele>22</ele>
        <time>2019-05-21T13:33:31Z</time>
      </trkpt>
      <trkpt lat="49.05028" lon="2.10831">
        <ele>23</ele>
        <time>2019-05-21T13:33:37Z</time>
      </trkpt>
      <trkpt lat="49.05034" lon="2.10841">
        <ele>23</ele>
        <time>2019-05-21T13:33:44Z</time>
      </trkpt>
      <trkpt lat="49.05042" lon="2.10847">
        <ele>23</ele>
        <time>2019-05-21T13:33:52Z</time>
      </trkpt>
      <trkpt lat="49.05048" lon="2.10858">
        <ele>23</ele>
        <time>2019-05-21T13:33:57Z</time>
      </trkpt>
      <trkpt lat="49.05054" lon="2.1087">
        <ele>23</ele>
        <time>2019-05-21T13:34:04Z</time>
      </trkpt>
      <trkpt lat="49.05062" lon="2.1088">
        <ele>23</ele>
        <time>2019-05-21T13:34:10Z</time>
      </trkpt>
      <trkpt lat="49.05061" lon="2.10894">
        <ele>24</ele>
        <time>2019-05-21T13:34:15Z</time>
      </trkpt>
      <trkpt lat="49.05053" lon="2.10901">
        <ele>24</ele>
        <time>2019-05-21T13:34:23Z</time>
      </trkpt>
      <trkpt lat="49.05042" lon="2.10902">
        <ele>23</ele>
        <time>2019-05-21T13:34:45Z</time>
      </trkpt>
      <trkpt lat="49.05034" lon="2.1091">
        <ele>23</ele>
        <time>2019-05-21T13:34:51Z</time>
      </trkpt>
      <trkpt lat="49.05025" lon="2.1091">
        <ele>23</ele>
        <time>2019-05-21T13:35:00Z</time>
      </trkpt>
      <trkpt lat="49.05016" lon="2.10917">
        <ele>24</ele>
        <time>2019-05-21T13:35:17Z</time>
      </trkpt>
      <trkpt lat="49.05009" lon="2.10925">
        <ele>24</ele>
        <time>2019-05-21T13:35:25Z</time>
      </trkpt>
      <trkpt lat="49.05007" lon="2.1094">
        <ele>24</ele>
        <time>2019-05-21T13:35:33Z</time>
      </trkpt>
      <trkpt lat="49.05009" lon="2.10956">
        <ele>25</ele>
        <time>2019-05-21T13:35:37Z</time>
      </trkpt>
      <trkpt lat="49.05011" lon="2.10972">
        <ele>25</ele>
        <time>2019-05-21T13:35:42Z</time>
      </trkpt>
      <trkpt lat="49.05016" lon="2.10986">
        <ele>25</ele>
        <time>2019-05-21T13:35:47Z</time>
      </trkpt>
      <trkpt lat="49.05021" lon="2.10998">
        <ele>25</ele>
        <time>2019-05-21T13:35:54Z</time>
      </trkpt>
      <trkpt lat="49.05023" lon="2.11011">
        <ele>26</ele>
        <time>2019-05-21T13:36:03Z</time>
      </trkpt>
      <trkpt lat="49.05028" lon="2.11024">
        <ele>26</ele>
        <time>2019-05-21T13:36:09Z</time>
      </trkpt>
      <trkpt lat="49.05033" lon="2.11035">
        <ele>26</ele>
        <time>2019-05-21T13:36:14Z</time>
      </trkpt>
      <trkpt lat="49.05037" lon="2.11049">
        <ele>26</ele>
        <time>2019-05-21T13:36:21Z</time>
      </trkpt>
      <trkpt lat="49.05041" lon="2.11062">
        <ele>26</ele>
        <time>2019-05-21T13:36:29Z</time>
      </trkpt>
      <trkpt lat="49.05046" lon="2.11074">
        <ele>26</ele>
        <time>2019-05-21T13:36:36Z</time>
      </trkpt>
      <trkpt lat="49.05051" lon="2.11086">
        <ele>26</ele>
        <time>2019-05-21T13:36:42Z</time>
      </trkpt>
      <trkpt lat="49.05057" lon="2.111">
        <ele>27</ele>
        <time>2019-05-21T13:36:50Z</time>
      </trkpt>
      <trkpt lat="49.05062" lon="2.11114">
        <ele>27</ele>
        <time>2019-05-21T13:36:58Z</time>
      </trkpt>
      <trkpt lat="49.05065" lon="2.11127">
        <ele>26</ele>
        <time>2019-05-21T13:37:05Z</time>
      </trkpt>
      <trkpt lat="49.05071" lon="2.11138">
        <ele>26</ele>
        <time>2019-05-21T13:37:12Z</time>
      </trkpt>
      <trkpt lat="49.05077" lon="2.11148">
        <ele>26</ele>
        <time>2019-05-21T13:37:19Z</time>
      </trkpt>
      <trkpt lat="49.05083" lon="2.1116">
        <ele>26</ele>
        <time>2019-05-21T13:37:28Z</time>
      </trkpt>
      <trkpt lat="49.05085" lon="2.11175">
        <ele>26</ele>
        <time>2019-05-21T13:37:37Z</time>
      </trkpt>
      <trkpt lat="49.05089" lon="2.11187">
        <ele>26</ele>
        <time>2019-05-21T13:37:42Z</time>
      </trkpt>
      <trkpt lat="49.05095" lon="2.11198">
        <ele>26</ele>
        <time>2019-05-21T13:37:48Z</time>
      </trkpt>
      <trkpt lat="49.05106" lon="2.11202">
        <ele>26</ele>
        <time>2019-05-21T13:37:56Z</time>
      </trkpt>
      <trkpt lat="49.0511" lon="2.11215">
        <ele>26</ele>
        <time>2019-05-21T13:38:17Z</time>
      </trkpt>
      <trkpt lat="49.05107" lon="2.1123">
        <ele>26</ele>
        <time>2019-05-21T13:38:24Z</time>
      </trkpt>
      <trkpt lat="49.05102" lon="2.11243">
        <ele>26</ele>
        <time>2019-05-21T13:38:33Z</time>
      </trkpt>
      <trkpt lat="49.05095" lon="2.11252">
        <ele>26</ele>
        <time>2019-05-21T13:38:39Z</time>
      </trkpt>
      <trkpt lat="49.05088" lon="2.11262">
        <ele>26</ele>
        <time>2019-05-21T13:38:46Z</time>
      </trkpt>
      <trkpt lat="49.05081" lon="2.11272">
        <ele>27</ele>
        <time>2019-05-21T13:38:53Z</time>
      </trkpt>
      <trkpt lat="49.05075" lon="2.11283">
        <ele>26</ele>
        <time>2019-05-21T13:39:02Z</time>
      </trkpt>
      <trkpt lat="49.05067" lon="2.11293">
        <ele>26</ele>
        <time>2019-05-21T13:39:13Z</time>
      </trkpt>
      <trkpt lat="49.0506" lon="2.11303">
        <ele>26</ele>
        <time>2019-05-21T13:39:26Z</time>
      </trkpt>
      <trkpt lat="49.05054" lon="2.11313">
        <ele>26</ele>
        <time>2019-05-21T13:39:34Z</time>
      </trkpt>
      <trkpt lat="49.05048" lon="2.11324">
        <ele>26</ele>
        <time>2019-05-21T13:39:38Z</time>
      </trkpt>
      <trkpt lat="49.05044" lon="2.11338">
        <ele>26</ele>
        <time>2019-05-21T13:39:44Z</time>
      </trkpt>
      <trkpt lat="49.05041" lon="2.11354">
        <ele>26</ele>
        <time>2019-05-21T13:39:55Z</time>
      </trkpt>
      <trkpt lat="49.05042" lon="2.11369">
        <ele>26</ele>
        <time>2019-05-21T13:40:07Z</time>
      </trkpt>
      <trkpt lat="49.05032" lon="2.11383">
        <ele>26</ele>
        <time>2019-05-21T13:40:18Z</time>
      </trkpt>
      <trkpt lat="49.05025" lon="2.11395">
        <ele>26</ele>
        <time>2019-05-21T13:40:23Z</time>
      </trkpt>
      <trkpt lat="49.05017" lon="2.11401">
        <ele>26</ele>
        <time>2019-05-21T13:40:28Z</time>
      </trkpt>
      <trkpt lat="49.05008" lon="2.11406">
        <ele>26</ele>
        <time>2019-05-21T13:40:35Z</time>
      </trkpt>
      <trkpt lat="49.05002" lon="2.11417">
        <ele>25</ele>
        <time>2019-05-21T13:40:40Z</time>
      </trkpt>
      <trkpt lat="49.04995" lon="2.11424">
        <ele>26</ele>
        <time>2019-05-21T13:40:51Z</time>
      </trkpt>
      <trkpt lat="49.04988" lon="2.11437">
        <ele>26</ele>
        <time>2019-05-21T13:41:01Z</time>
      </trkpt>
      <trkpt lat="49.0498" lon="2.11443">
        <ele>26</ele>
        <time>2019-05-21T13:41:10Z</time>
      </trkpt>
      <trkpt lat="49.04971" lon="2.11452">
        <ele>26</ele>
        <time>2019-05-21T13:41:23Z</time>
      </trkpt>
      <trkpt lat="49.04962" lon="2.11461">
        <ele>27</ele>
        <time>2019-05-21T13:41:28Z</time>
      </trkpt>
      <trkpt lat="49.04953" lon="2.11468">
        <ele>27</ele>
        <time>2019-05-21T13:41:33Z</time>
      </trkpt>
      <trkpt lat="49.04946" lon="2.11478">
        <ele>27</ele>
        <time>2019-05-21T13:41:37Z</time>
      </trkpt>
      <trkpt lat="49.04936" lon="2.11481">
        <ele>27</ele>
        <time>2019-05-21T13:41:43Z</time>
      </trkpt>
      <trkpt lat="49.04933" lon="2.115">
        <ele>28</ele>
        <time>2019-05-21T13:41:50Z</time>
      </trkpt>
      <trkpt lat="49.04928" lon="2.11513">
        <ele>28</ele>
        <time>2019-05-21T13:41:57Z</time>
      </trkpt>
      <trkpt lat="49.0492" lon="2.11523">
        <ele>27</ele>
        <time>2019-05-21T13:42:00Z</time>
      </trkpt>
      <trkpt lat="49.04916" lon="2.11536">
        <ele>27</ele>
        <time>2019-05-21T13:42:05Z</time>
      </trkpt>
      <trkpt lat="49.04905" lon="2.11538">
        <ele>27</ele>
        <time>2019-05-21T13:42:13Z</time>
      </trkpt>
      <trkpt lat="49.04889" lon="2.11555">
        <ele>27</ele>
        <time>2019-05-21T13:42:32Z</time>
      </trkpt>
      <trkpt lat="49.04887" lon="2.1157">
        <ele>26</ele>
        <time>2019-05-21T13:42:34Z</time>
      </trkpt>
      <trkpt lat="49.04877" lon="2.11588">
        <ele>26</ele>
        <time>2019-05-21T13:42:36Z</time>
      </trkpt>
      <trkpt lat="49.04874" lon="2.11603">
        <ele>26</ele>
        <time>2019-05-21T13:42:49Z</time>
      </trkpt>
      <trkpt lat="49.04876" lon="2.11617">
        <ele>26</ele>
        <time>2019-05-21T13:42:57Z</time>
      </trkpt>
      <trkpt lat="49.0488" lon="2.11631">
        <ele>26</ele>
        <time>2019-05-21T13:43:05Z</time>
      </trkpt>
      <trkpt lat="49.04884" lon="2.11645">
        <ele>26</ele>
        <time>2019-05-21T13:43:11Z</time>
      </trkpt>
      <trkpt lat="49.04892" lon="2.11656">
        <ele>26</ele>
        <time>2019-05-21T13:43:17Z</time>
      </trkpt>
      <trkpt lat="49.04898" lon="2.11668">
        <ele>27</ele>
        <time>2019-05-21T13:43:23Z</time>
      </trkpt>
      <trkpt lat="49.04903" lon="2.11681">
        <ele>27</ele>
        <time>2019-05-21T13:43:30Z</time>
      </trkpt>
      <trkpt lat="49.04907" lon="2.11694">
        <ele>27</ele>
        <time>2019-05-21T13:43:36Z</time>
      </trkpt>
      <trkpt lat="49.0491" lon="2.11708">
        <ele>27</ele>
        <time>2019-05-21T13:43:43Z</time>
      </trkpt>
      <trkpt lat="49.04914" lon="2.11722">
        <ele>27</ele>
        <time>2019-05-21T13:43:51Z</time>
      </trkpt>
      <trkpt lat="49.04913" lon="2.11736">
        <ele>26</ele>
        <time>2019-05-21T13:43:57Z</time>
      </trkpt>
      <trkpt lat="49.04909" lon="2.11748">
        <ele>26</ele>
        <time>2019-05-21T13:44:04Z</time>
      </trkpt>
      <trkpt lat="49.04902" lon="2.11759">
        <ele>27</ele>
        <time>2019-05-21T13:44:12Z</time>
      </trkpt>
      <trkpt lat="49.04893" lon="2.11761">
        <ele>27</ele>
        <time>2019-05-21T13:44:20Z</time>
      </trkpt>
      <trkpt lat="49.04886" lon="2.11771">
        <ele>27</ele>
        <time>2019-05-21T13:44:29Z</time>
      </trkpt>
      <trkpt lat="49.04879" lon="2.11783">
        <ele>27</ele>
        <time>2019-05-21T13:44:38Z</time>
      </trkpt>
      <trkpt lat="49.04872" lon="2.11796">
        <ele>27</ele>
        <time>2019-05-21T13:44:46Z</time>
      </trkpt>
      <trkpt lat="49.04867" lon="2.11808">
        <ele>27</ele>
        <time>2019-05-21T13:44:51Z</time>
      </trkpt>
      <trkpt lat="49.04861" lon="2.11819">
        <ele>27</ele>
        <time>2019-05-21T13:45:02Z</time>
      </trkpt>
      <trkpt lat="49.04849" lon="2.11818">
        <ele>28</ele>
        <time>2019-05-21T13:45:08Z</time>
      </trkpt>
      <trkpt lat="49.04841" lon="2.11814">
        <ele>28</ele>
        <time>2019-05-21T13:45:15Z</time>
      </trkpt>
      <trkpt lat="49.04832" lon="2.11807">
        <ele>29</ele>
        <time>2019-05-21T13:45:22Z</time>
      </trkpt>
      <trkpt lat="49.04822" lon="2.11801">
        <ele>29</ele>
        <time>2019-05-21T13:45:29Z</time>
      </trkpt>
      <trkpt lat="49.04813" lon="2.11794">
        <ele>29</ele>
        <time>2019-05-21T13:45:37Z</time>
      </trkpt>
      <trkpt lat="49.04807" lon="2.11783">
        <ele>29</ele>
        <time>2019-05-21T13:45:44Z</time>
      </trkpt>
      <trkpt lat="49.04802" lon="2.11771">
        <ele>29</ele>
        <time>2019-05-21T13:45:49Z</time>
      </trkpt>
      <trkpt lat="49.04801" lon="2.11755">
        <ele>29</ele>
        <time>2019-05-21T13:45:57Z</time>
      </trkpt>
      <trkpt lat="49.04798" lon="2.11742">
        <ele>28</ele>
        <time>2019-05-21T13:46:06Z</time>
      </trkpt>
      <trkpt lat="49.04792" lon="2.11729">
        <ele>28</ele>
        <time>2019-05-21T13:46:13Z</time>
      </trkpt>
      <trkpt lat="49.04793" lon="2.11714">
        <ele>28</ele>
        <time>2019-05-21T13:46:24Z</time>
      </trkpt>
      <trkpt lat="49.04789" lon="2.11702">
        <ele>28</ele>
        <time>2019-05-21T13:46:31Z</time>
      </trkpt>
      <trkpt lat="49.0478" lon="2.117">
        <ele>28</ele>
        <time>2019-05-21T13:46:41Z</time>
      </trkpt>
      <trkpt lat="49.0477" lon="2.11699">
        <ele>28</ele>
        <time>2019-05-21T13:46:53Z</time>
      </trkpt>
      <trkpt lat="49.0476" lon="2.11703">
        <ele>29</ele>
        <time>2019-05-21T13:47:12Z</time>
      </trkpt>
      <trkpt lat="49.04754" lon="2.11693">
        <ele>29</ele>
        <time>2019-05-21T13:47:16Z</time>
      </trkpt>
      <trkpt lat="49.04745" lon="2.11701">
        <ele>30</ele>
        <time>2019-05-21T13:47:28Z</time>
      </trkpt>
      <trkpt lat="49.04733" lon="2.11708">
        <ele>30</ele>
        <time>2019-05-21T13:47:31Z</time>
      </trkpt>
      <trkpt lat="49.04724" lon="2.11712">
        <ele>30</ele>
        <time>2019-05-21T13:47:34Z</time>
      </trkpt>
      <trkpt lat="49.04715" lon="2.11717">
        <ele>30</ele>
        <time>2019-05-21T13:47:37Z</time>
      </trkpt>
      <trkpt lat="49.04704" lon="2.11718">
        <ele>30</ele>
        <time>2019-05-21T13:47:43Z</time>
      </trkpt>
      <trkpt lat="49.04695" lon="2.11713">
        <ele>30</ele>
        <time>2019-05-21T13:47:51Z</time>
      </trkpt>
      <trkpt lat="49.04691" lon="2.11699">
        <ele>30</ele>
        <time>2019-05-21T13:47:57Z</time>
      </trkpt>
      <trkpt lat="49.04686" lon="2.11685">
        <ele>30</ele>
        <time>2019-05-21T13:48:03Z</time>
      </trkpt>
      <trkpt lat="49.04678" lon="2.11676">
        <ele>30</ele>
        <time>2019-05-21T13:48:09Z</time>
      </trkpt>
      <trkpt lat="49.04672" lon="2.11664">
        <ele>31</ele>
        <time>2019-05-21T13:48:13Z</time>
      </trkpt>
      <trkpt lat="49.04664" lon="2.11656">
        <ele>32</ele>
        <time>2019-05-21T13:48:18Z</time>
      </trkpt>
      <trkpt lat="49.04655" lon="2.11646">
        <ele>32</ele>
        <time>2019-05-21T13:48:23Z</time>
      </trkpt>
      <trkpt lat="49.0465" lon="2.11632">
        <ele>33</ele>
        <time>2019-05-21T13:48:29Z</time>
      </trkpt>
      <trkpt lat="49.04642" lon="2.11623">
        <ele>33</ele>
        <time>2019-05-21T13:48:37Z</time>
      </trkpt>
      <trkpt lat="49.04634" lon="2.11613">
        <ele>33</ele>
        <time>2019-05-21T13:48:44Z</time>
      </trkpt>
      <trkpt lat="49.04628" lon="2.11602">
        <ele>34</ele>
        <time>2019-05-21T13:48:51Z</time>
      </trkpt>
      <trkpt lat="49.0462" lon="2.11616">
        <ele>33</ele>
        <time>2019-05-21T13:49:14Z</time>
      </trkpt>
      <trkpt lat="49.04612" lon="2.11623">
        <ele>33</ele>
        <time>2019-05-21T13:49:22Z</time>
      </trkpt>
      <trkpt lat="49.04605" lon="2.11632">
        <ele>33</ele>
        <time>2019-05-21T13:49:25Z</time>
      </trkpt>
      <trkpt lat="49.04603" lon="2.11647">
        <ele>33</ele>
        <time>2019-05-21T13:49:29Z</time>
      </trkpt>
      <trkpt lat="49.04598" lon="2.11659">
        <ele>33</ele>
        <time>2019-05-21T13:49:34Z</time>
      </trkpt>
      <trkpt lat="49.04594" lon="2.11672">
        <ele>32</ele>
        <time>2019-05-21T13:49:40Z</time>
      </trkpt>
      <trkpt lat="49.0459" lon="2.11685">
        <ele>32</ele>
        <time>2019-05-21T13:49:45Z</time>
      </trkpt>
      <trkpt lat="49.04585" lon="2.11697">
        <ele>31</ele>
        <time>2019-05-21T13:49:52Z</time>
      </trkpt>
      <trkpt lat="49.04584" lon="2.11712">
        <ele>31</ele>
        <time>2019-05-21T13:49:59Z</time>
      </trkpt>
      <trkpt lat="49.04586" lon="2.1173">
        <ele>30</ele>
        <time>2019-05-21T13:50:04Z</time>
      </trkpt>
      <trkpt lat="49.0459" lon="2.11745">
        <ele>29</ele>
        <time>2019-05-21T13:50:12Z</time>
      </trkpt>
      <trkpt lat="49.04593" lon="2.11759">
        <ele>29</ele>
        <time>2019-05-21T13:50:21Z</time>
      </trkpt>
      <trkpt lat="49.04598" lon="2.11772">
        <ele>29</ele>
        <time>2019-05-21T13:50:28Z</time>
      </trkpt>
      <trkpt lat="49.04602" lon="2.11786">
        <ele>29</ele>
        <time>2019-05-21T13:50:36Z</time>
      </trkpt>
      <trkpt lat="49.04605" lon="2.118">
        <ele>29</ele>
        <time>2019-05-21T13:50:44Z</time>
      </trkpt>
      <trkpt lat="49.046" lon="2.11813">
        <ele>29</ele>
        <time>2019-05-21T13:50:54Z</time>
      </trkpt>
      <trkpt lat="49.04591" lon="2.11821">
        <ele>28</ele>
        <time>2019-05-21T13:51:01Z</time>
      </trkpt>
      <trkpt lat="49.04583" lon="2.11824">
        <ele>28</ele>
        <time>2019-05-21T13:51:10Z</time>
      </trkpt>
      <trkpt lat="49.04575" lon="2.11834">
        <ele>28</ele>
        <time>2019-05-21T13:51:28Z</time>
      </trkpt>
      <trkpt lat="49.04566" lon="2.11838">
        <ele>28</ele>
        <time>2019-05-21T13:51:44Z</time>
      </trkpt>
      <trkpt lat="49.04557" lon="2.11842">
        <ele>27</ele>
        <time>2019-05-21T13:52:01Z</time>
      </trkpt>
      <trkpt lat="49.04549" lon="2.11853">
        <ele>27</ele>
        <time>2019-05-21T13:52:08Z</time>
      </trkpt>
      <trkpt lat="49.0454" lon="2.1186">
        <ele>27</ele>
        <time>2019-05-21T13:52:12Z</time>
      </trkpt>
      <trkpt lat="49.04531" lon="2.11863">
        <ele>27</ele>
        <time>2019-05-21T13:52:18Z</time>
      </trkpt>
      <trkpt lat="49.04522" lon="2.11866">
        <ele>27</ele>
        <time>2019-05-21T13:52:22Z</time>
      </trkpt>
      <trkpt lat="49.04512" lon="2.11875">
        <ele>27</ele>
        <time>2019-05-21T13:52:31Z</time>
      </trkpt>
      <trkpt lat="49.04503" lon="2.11883">
        <ele>27</ele>
        <time>2019-05-21T13:52:41Z</time>
      </trkpt>
      <trkpt lat="49.04493" lon="2.11888">
        <ele>27</ele>
        <time>2019-05-21T13:52:52Z</time>
      </trkpt>
      <trkpt lat="49.04484" lon="2.11898">
        <ele>27</ele>
        <time>2019-05-21T13:52:57Z</time>
      </trkpt>
      <trkpt lat="49.04475" lon="2.11903">
        <ele>27</ele>
        <time>2019-05-21T13:53:01Z</time>
      </trkpt>
      <trkpt lat="49.04469" lon="2.11915">
        <ele>27</ele>
        <time>2019-05-21T13:53:10Z</time>
      </trkpt>
      <trkpt lat="49.04461" lon="2.11924">
        <ele>27</ele>
        <time>2019-05-21T13:53:16Z</time>
      </trkpt>
      <trkpt lat="49.04452" lon="2.11926">
        <ele>28</ele>
        <time>2019-05-21T13:53:22Z</time>
      </trkpt>
      <trkpt lat="49.04444" lon="2.11935">
        <ele>28</ele>
        <time>2019-05-21T13:53:33Z</time>
      </trkpt>
      <trkpt lat="49.0444" lon="2.11948">
        <ele>28</ele>
        <time>2019-05-21T13:53:50Z</time>
      </trkpt>
      <trkpt lat="49.04433" lon="2.11938">
        <ele>28</ele>
        <time>2019-05-21T13:53:54Z</time>
      </trkpt>
      <trkpt lat="49.04424" lon="2.11929">
        <ele>28</ele>
        <time>2019-05-21T13:54:03Z</time>
      </trkpt>
      <trkpt lat="49.04413" lon="2.11932">
        <ele>29</ele>
        <time>2019-05-21T13:54:22Z</time>
      </trkpt>
      <trkpt lat="49.04405" lon="2.11924">
        <ele>29</ele>
        <time>2019-05-21T13:54:32Z</time>
      </trkpt>
      <trkpt lat="49.04402" lon="2.11938">
        <ele>29</ele>
        <time>2019-05-21T13:55:07Z</time>
      </trkpt>
      <trkpt lat="49.04397" lon="2.11951">
        <ele>28</ele>
        <time>2019-05-21T13:55:30Z</time>
      </trkpt>
      <trkpt lat="49.0439" lon="2.11965">
        <ele>28</ele>
        <time>2019-05-21T13:55:38Z</time>
      </trkpt>
      <trkpt lat="49.04374" lon="2.11983">
        <ele>28</ele>
        <time>2019-05-21T13:55:44Z</time>
      </trkpt>
      <trkpt lat="49.04379" lon="2.11996">
        <ele>28</ele>
        <time>2019-05-21T13:55:49Z</time>
      </trkpt>
      <trkpt lat="49.04373" lon="2.12012">
        <ele>27</ele>
        <time>2019-05-21T13:55:53Z</time>
      </trkpt>
      <trkpt lat="49.04365" lon="2.1202">
        <ele>27</ele>
        <time>2019-05-21T13:55:58Z</time>
      </trkpt>
      <trkpt lat="49.04354" lon="2.12034">
        <ele>27</ele>
        <time>2019-05-21T13:56:00Z</time>
      </trkpt>
      <trkpt lat="49.04339" lon="2.12051">
        <ele>27</ele>
        <time>2019-05-21T13:56:03Z</time>
      </trkpt>
      <trkpt lat="49.04333" lon="2.12063">
        <ele>28</ele>
        <time>2019-05-21T13:56:05Z</time>
      </trkpt>
      <trkpt lat="49.04318" lon="2.1208">
        <ele>28</ele>
        <time>2019-05-21T13:56:07Z</time>
      </trkpt>
      <trkpt lat="49.04311" lon="2.12089">
        <ele>29</ele>
        <time>2019-05-21T13:56:09Z</time>
      </trkpt>
      <trkpt lat="49.04302" lon="2.12103">
        <ele>30</ele>
        <time>2019-05-21T13:56:13Z</time>
      </trkpt>
      <trkpt lat="49.04293" lon="2.12112">
        <ele>30</ele>
        <time>2019-05-21T13:56:21Z</time>
      </trkpt>
      <trkpt lat="49.04289" lon="2.12127">
        <ele>30</ele>
        <time>2019-05-21T13:56:30Z</time>
      </trkpt>
      <trkpt lat="49.04285" lon="2.12142">
        <ele>30</ele>
        <time>2019-05-21T13:56:33Z</time>
      </trkpt>
      <trkpt lat="49.04282" lon="2.12158">
        <ele>30</ele>
        <time>2019-05-21T13:56:45Z</time>
      </trkpt>
      <trkpt lat="49.04289" lon="2.1217">
        <ele>30</ele>
        <time>2019-05-21T13:57:01Z</time>
      </trkpt>
      <trkpt lat="49.04294" lon="2.12182">
        <ele>30</ele>
        <time>2019-05-21T13:57:09Z</time>
      </trkpt>
      <trkpt lat="49.04317" lon="2.12274">
        <ele>30</ele>
        <time>2019-05-21T13:57:56Z</time>
      </trkpt>
      <trkpt lat="49.04325" lon="2.12282">
        <ele>29</ele>
        <time>2019-05-21T13:58:15Z</time>
      </trkpt>
      <trkpt lat="49.04324" lon="2.12299">
        <ele>29</ele>
        <time>2019-05-21T13:58:22Z</time>
      </trkpt>
      <trkpt lat="49.04322" lon="2.12313">
        <ele>29</ele>
        <time>2019-05-21T13:58:26Z</time>
      </trkpt>
      <trkpt lat="49.04321" lon="2.12327">
        <ele>29</ele>
        <time>2019-05-21T13:58:31Z</time>
      </trkpt>
      <trkpt lat="49.04318" lon="2.1234">
        <ele>30</ele>
        <time>2019-05-21T13:58:38Z</time>
      </trkpt>
      <trkpt lat="49.04308" lon="2.12344">
        <ele>30</ele>
        <time>2019-05-21T13:58:44Z</time>
      </trkpt>
      <trkpt lat="49.04302" lon="2.12354">
        <ele>30</ele>
        <time>2019-05-21T13:58:50Z</time>
      </trkpt>
      <trkpt lat="49.04298" lon="2.12368">
        <ele>30</ele>
        <time>2019-05-21T13:58:56Z</time>
      </trkpt>
      <trkpt lat="49.04294" lon="2.12384">
        <ele>30</ele>
        <time>2019-05-21T13:59:01Z</time>
      </trkpt>
      <trkpt lat="49.04291" lon="2.12402">
        <ele>30</ele>
        <time>2019-05-21T13:59:09Z</time>
      </trkpt>
      <trkpt lat="49.04297" lon="2.12415">
        <ele>31</ele>
        <time>2019-05-21T13:59:14Z</time>
      </trkpt>
      <trkpt lat="49.04308" lon="2.12423">
        <ele>31</ele>
        <time>2019-05-21T13:59:19Z</time>
      </trkpt>
      <trkpt lat="49.04314" lon="2.12433">
        <ele>31</ele>
        <time>2019-05-21T13:59:23Z</time>
      </trkpt>
      <trkpt lat="49.04317" lon="2.12448">
        <ele>32</ele>
        <time>2019-05-21T13:59:30Z</time>
      </trkpt>
      <trkpt lat="49.0432" lon="2.12462">
        <ele>32</ele>
        <time>2019-05-21T13:59:36Z</time>
      </trkpt>
      <trkpt lat="49.04322" lon="2.12477">
        <ele>32</ele>
        <time>2019-05-21T13:59:42Z</time>
      </trkpt>
      <trkpt lat="49.04317" lon="2.12496">
        <ele>33</ele>
        <time>2019-05-21T13:59:52Z</time>
      </trkpt>
      <trkpt lat="49.04317" lon="2.12513">
        <ele>33</ele>
        <time>2019-05-21T14:00:03Z</time>
      </trkpt>
      <trkpt lat="49.04321" lon="2.12527">
        <ele>33</ele>
        <time>2019-05-21T14:00:11Z</time>
      </trkpt>
      <trkpt lat="49.04322" lon="2.1254">
        <ele>32</ele>
        <time>2019-05-21T14:00:21Z</time>
      </trkpt>
      <trkpt lat="49.04323" lon="2.12554">
        <ele>33</ele>
        <time>2019-05-21T14:00:31Z</time>
      </trkpt>
      <trkpt lat="49.04322" lon="2.1257">
        <ele>33</ele>
        <time>2019-05-21T14:00:38Z</time>
      </trkpt>
      <trkpt lat="49.04325" lon="2.12583">
        <ele>33</ele>
        <time>2019-05-21T14:00:44Z</time>
      </trkpt>
      <trkpt lat="49.04323" lon="2.12597">
        <ele>33</ele>
        <time>2019-05-21T14:00:50Z</time>
      </trkpt>
      <trkpt lat="49.04316" lon="2.12608">
        <ele>32</ele>
        <time>2019-05-21T14:00:54Z</time>
      </trkpt>
      <trkpt lat="49.04311" lon="2.1262">
        <ele>32</ele>
        <time>2019-05-21T14:00:56Z</time>
      </trkpt>
      <trkpt lat="49.04305" lon="2.12635">
        <ele>32</ele>
        <time>2019-05-21T14:01:12Z</time>
      </trkpt>
      <trkpt lat="49.043" lon="2.12648">
        <ele>32</ele>
        <time>2019-05-21T14:01:19Z</time>
      </trkpt>
      <trkpt lat="49.04297" lon="2.12662">
        <ele>32</ele>
        <time>2019-05-21T14:01:27Z</time>
      </trkpt>
      <trkpt lat="49.04303" lon="2.12673">
        <ele>33</ele>
        <time>2019-05-21T14:01:43Z</time>
      </trkpt>
      <trkpt lat="49.04297" lon="2.12688">
        <ele>33</ele>
        <time>2019-05-21T14:01:51Z</time>
      </trkpt>
      <trkpt lat="49.04291" lon="2.12701">
        <ele>33</ele>
        <time>2019-05-21T14:02:00Z</time>
      </trkpt>
      <trkpt lat="49.04282" lon="2.12704">
        <ele>33</ele>
        <time>2019-05-21T14:02:02Z</time>
      </trkpt>
      <trkpt lat="49.04281" lon="2.12717">
        <ele>33</ele>
        <time>2019-05-21T14:02:09Z</time>
      </trkpt>
      <trkpt lat="49.04276" lon="2.1273">
        <ele>33</ele>
        <time>2019-05-21T14:02:17Z</time>
      </trkpt>
      <trkpt lat="49.04269" lon="2.12742">
        <ele>33</ele>
        <time>2019-05-21T14:02:23Z</time>
      </trkpt>
      <trkpt lat="49.04259" lon="2.12746">
        <ele>32</ele>
        <time>2019-05-21T14:02:33Z</time>
      </trkpt>
      <trkpt lat="49.04253" lon="2.12758">
        <ele>33</ele>
        <time>2019-05-21T14:02:37Z</time>
      </trkpt>
      <trkpt lat="49.04248" lon="2.12774">
        <ele>34</ele>
        <time>2019-05-21T14:02:44Z</time>
      </trkpt>
      <trkpt lat="49.04237" lon="2.12786">
        <ele>35</ele>
        <time>2019-05-21T14:02:46Z</time>
      </trkpt>
      <trkpt lat="49.04224" lon="2.12804">
        <ele>36</ele>
        <time>2019-05-21T14:02:48Z</time>
      </trkpt>
      <trkpt lat="49.04215" lon="2.12813">
        <ele>36</ele>
        <time>2019-05-21T14:02:50Z</time>
      </trkpt>
      <trkpt lat="49.04204" lon="2.12809">
        <ele>36</ele>
        <time>2019-05-21T14:02:52Z</time>
      </trkpt>
      <trkpt lat="49.04196" lon="2.12804">
        <ele>36</ele>
        <time>2019-05-21T14:03:03Z</time>
      </trkpt>
      <trkpt lat="49.04185" lon="2.12808">
        <ele>37</ele>
        <time>2019-05-21T14:03:10Z</time>
      </trkpt>
      <trkpt lat="49.04177" lon="2.12818">
        <ele>37</ele>
        <time>2019-05-21T14:03:14Z</time>
      </trkpt>
      <trkpt lat="49.04168" lon="2.1281">
        <ele>37</ele>
        <time>2019-05-21T14:03:20Z</time>
      </trkpt>
      <trkpt lat="49.04165" lon="2.12792">
        <ele>37</ele>
        <time>2019-05-21T14:03:23Z</time>
      </trkpt>
      <trkpt lat="49.04159" lon="2.12781">
        <ele>37</ele>
        <time>2019-05-21T14:03:27Z</time>
      </trkpt>
      <trkpt lat="49.04149" lon="2.12783">
        <ele>37</ele>
        <time>2019-05-21T14:03:39Z</time>
      </trkpt>
      <trkpt lat="49.04141" lon="2.12786">
        <ele>37</ele>
        <time>2019-05-21T14:03:49Z</time>
      </trkpt>
      <trkpt lat="49.0413" lon="2.12777">
        <ele>37</ele>
        <time>2019-05-21T14:03:57Z</time>
      </trkpt>
      <trkpt lat="49.04121" lon="2.12771">
        <ele>37</ele>
        <time>2019-05-21T14:04:14Z</time>
      </trkpt>
      <trkpt lat="49.04115" lon="2.1276">
        <ele>37</ele>
        <time>2019-05-21T14:04:22Z</time>
      </trkpt>
      <trkpt lat="49.04103" lon="2.12749">
        <ele>35</ele>
        <time>2019-05-21T14:04:27Z</time>
      </trkpt>
      <trkpt lat="49.04104" lon="2.12731">
        <ele>35</ele>
        <time>2019-05-21T14:04:29Z</time>
      </trkpt>
      <trkpt lat="49.04097" lon="2.1272">
        <ele>35</ele>
        <time>2019-05-21T14:04:36Z</time>
      </trkpt>
      <trkpt lat="49.04086" lon="2.12729">
        <ele>35</ele>
        <time>2019-05-21T14:04:43Z</time>
      </trkpt>
      <trkpt lat="49.04083" lon="2.12715">
        <ele>36</ele>
        <time>2019-05-21T14:04:53Z</time>
      </trkpt>
      <trkpt lat="49.0408" lon="2.12701">
        <ele>35</ele>
        <time>2019-05-21T14:04:56Z</time>
      </trkpt>
      <trkpt lat="49.0408" lon="2.12686">
        <ele>35</ele>
        <time>2019-05-21T14:05:00Z</time>
      </trkpt>
      <trkpt lat="49.04071" lon="2.12691">
        <ele>35</ele>
        <time>2019-05-21T14:05:26Z</time>
      </trkpt>
      <trkpt lat="49.04067" lon="2.12674">
        <ele>34</ele>
        <time>2019-05-21T14:05:32Z</time>
      </trkpt>
      <trkpt lat="49.04056" lon="2.12659">
        <ele>33</ele>
        <time>2019-05-21T14:05:41Z</time>
      </trkpt>
      <trkpt lat="49.04051" lon="2.1267">
        <ele>35</ele>
        <time>2019-05-21T14:05:56Z</time>
      </trkpt>
      <trkpt lat="49.04044" lon="2.12642">
        <ele>32</ele>
        <time>2019-05-21T14:07:04Z</time>
      </trkpt>
      <trkpt lat="49.04051" lon="2.12655">
        <ele>33</ele>
        <time>2019-05-21T14:07:10Z</time>
      </trkpt>
      <trkpt lat="49.04044" lon="2.12646">
        <ele>33</ele>
        <time>2019-05-21T14:12:59Z</time>
      </trkpt>
      <trkpt lat="49.04036" lon="2.1264">
        <ele>33</ele>
        <time>2019-05-21T14:13:06Z</time>
      </trkpt>
      <trkpt lat="49.04026" lon="2.12641">
        <ele>33</ele>
        <time>2019-05-21T14:13:14Z</time>
      </trkpt>
      <trkpt lat="49.04016" lon="2.1264">
        <ele>33</ele>
        <time>2019-05-21T14:13:24Z</time>
      </trkpt>
      <trkpt lat="49.04008" lon="2.12635">
        <ele>33</ele>
        <time>2019-05-21T14:13:31Z</time>
      </trkpt>
      <trkpt lat="49.04004" lon="2.1262">
        <ele>32</ele>
        <time>2019-05-21T14:13:39Z</time>
      </trkpt>
      <trkpt lat="49.03995" lon="2.12613">
        <ele>34</ele>
        <time>2019-05-21T14:13:52Z</time>
      </trkpt>
      <trkpt lat="49.03987" lon="2.12606">
        <ele>33</ele>
        <time>2019-05-21T14:14:00Z</time>
      </trkpt>
      <trkpt lat="49.03978" lon="2.12603">
        <ele>34</ele>
        <time>2019-05-21T14:14:11Z</time>
      </trkpt>
      <trkpt lat="49.03974" lon="2.12619">
        <ele>34</ele>
        <time>2019-05-21T14:14:17Z</time>
      </trkpt>
      <trkpt lat="49.03981" lon="2.12628">
        <ele>34</ele>
        <time>2019-05-21T14:14:24Z</time>
      </trkpt>
      <trkpt lat="49.03975" lon="2.12695">
        <ele>36</ele>
        <time>2019-05-21T14:14:57Z</time>
      </trkpt>
      <trkpt lat="49.03971" lon="2.12708">
        <ele>36</ele>
        <time>2019-05-21T14:15:08Z</time>
      </trkpt>
      <trkpt lat="49.03969" lon="2.12723">
        <ele>37</ele>
        <time>2019-05-21T14:15:14Z</time>
      </trkpt>
      <trkpt lat="49.03963" lon="2.12733">
        <ele>37</ele>
        <time>2019-05-21T14:15:21Z</time>
      </trkpt>
      <trkpt lat="49.03953" lon="2.12734">
        <ele>37</ele>
        <time>2019-05-21T14:15:24Z</time>
      </trkpt>
      <trkpt lat="49.03944" lon="2.12736">
        <ele>36</ele>
        <time>2019-05-21T14:15:27Z</time>
      </trkpt>
      <trkpt lat="49.03934" lon="2.12737">
        <ele>36</ele>
        <time>2019-05-21T14:15:33Z</time>
      </trkpt>
      <trkpt lat="49.03925" lon="2.12732">
        <ele>36</ele>
        <time>2019-05-21T14:15:40Z</time>
      </trkpt>
      <trkpt lat="49.03915" lon="2.12733">
        <ele>36</ele>
        <time>2019-05-21T14:15:46Z</time>
      </trkpt>
      <trkpt lat="49.03906" lon="2.12733">
        <ele>36</ele>
        <time>2019-05-21T14:15:52Z</time>
      </trkpt>
      <trkpt lat="49.03897" lon="2.12731">
        <ele>36</ele>
        <time>2019-05-21T14:15:59Z</time>
      </trkpt>
      <trkpt lat="49.03886" lon="2.1273">
        <ele>36</ele>
        <time>2019-05-21T14:16:06Z</time>
      </trkpt>
      <trkpt lat="49.03876" lon="2.12727">
        <ele>36</ele>
        <time>2019-05-21T14:16:13Z</time>
      </trkpt>
      <trkpt lat="49.03867" lon="2.12722">
        <ele>36</ele>
        <time>2019-05-21T14:16:20Z</time>
      </trkpt>
      <trkpt lat="49.03858" lon="2.12721">
        <ele>37</ele>
        <time>2019-05-21T14:16:26Z</time>
      </trkpt>
      <trkpt lat="49.03849" lon="2.12718">
        <ele>37</ele>
        <time>2019-05-21T14:16:32Z</time>
      </trkpt>
      <trkpt lat="49.03838" lon="2.12717">
        <ele>37</ele>
        <time>2019-05-21T14:16:38Z</time>
      </trkpt>
      <trkpt lat="49.03828" lon="2.12716">
        <ele>36</ele>
        <time>2019-05-21T14:16:44Z</time>
      </trkpt>
      <trkpt lat="49.03818" lon="2.12719">
        <ele>36</ele>
        <time>2019-05-21T14:16:52Z</time>
      </trkpt>
      <trkpt lat="49.03809" lon="2.12721">
        <ele>36</ele>
        <time>2019-05-21T14:16:59Z</time>
      </trkpt>
      <trkpt lat="49.038" lon="2.12725">
        <ele>35</ele>
        <time>2019-05-21T14:17:05Z</time>
      </trkpt>
      <trkpt lat="49.03791" lon="2.12729">
        <ele>35</ele>
        <time>2019-05-21T14:17:10Z</time>
      </trkpt>
      <trkpt lat="49.03781" lon="2.12733">
        <ele>35</ele>
        <time>2019-05-21T14:17:16Z</time>
      </trkpt>
      <trkpt lat="49.03772" lon="2.12739">
        <ele>35</ele>
        <time>2019-05-21T14:17:22Z</time>
      </trkpt>
      <trkpt lat="49.03762" lon="2.12744">
        <ele>34</ele>
        <time>2019-05-21T14:17:30Z</time>
      </trkpt>
      <trkpt lat="49.03753" lon="2.12747">
        <ele>34</ele>
        <time>2019-05-21T14:17:37Z</time>
      </trkpt>
      <trkpt lat="49.03744" lon="2.1275">
        <ele>34</ele>
        <time>2019-05-21T14:17:46Z</time>
      </trkpt>
      <trkpt lat="49.03735" lon="2.12751">
        <ele>34</ele>
        <time>2019-05-21T14:17:53Z</time>
      </trkpt>
      <trkpt lat="49.03725" lon="2.12749">
        <ele>33</ele>
        <time>2019-05-21T14:18:04Z</time>
      </trkpt>
      <trkpt lat="49.03716" lon="2.12758">
        <ele>33</ele>
        <time>2019-05-21T14:18:14Z</time>
      </trkpt>
      <trkpt lat="49.03712" lon="2.12772">
        <ele>33</ele>
        <time>2019-05-21T14:18:21Z</time>
      </trkpt>
      <trkpt lat="49.03707" lon="2.12787">
        <ele>33</ele>
        <time>2019-05-21T14:18:29Z</time>
      </trkpt>
      <trkpt lat="49.03702" lon="2.128">
        <ele>33</ele>
        <time>2019-05-21T14:18:35Z</time>
      </trkpt>
      <trkpt lat="49.03698" lon="2.12812">
        <ele>34</ele>
        <time>2019-05-21T14:18:47Z</time>
      </trkpt>
      <trkpt lat="49.03691" lon="2.12827">
        <ele>33</ele>
        <time>2019-05-21T14:18:55Z</time>
      </trkpt>
      <trkpt lat="49.03689" lon="2.1284">
        <ele>34</ele>
        <time>2019-05-21T14:18:59Z</time>
      </trkpt>
      <trkpt lat="49.03683" lon="2.12852">
        <ele>35</ele>
        <time>2019-05-21T14:19:06Z</time>
      </trkpt>
      <trkpt lat="49.03679" lon="2.12865">
        <ele>35</ele>
        <time>2019-05-21T14:19:16Z</time>
      </trkpt>
      <trkpt lat="49.0368" lon="2.12879">
        <ele>35</ele>
        <time>2019-05-21T14:19:25Z</time>
      </trkpt>
      <trkpt lat="49.03681" lon="2.12893">
        <ele>35</ele>
        <time>2019-05-21T14:19:31Z</time>
      </trkpt>
      <trkpt lat="49.03676" lon="2.12907">
        <ele>35</ele>
        <time>2019-05-21T14:19:40Z</time>
      </trkpt>
      <trkpt lat="49.03673" lon="2.12922">
        <ele>35</ele>
        <time>2019-05-21T14:19:44Z</time>
      </trkpt>
      <trkpt lat="49.0367" lon="2.12936">
        <ele>35</ele>
        <time>2019-05-21T14:19:51Z</time>
      </trkpt>
      <trkpt lat="49.03672" lon="2.1295">
        <ele>35</ele>
        <time>2019-05-21T14:19:57Z</time>
      </trkpt>
      <trkpt lat="49.03678" lon="2.1296">
        <ele>35</ele>
        <time>2019-05-21T14:20:06Z</time>
      </trkpt>
      <trkpt lat="49.03688" lon="2.12964">
        <ele>36</ele>
        <time>2019-05-21T14:20:14Z</time>
      </trkpt>
      <trkpt lat="49.03693" lon="2.12977">
        <ele>36</ele>
        <time>2019-05-21T14:20:21Z</time>
      </trkpt>
      <trkpt lat="49.03694" lon="2.12991">
        <ele>35</ele>
        <time>2019-05-21T14:20:28Z</time>
      </trkpt>
      <trkpt lat="49.03692" lon="2.13006">
        <ele>35</ele>
        <time>2019-05-21T14:20:36Z</time>
      </trkpt>
      <trkpt lat="49.03688" lon="2.1302">
        <ele>35</ele>
        <time>2019-05-21T14:20:43Z</time>
      </trkpt>
      <trkpt lat="49.03683" lon="2.13035">
        <ele>36</ele>
        <time>2019-05-21T14:20:49Z</time>
      </trkpt>
      <trkpt lat="49.0368" lon="2.13048">
        <ele>36</ele>
        <time>2019-05-21T14:20:55Z</time>
      </trkpt>
      <trkpt lat="49.03676" lon="2.13062">
        <ele>35</ele>
        <time>2019-05-21T14:21:01Z</time>
      </trkpt>
      <trkpt lat="49.03673" lon="2.13075">
        <ele>35</ele>
        <time>2019-05-21T14:21:08Z</time>
      </trkpt>
      <trkpt lat="49.03669" lon="2.13091">
        <ele>35</ele>
        <time>2019-05-21T14:21:16Z</time>
      </trkpt>
      <trkpt lat="49.03666" lon="2.13105">
        <ele>34</ele>
        <time>2019-05-21T14:21:22Z</time>
      </trkpt>
      <trkpt lat="49.03663" lon="2.13118">
        <ele>34</ele>
        <time>2019-05-21T14:21:28Z</time>
      </trkpt>
      <trkpt lat="49.0366" lon="2.13131">
        <ele>35</ele>
        <time>2019-05-21T14:21:34Z</time>
      </trkpt>
      <trkpt lat="49.03657" lon="2.13145">
        <ele>35</ele>
        <time>2019-05-21T14:21:44Z</time>
      </trkpt>
      <trkpt lat="49.03654" lon="2.1316">
        <ele>35</ele>
        <time>2019-05-21T14:21:52Z</time>
      </trkpt>
      <trkpt lat="49.03651" lon="2.13175">
        <ele>36</ele>
        <time>2019-05-21T14:21:58Z</time>
      </trkpt>
      <trkpt lat="49.03649" lon="2.13188">
        <ele>36</ele>
        <time>2019-05-21T14:22:05Z</time>
      </trkpt>
      <trkpt lat="49.03647" lon="2.13202">
        <ele>36</ele>
        <time>2019-05-21T14:22:12Z</time>
      </trkpt>
      <trkpt lat="49.03642" lon="2.13217">
        <ele>36</ele>
        <time>2019-05-21T14:22:19Z</time>
      </trkpt>
      <trkpt lat="49.0364" lon="2.13231">
        <ele>37</ele>
        <time>2019-05-21T14:22:26Z</time>
      </trkpt>
      <trkpt lat="49.0364" lon="2.13245">
        <ele>37</ele>
        <time>2019-05-21T14:22:34Z</time>
      </trkpt>
      <trkpt lat="49.0364" lon="2.13261">
        <ele>38</ele>
        <time>2019-05-21T14:22:40Z</time>
      </trkpt>
      <trkpt lat="49.03636" lon="2.13274">
        <ele>38</ele>
        <time>2019-05-21T14:22:51Z</time>
      </trkpt>
      <trkpt lat="49.03629" lon="2.13286">
        <ele>38</ele>
        <time>2019-05-21T14:22:57Z</time>
      </trkpt>
      <trkpt lat="49.03622" lon="2.13298">
        <ele>38</ele>
        <time>2019-05-21T14:23:03Z</time>
      </trkpt>
      <trkpt lat="49.03614" lon="2.13304">
        <ele>38</ele>
        <time>2019-05-21T14:23:09Z</time>
      </trkpt>
      <trkpt lat="49.03608" lon="2.13314">
        <ele>38</ele>
        <time>2019-05-21T14:23:19Z</time>
      </trkpt>
      <trkpt lat="49.03598" lon="2.13318">
        <ele>38</ele>
        <time>2019-05-21T14:23:24Z</time>
      </trkpt>
      <trkpt lat="49.0359" lon="2.13325">
        <ele>37</ele>
        <time>2019-05-21T14:23:30Z</time>
      </trkpt>
      <trkpt lat="49.03581" lon="2.13331">
        <ele>37</ele>
        <time>2019-05-21T14:23:38Z</time>
      </trkpt>
      <trkpt lat="49.03573" lon="2.13338">
        <ele>38</ele>
        <time>2019-05-21T14:23:45Z</time>
      </trkpt>
      <trkpt lat="49.03563" lon="2.13342">
        <ele>39</ele>
        <time>2019-05-21T14:23:53Z</time>
      </trkpt>
      <trkpt lat="49.03554" lon="2.13342">
        <ele>39</ele>
        <time>2019-05-21T14:23:58Z</time>
      </trkpt>
      <trkpt lat="49.03544" lon="2.13342">
        <ele>39</ele>
        <time>2019-05-21T14:24:04Z</time>
      </trkpt>
      <trkpt lat="49.03533" lon="2.1334">
        <ele>39</ele>
        <time>2019-05-21T14:24:10Z</time>
      </trkpt>
      <trkpt lat="49.03523" lon="2.13339">
        <ele>39</ele>
        <time>2019-05-21T14:24:19Z</time>
      </trkpt>
      <trkpt lat="49.03514" lon="2.13339">
        <ele>39</ele>
        <time>2019-05-21T14:24:27Z</time>
      </trkpt>
      <trkpt lat="49.03505" lon="2.13337">
        <ele>38</ele>
        <time>2019-05-21T14:24:35Z</time>
      </trkpt>
      <trkpt lat="49.03496" lon="2.13335">
        <ele>38</ele>
        <time>2019-05-21T14:24:51Z</time>
      </trkpt>
      <trkpt lat="49.03486" lon="2.1334">
        <ele>39</ele>
        <time>2019-05-21T14:25:02Z</time>
      </trkpt>
      <trkpt lat="49.03479" lon="2.13333">
        <ele>37</ele>
        <time>2019-05-21T14:25:26Z</time>
      </trkpt>
      <trkpt lat="49.0347" lon="2.13334">
        <ele>39</ele>
        <time>2019-05-21T14:25:58Z</time>
      </trkpt>
      <trkpt lat="49.03465" lon="2.13347">
        <ele>39</ele>
        <time>2019-05-21T14:26:07Z</time>
      </trkpt>
      <trkpt lat="49.03457" lon="2.13354">
        <ele>39</ele>
        <time>2019-05-21T14:26:13Z</time>
      </trkpt>
      <trkpt lat="49.03448" lon="2.13361">
        <ele>40</ele>
        <time>2019-05-21T14:26:19Z</time>
      </trkpt>
      <trkpt lat="49.03439" lon="2.13368">
        <ele>40</ele>
        <time>2019-05-21T14:26:25Z</time>
      </trkpt>
      <trkpt lat="49.0343" lon="2.13371">
        <ele>40</ele>
        <time>2019-05-21T14:26:31Z</time>
      </trkpt>
      <trkpt lat="49.03421" lon="2.13375">
        <ele>40</ele>
        <time>2019-05-21T14:26:38Z</time>
      </trkpt>
      <trkpt lat="49.03412" lon="2.1338">
        <ele>40</ele>
        <time>2019-05-21T14:26:46Z</time>
      </trkpt>
      <trkpt lat="49.03403" lon="2.13386">
        <ele>40</ele>
        <time>2019-05-21T14:26:53Z</time>
      </trkpt>
      <trkpt lat="49.03393" lon="2.13388">
        <ele>40</ele>
        <time>2019-05-21T14:27:00Z</time>
      </trkpt>
      <trkpt lat="49.03383" lon="2.1339">
        <ele>40</ele>
        <time>2019-05-21T14:27:09Z</time>
      </trkpt>
      <trkpt lat="49.03373" lon="2.13386">
        <ele>40</ele>
        <time>2019-05-21T14:27:14Z</time>
      </trkpt>
      <trkpt lat="49.03366" lon="2.13377">
        <ele>40</ele>
        <time>2019-05-21T14:27:22Z</time>
      </trkpt>
      <trkpt lat="49.03362" lon="2.13364">
        <ele>39</ele>
        <time>2019-05-21T14:27:29Z</time>
      </trkpt>
      <trkpt lat="49.03358" lon="2.13348">
        <ele>39</ele>
        <time>2019-05-21T14:27:38Z</time>
      </trkpt>
      <trkpt lat="49.03356" lon="2.13334">
        <ele>38</ele>
        <time>2019-05-21T14:27:49Z</time>
      </trkpt>
      <trkpt lat="49.03353" lon="2.13321">
        <ele>37</ele>
        <time>2019-05-21T14:27:57Z</time>
      </trkpt>
      <trkpt lat="49.03347" lon="2.13308">
        <ele>37</ele>
        <time>2019-05-21T14:28:05Z</time>
      </trkpt>
      <trkpt lat="49.03343" lon="2.13296">
        <ele>37</ele>
        <time>2019-05-21T14:28:12Z</time>
      </trkpt>
      <trkpt lat="49.03347" lon="2.13282">
        <ele>36</ele>
        <time>2019-05-21T14:28:19Z</time>
      </trkpt>
      <trkpt lat="49.03351" lon="2.13269">
        <ele>36</ele>
        <time>2019-05-21T14:28:23Z</time>
      </trkpt>
      <trkpt lat="49.0336" lon="2.13265">
        <ele>36</ele>
        <time>2019-05-21T14:28:30Z</time>
      </trkpt>
      <trkpt lat="49.03368" lon="2.13272">
        <ele>36</ele>
        <time>2019-05-21T14:28:38Z</time>
      </trkpt>
      <trkpt lat="49.03377" lon="2.13268">
        <ele>36</ele>
        <time>2019-05-21T14:28:47Z</time>
      </trkpt>
      <trkpt lat="49.03386" lon="2.13264">
        <ele>36</ele>
        <time>2019-05-21T14:28:53Z</time>
      </trkpt>
      <trkpt lat="49.03395" lon="2.13261">
        <ele>36</ele>
        <time>2019-05-21T14:28:58Z</time>
      </trkpt>
      <trkpt lat="49.03404" lon="2.13257">
        <ele>36</ele>
        <time>2019-05-21T14:29:04Z</time>
      </trkpt>
      <trkpt lat="49.03413" lon="2.13251">
        <ele>36</ele>
        <time>2019-05-21T14:29:12Z</time>
      </trkpt>
      <trkpt lat="49.03422" lon="2.13245">
        <ele>36</ele>
        <time>2019-05-21T14:29:20Z</time>
      </trkpt>
      <trkpt lat="49.03432" lon="2.13242">
        <ele>35</ele>
        <time>2019-05-21T14:29:27Z</time>
      </trkpt>
      <trkpt lat="49.03441" lon="2.13242">
        <ele>35</ele>
        <time>2019-05-21T14:29:33Z</time>
      </trkpt>
      <trkpt lat="49.0345" lon="2.13246">
        <ele>35</ele>
        <time>2019-05-21T14:29:40Z</time>
      </trkpt>
      <trkpt lat="49.03459" lon="2.13252">
        <ele>36</ele>
        <time>2019-05-21T14:29:48Z</time>
      </trkpt>
      <trkpt lat="49.03463" lon="2.13266">
        <ele>36</ele>
        <time>2019-05-21T14:30:00Z</time>
      </trkpt>
      <trkpt lat="49.03469" lon="2.13277">
        <ele>36</ele>
        <time>2019-05-21T14:30:06Z</time>
      </trkpt>
      <trkpt lat="49.03478" lon="2.13275">
        <ele>36</ele>
        <time>2019-05-21T14:30:18Z</time>
      </trkpt>
      <trkpt lat="49.03478" lon="2.13259">
        <ele>36</ele>
        <time>2019-05-21T14:30:26Z</time>
      </trkpt>
      <trkpt lat="49.03476" lon="2.13246">
        <ele>35</ele>
        <time>2019-05-21T14:30:34Z</time>
      </trkpt>
      <trkpt lat="49.03477" lon="2.13231">
        <ele>35</ele>
        <time>2019-05-21T14:30:49Z</time>
      </trkpt>
      <trkpt lat="49.03485" lon="2.1322">
        <ele>35</ele>
        <time>2019-05-21T14:30:56Z</time>
      </trkpt>
      <trkpt lat="49.03493" lon="2.13214">
        <ele>35</ele>
        <time>2019-05-21T14:31:03Z</time>
      </trkpt>
      <trkpt lat="49.03502" lon="2.13212">
        <ele>34</ele>
        <time>2019-05-21T14:31:10Z</time>
      </trkpt>
      <trkpt lat="49.03511" lon="2.13209">
        <ele>34</ele>
        <time>2019-05-21T14:31:17Z</time>
      </trkpt>
      <trkpt lat="49.03521" lon="2.13203">
        <ele>34</ele>
        <time>2019-05-21T14:31:23Z</time>
      </trkpt>
      <trkpt lat="49.03529" lon="2.13196">
        <ele>34</ele>
        <time>2019-05-21T14:31:28Z</time>
      </trkpt>
      <trkpt lat="49.03536" lon="2.13184">
        <ele>34</ele>
        <time>2019-05-21T14:31:34Z</time>
      </trkpt>
      <trkpt lat="49.03543" lon="2.13174">
        <ele>33</ele>
        <time>2019-05-21T14:31:40Z</time>
      </trkpt>
      <trkpt lat="49.03549" lon="2.1316">
        <ele>33</ele>
        <time>2019-05-21T14:31:48Z</time>
      </trkpt>
      <trkpt lat="49.03554" lon="2.13147">
        <ele>34</ele>
        <time>2019-05-21T14:31:53Z</time>
      </trkpt>
      <trkpt lat="49.03556" lon="2.13134">
        <ele>34</ele>
        <time>2019-05-21T14:31:59Z</time>
      </trkpt>
      <trkpt lat="49.03557" lon="2.13118">
        <ele>34</ele>
        <time>2019-05-21T14:32:06Z</time>
      </trkpt>
      <trkpt lat="49.03557" lon="2.13101">
        <ele>34</ele>
        <time>2019-05-21T14:32:13Z</time>
      </trkpt>
      <trkpt lat="49.03555" lon="2.13086">
        <ele>34</ele>
        <time>2019-05-21T14:32:23Z</time>
      </trkpt>
      <trkpt lat="49.03551" lon="2.13072">
        <ele>35</ele>
        <time>2019-05-21T14:32:30Z</time>
      </trkpt>
      <trkpt lat="49.03555" lon="2.13057">
        <ele>35</ele>
        <time>2019-05-21T14:32:34Z</time>
      </trkpt>
      <trkpt lat="49.03558" lon="2.13044">
        <ele>35</ele>
        <time>2019-05-21T14:32:40Z</time>
      </trkpt>
      <trkpt lat="49.03556" lon="2.1303">
        <ele>35</ele>
        <time>2019-05-21T14:32:48Z</time>
      </trkpt>
      <trkpt lat="49.0356" lon="2.13017">
        <ele>35</ele>
        <time>2019-05-21T14:32:54Z</time>
      </trkpt>
      <trkpt lat="49.03563" lon="2.13002">
        <ele>35</ele>
        <time>2019-05-21T14:33:01Z</time>
      </trkpt>
      <trkpt lat="49.03564" lon="2.12988">
        <ele>35</ele>
        <time>2019-05-21T14:33:08Z</time>
      </trkpt>
      <trkpt lat="49.03565" lon="2.12974">
        <ele>34</ele>
        <time>2019-05-21T14:33:14Z</time>
      </trkpt>
      <trkpt lat="49.03566" lon="2.1296">
        <ele>34</ele>
        <time>2019-05-21T14:33:20Z</time>
      </trkpt>
      <trkpt lat="49.03569" lon="2.12945">
        <ele>34</ele>
        <time>2019-05-21T14:33:27Z</time>
      </trkpt>
      <trkpt lat="49.03572" lon="2.1293">
        <ele>33</ele>
        <time>2019-05-21T14:33:33Z</time>
      </trkpt>
      <trkpt lat="49.03575" lon="2.12918">
        <ele>33</ele>
        <time>2019-05-21T14:33:39Z</time>
      </trkpt>
      <trkpt lat="49.03577" lon="2.12903">
        <ele>33</ele>
        <time>2019-05-21T14:33:46Z</time>
      </trkpt>
      <trkpt lat="49.03579" lon="2.12888">
        <ele>33</ele>
        <time>2019-05-21T14:33:54Z</time>
      </trkpt>
      <trkpt lat="49.03583" lon="2.12875">
        <ele>32</ele>
        <time>2019-05-21T14:34:00Z</time>
      </trkpt>
      <trkpt lat="49.03588" lon="2.12863">
        <ele>32</ele>
        <time>2019-05-21T14:34:06Z</time>
      </trkpt>
      <trkpt lat="49.0359" lon="2.12847">
        <ele>32</ele>
        <time>2019-05-21T14:34:14Z</time>
      </trkpt>
      <trkpt lat="49.03591" lon="2.12833">
        <ele>31</ele>
        <time>2019-05-21T14:34:21Z</time>
      </trkpt>
      <trkpt lat="49.03597" lon="2.1282">
        <ele>32</ele>
        <time>2019-05-21T14:34:29Z</time>
      </trkpt>
      <trkpt lat="49.03602" lon="2.12806">
        <ele>32</ele>
        <time>2019-05-21T14:34:37Z</time>
      </trkpt>
      <trkpt lat="49.03606" lon="2.12791">
        <ele>32</ele>
        <time>2019-05-21T14:34:44Z</time>
      </trkpt>
      <trkpt lat="49.03609" lon="2.12777">
        <ele>32</ele>
        <time>2019-05-21T14:34:50Z</time>
      </trkpt>
      <trkpt lat="49.03612" lon="2.12764">
        <ele>32</ele>
        <time>2019-05-21T14:35:01Z</time>
      </trkpt>
      <trkpt lat="49.0362" lon="2.12756">
        <ele>32</ele>
        <time>2019-05-21T14:35:06Z</time>
      </trkpt>
      <trkpt lat="49.03628" lon="2.1275">
        <ele>32</ele>
        <time>2019-05-21T14:35:11Z</time>
      </trkpt>
      <trkpt lat="49.03636" lon="2.1274">
        <ele>32</ele>
        <time>2019-05-21T14:35:18Z</time>
      </trkpt>
      <trkpt lat="49.03642" lon="2.12729">
        <ele>32</ele>
        <time>2019-05-21T14:35:25Z</time>
      </trkpt>
      <trkpt lat="49.0365" lon="2.12721">
        <ele>32</ele>
        <time>2019-05-21T14:35:32Z</time>
      </trkpt>
      <trkpt lat="49.03659" lon="2.12711">
        <ele>32</ele>
        <time>2019-05-21T14:35:38Z</time>
      </trkpt>
      <trkpt lat="49.03666" lon="2.12702">
        <ele>32</ele>
        <time>2019-05-21T14:35:46Z</time>
      </trkpt>
      <trkpt lat="49.03676" lon="2.12701">
        <ele>32</ele>
        <time>2019-05-21T14:35:55Z</time>
      </trkpt>
      <trkpt lat="49.03685" lon="2.12705">
        <ele>32</ele>
        <time>2019-05-21T14:36:02Z</time>
      </trkpt>
      <trkpt lat="49.03694" lon="2.127">
        <ele>32</ele>
        <time>2019-05-21T14:36:14Z</time>
      </trkpt>
      <trkpt lat="49.03702" lon="2.12692">
        <ele>32</ele>
        <time>2019-05-21T14:36:20Z</time>
      </trkpt>
      <trkpt lat="49.03711" lon="2.12689">
        <ele>33</ele>
        <time>2019-05-21T14:36:27Z</time>
      </trkpt>
      <trkpt lat="49.03719" lon="2.12682">
        <ele>33</ele>
        <time>2019-05-21T14:36:37Z</time>
      </trkpt>
      <trkpt lat="49.03728" lon="2.12677">
        <ele>33</ele>
        <time>2019-05-21T14:36:46Z</time>
      </trkpt>
      <trkpt lat="49.03738" lon="2.12678">
        <ele>33</ele>
        <time>2019-05-21T14:36:51Z</time>
      </trkpt>
      <trkpt lat="49.03746" lon="2.12671">
        <ele>33</ele>
        <time>2019-05-21T14:36:57Z</time>
      </trkpt>
      <trkpt lat="49.03754" lon="2.12666">
        <ele>33</ele>
        <time>2019-05-21T14:37:05Z</time>
      </trkpt>
      <trkpt lat="49.03763" lon="2.12661">
        <ele>33</ele>
        <time>2019-05-21T14:37:15Z</time>
      </trkpt>
      <trkpt lat="49.03773" lon="2.1266">
        <ele>33</ele>
        <time>2019-05-21T14:37:23Z</time>
      </trkpt>
      <trkpt lat="49.03782" lon="2.12655">
        <ele>33</ele>
        <time>2019-05-21T14:37:29Z</time>
      </trkpt>
      <trkpt lat="49.03791" lon="2.12652">
        <ele>33</ele>
        <time>2019-05-21T14:37:35Z</time>
      </trkpt>
      <trkpt lat="49.03801" lon="2.1265">
        <ele>34</ele>
        <time>2019-05-21T14:37:39Z</time>
      </trkpt>
      <trkpt lat="49.0381" lon="2.12648">
        <ele>34</ele>
        <time>2019-05-21T14:37:44Z</time>
      </trkpt>
      <trkpt lat="49.03819" lon="2.12645">
        <ele>34</ele>
        <time>2019-05-21T14:37:52Z</time>
      </trkpt>
      <trkpt lat="49.03828" lon="2.12641">
        <ele>34</ele>
        <time>2019-05-21T14:38:03Z</time>
      </trkpt>
      <trkpt lat="49.03837" lon="2.1264">
        <ele>35</ele>
        <time>2019-05-21T14:38:09Z</time>
      </trkpt>
      <trkpt lat="49.03848" lon="2.12635">
        <ele>35</ele>
        <time>2019-05-21T14:38:14Z</time>
      </trkpt>
      <trkpt lat="49.03857" lon="2.12637">
        <ele>35</ele>
        <time>2019-05-21T14:38:19Z</time>
      </trkpt>
      <trkpt lat="49.03866" lon="2.12638">
        <ele>36</ele>
        <time>2019-05-21T14:38:23Z</time>
      </trkpt>
      <trkpt lat="49.03876" lon="2.12639">
        <ele>36</ele>
        <time>2019-05-21T14:38:29Z</time>
      </trkpt>
      <trkpt lat="49.03885" lon="2.12642">
        <ele>36</ele>
        <time>2019-05-21T14:38:35Z</time>
      </trkpt>
      <trkpt lat="49.03894" lon="2.12647">
        <ele>36</ele>
        <time>2019-05-21T14:38:45Z</time>
      </trkpt>
      <trkpt lat="49.03903" lon="2.12654">
        <ele>36</ele>
        <time>2019-05-21T14:38:55Z</time>
      </trkpt>
      <trkpt lat="49.03912" lon="2.12658">
        <ele>36</ele>
        <time>2019-05-21T14:39:01Z</time>
      </trkpt>
      <trkpt lat="49.03921" lon="2.12664">
        <ele>36</ele>
        <time>2019-05-21T14:39:06Z</time>
      </trkpt>
      <trkpt lat="49.03929" lon="2.12672">
        <ele>36</ele>
        <time>2019-05-21T14:39:12Z</time>
      </trkpt>
      <trkpt lat="49.03935" lon="2.12685">
        <ele>36</ele>
        <time>2019-05-21T14:39:17Z</time>
      </trkpt>
      <trkpt lat="49.03942" lon="2.12696">
        <ele>36</ele>
        <time>2019-05-21T14:39:24Z</time>
      </trkpt>
      <trkpt lat="49.03949" lon="2.12687">
        <ele>36</ele>
        <time>2019-05-21T14:39:35Z</time>
      </trkpt>
      <trkpt lat="49.03951" lon="2.12674">
        <ele>36</ele>
        <time>2019-05-21T14:39:40Z</time>
      </trkpt>
      <trkpt lat="49.03959" lon="2.12665">
        <ele>35</ele>
        <time>2019-05-21T14:40:07Z</time>
      </trkpt>
      <trkpt lat="49.03947" lon="2.12638">
        <ele>35</ele>
        <time>2019-05-21T14:40:12Z</time>
      </trkpt>
      <trkpt lat="49.03947" lon="2.12623">
        <ele>35</ele>
        <time>2019-05-21T14:40:14Z</time>
      </trkpt>
      <trkpt lat="49.03948" lon="2.12607">
        <ele>35</ele>
        <time>2019-05-21T14:40:16Z</time>
      </trkpt>
      <trkpt lat="49.03952" lon="2.12593">
        <ele>35</ele>
        <time>2019-05-21T14:40:22Z</time>
      </trkpt>
      <trkpt lat="49.0396" lon="2.12585">
        <ele>35</ele>
        <time>2019-05-21T14:40:35Z</time>
      </trkpt>
      <trkpt lat="49.0397" lon="2.12584">
        <ele>34</ele>
        <time>2019-05-21T14:40:41Z</time>
      </trkpt>
      <trkpt lat="49.03975" lon="2.12601">
        <ele>34</ele>
        <time>2019-05-21T14:40:44Z</time>
      </trkpt>
      <trkpt lat="49.03985" lon="2.12603">
        <ele>33</ele>
        <time>2019-05-21T14:40:50Z</time>
      </trkpt>
      <trkpt lat="49.03995" lon="2.12602">
        <ele>33</ele>
        <time>2019-05-21T14:40:55Z</time>
      </trkpt>
      <trkpt lat="49.04005" lon="2.12603">
        <ele>32</ele>
        <time>2019-05-21T14:41:03Z</time>
      </trkpt>
      <trkpt lat="49.04015" lon="2.12605">
        <ele>32</ele>
        <time>2019-05-21T14:41:09Z</time>
      </trkpt>
      <trkpt lat="49.04024" lon="2.12607">
        <ele>32</ele>
        <time>2019-05-21T14:41:15Z</time>
      </trkpt>
      <trkpt lat="49.04033" lon="2.12614">
        <ele>32</ele>
        <time>2019-05-21T14:41:22Z</time>
      </trkpt>
      <trkpt lat="49.0404" lon="2.12623">
        <ele>32</ele>
        <time>2019-05-21T14:41:29Z</time>
      </trkpt>
      <trkpt lat="49.04046" lon="2.12634">
        <ele>32</ele>
        <time>2019-05-21T14:41:35Z</time>
      </trkpt>
      <trkpt lat="49.04053" lon="2.12645">
        <ele>32</ele>
        <time>2019-05-21T14:41:44Z</time>
      </trkpt>
      <trkpt lat="49.04061" lon="2.12652">
        <ele>33</ele>
        <time>2019-05-21T14:41:51Z</time>
      </trkpt>
      <trkpt lat="49.04069" lon="2.12658">
        <ele>33</ele>
        <time>2019-05-21T14:41:59Z</time>
      </trkpt>
      <trkpt lat="49.04077" lon="2.12665">
        <ele>33</ele>
        <time>2019-05-21T14:42:06Z</time>
      </trkpt>
      <trkpt lat="49.04087" lon="2.1267">
        <ele>33</ele>
        <time>2019-05-21T14:42:13Z</time>
      </trkpt>
      <trkpt lat="49.04096" lon="2.12677">
        <ele>33</ele>
        <time>2019-05-21T14:42:19Z</time>
      </trkpt>
      <trkpt lat="49.04106" lon="2.12681">
        <ele>33</ele>
        <time>2019-05-21T14:42:26Z</time>
      </trkpt>
      <trkpt lat="49.04116" lon="2.12685">
        <ele>33</ele>
        <time>2019-05-21T14:42:34Z</time>
      </trkpt>
      <trkpt lat="49.04126" lon="2.12694">
        <ele>33</ele>
        <time>2019-05-21T14:42:39Z</time>
      </trkpt>
      <trkpt lat="49.04135" lon="2.12699">
        <ele>33</ele>
        <time>2019-05-21T14:42:48Z</time>
      </trkpt>
      <trkpt lat="49.04142" lon="2.12709">
        <ele>34</ele>
        <time>2019-05-21T14:42:54Z</time>
      </trkpt>
      <trkpt lat="49.04153" lon="2.12713">
        <ele>34</ele>
        <time>2019-05-21T14:42:59Z</time>
      </trkpt>
      <trkpt lat="49.04162" lon="2.12716">
        <ele>34</ele>
        <time>2019-05-21T14:43:07Z</time>
      </trkpt>
      <trkpt lat="49.04169" lon="2.12726">
        <ele>33</ele>
        <time>2019-05-21T14:43:16Z</time>
      </trkpt>
      <trkpt lat="49.04179" lon="2.12728">
        <ele>33</ele>
        <time>2019-05-21T14:43:23Z</time>
      </trkpt>
      <trkpt lat="49.04188" lon="2.12732">
        <ele>33</ele>
        <time>2019-05-21T14:43:28Z</time>
      </trkpt>
      <trkpt lat="49.04197" lon="2.12729">
        <ele>32</ele>
        <time>2019-05-21T14:43:35Z</time>
      </trkpt>
      <trkpt lat="49.04204" lon="2.12718">
        <ele>32</ele>
        <time>2019-05-21T14:43:42Z</time>
      </trkpt>
      <trkpt lat="49.04209" lon="2.12704">
        <ele>31</ele>
        <time>2019-05-21T14:43:49Z</time>
      </trkpt>
      <trkpt lat="49.04216" lon="2.12691">
        <ele>31</ele>
        <time>2019-05-21T14:43:55Z</time>
      </trkpt>
      <trkpt lat="49.04222" lon="2.12681">
        <ele>31</ele>
        <time>2019-05-21T14:44:01Z</time>
      </trkpt>
      <trkpt lat="49.04229" lon="2.1267">
        <ele>30</ele>
        <time>2019-05-21T14:44:09Z</time>
      </trkpt>
      <trkpt lat="49.04237" lon="2.12663">
        <ele>29</ele>
        <time>2019-05-21T14:44:13Z</time>
      </trkpt>
      <trkpt lat="49.04244" lon="2.12651">
        <ele>29</ele>
        <time>2019-05-21T14:44:18Z</time>
      </trkpt>
      <trkpt lat="49.0425" lon="2.12639">
        <ele>29</ele>
        <time>2019-05-21T14:44:27Z</time>
      </trkpt>
      <trkpt lat="49.04255" lon="2.12625">
        <ele>31</ele>
        <time>2019-05-21T14:44:35Z</time>
      </trkpt>
      <trkpt lat="49.04262" lon="2.12616">
        <ele>31</ele>
        <time>2019-05-21T14:44:41Z</time>
      </trkpt>
      <trkpt lat="49.04263" lon="2.12602">
        <ele>30</ele>
        <time>2019-05-21T14:44:55Z</time>
      </trkpt>
      <trkpt lat="49.0426" lon="2.12589">
        <ele>30</ele>
        <time>2019-05-21T14:45:03Z</time>
      </trkpt>
      <trkpt lat="49.04258" lon="2.12574">
        <ele>30</ele>
        <time>2019-05-21T14:45:10Z</time>
      </trkpt>
      <trkpt lat="49.04258" lon="2.12559">
        <ele>31</ele>
        <time>2019-05-21T14:45:15Z</time>
      </trkpt>
      <trkpt lat="49.0426" lon="2.12546">
        <ele>31</ele>
        <time>2019-05-21T14:45:21Z</time>
      </trkpt>
      <trkpt lat="49.04265" lon="2.12533">
        <ele>31</ele>
        <time>2019-05-21T14:45:27Z</time>
      </trkpt>
      <trkpt lat="49.04267" lon="2.12519">
        <ele>31</ele>
        <time>2019-05-21T14:45:32Z</time>
      </trkpt>
      <trkpt lat="49.04267" lon="2.12504">
        <ele>31</ele>
        <time>2019-05-21T14:45:40Z</time>
      </trkpt>
      <trkpt lat="49.04267" lon="2.12488">
        <ele>31</ele>
        <time>2019-05-21T14:45:47Z</time>
      </trkpt>
      <trkpt lat="49.04276" lon="2.12481">
        <ele>31</ele>
        <time>2019-05-21T14:45:58Z</time>
      </trkpt>
      <trkpt lat="49.04279" lon="2.12468">
        <ele>31</ele>
        <time>2019-05-21T14:46:03Z</time>
      </trkpt>
      <trkpt lat="49.0428" lon="2.12453">
        <ele>31</ele>
        <time>2019-05-21T14:46:11Z</time>
      </trkpt>
      <trkpt lat="49.04283" lon="2.12439">
        <ele>31</ele>
        <time>2019-05-21T14:46:19Z</time>
      </trkpt>
      <trkpt lat="49.04282" lon="2.12424">
        <ele>31</ele>
        <time>2019-05-21T14:46:27Z</time>
      </trkpt>
      <trkpt lat="49.0428" lon="2.12408">
        <ele>31</ele>
        <time>2019-05-21T14:46:35Z</time>
      </trkpt>
      <trkpt lat="49.04281" lon="2.12394">
        <ele>30</ele>
        <time>2019-05-21T14:46:41Z</time>
      </trkpt>
      <trkpt lat="49.0428" lon="2.12379">
        <ele>30</ele>
        <time>2019-05-21T14:46:48Z</time>
      </trkpt>
      <trkpt lat="49.04282" lon="2.12364">
        <ele>30</ele>
        <time>2019-05-21T14:46:56Z</time>
      </trkpt>
      <trkpt lat="49.04281" lon="2.12348">
        <ele>30</ele>
        <time>2019-05-21T14:47:05Z</time>
      </trkpt>
      <trkpt lat="49.04284" lon="2.12332">
        <ele>30</ele>
        <time>2019-05-21T14:47:12Z</time>
      </trkpt>
      <trkpt lat="49.04286" lon="2.12317">
        <ele>30</ele>
        <time>2019-05-21T14:47:18Z</time>
      </trkpt>
      <trkpt lat="49.04286" lon="2.12303">
        <ele>30</ele>
        <time>2019-05-21T14:47:26Z</time>
      </trkpt>
      <trkpt lat="49.04286" lon="2.12289">
        <ele>30</ele>
        <time>2019-05-21T14:47:32Z</time>
      </trkpt>
      <trkpt lat="49.04291" lon="2.12274">
        <ele>30</ele>
        <time>2019-05-21T14:47:40Z</time>
      </trkpt>
      <trkpt lat="49.04299" lon="2.12267">
        <ele>30</ele>
        <time>2019-05-21T14:47:49Z</time>
      </trkpt>
      <trkpt lat="49.04308" lon="2.12263">
        <ele>30</ele>
        <time>2019-05-21T14:47:58Z</time>
      </trkpt>
      <trkpt lat="49.04315" lon="2.12255">
        <ele>29</ele>
        <time>2019-05-21T14:48:02Z</time>
      </trkpt>
      <trkpt lat="49.04323" lon="2.12245">
        <ele>29</ele>
        <time>2019-05-21T14:48:08Z</time>
      </trkpt>
      <trkpt lat="49.04327" lon="2.12232">
        <ele>30</ele>
        <time>2019-05-21T14:48:17Z</time>
      </trkpt>
      <trkpt lat="49.0433" lon="2.12193">
        <ele>30</ele>
        <time>2019-05-21T14:48:38Z</time>
      </trkpt>
      <trkpt lat="49.04322" lon="2.12186">
        <ele>30</ele>
        <time>2019-05-21T14:48:59Z</time>
      </trkpt>
      <trkpt lat="49.04314" lon="2.12176">
        <ele>30</ele>
        <time>2019-05-21T14:49:06Z</time>
      </trkpt>
      <trkpt lat="49.04301" lon="2.12169">
        <ele>30</ele>
        <time>2019-05-21T14:49:11Z</time>
      </trkpt>
      <trkpt lat="49.04294" lon="2.12155">
        <ele>30</ele>
        <time>2019-05-21T14:49:15Z</time>
      </trkpt>
      <trkpt lat="49.04295" lon="2.12138">
        <ele>30</ele>
        <time>2019-05-21T14:49:19Z</time>
      </trkpt>
      <trkpt lat="49.04301" lon="2.12126">
        <ele>30</ele>
        <time>2019-05-21T14:49:26Z</time>
      </trkpt>
      <trkpt lat="49.04307" lon="2.12114">
        <ele>30</ele>
        <time>2019-05-21T14:49:34Z</time>
      </trkpt>
      <trkpt lat="49.04309" lon="2.12099">
        <ele>29</ele>
        <time>2019-05-21T14:49:45Z</time>
      </trkpt>
      <trkpt lat="49.04312" lon="2.12085">
        <ele>29</ele>
        <time>2019-05-21T14:49:55Z</time>
      </trkpt>
      <trkpt lat="49.0432" lon="2.12078">
        <ele>28</ele>
        <time>2019-05-21T14:50:03Z</time>
      </trkpt>
      <trkpt lat="49.04325" lon="2.12065">
        <ele>28</ele>
        <time>2019-05-21T14:50:10Z</time>
      </trkpt>
      <trkpt lat="49.04329" lon="2.12051">
        <ele>28</ele>
        <time>2019-05-21T14:50:14Z</time>
      </trkpt>
      <trkpt lat="49.04337" lon="2.12045">
        <ele>27</ele>
        <time>2019-05-21T14:50:21Z</time>
      </trkpt>
      <trkpt lat="49.04343" lon="2.12033">
        <ele>27</ele>
        <time>2019-05-21T14:50:26Z</time>
      </trkpt>
      <trkpt lat="49.04349" lon="2.12022">
        <ele>27</ele>
        <time>2019-05-21T14:50:33Z</time>
      </trkpt>
      <trkpt lat="49.04358" lon="2.12015">
        <ele>27</ele>
        <time>2019-05-21T14:50:39Z</time>
      </trkpt>
      <trkpt lat="49.04364" lon="2.12003">
        <ele>27</ele>
        <time>2019-05-21T14:50:50Z</time>
      </trkpt>
      <trkpt lat="49.04372" lon="2.11997">
        <ele>28</ele>
        <time>2019-05-21T14:50:59Z</time>
      </trkpt>
      <trkpt lat="49.04376" lon="2.1201">
        <ele>27</ele>
        <time>2019-05-21T14:51:33Z</time>
      </trkpt>
      <trkpt lat="49.0437" lon="2.12021">
        <ele>27</ele>
        <time>2019-05-21T14:51:45Z</time>
      </trkpt>
      <trkpt lat="49.04363" lon="2.12033">
        <ele>27</ele>
        <time>2019-05-21T14:51:54Z</time>
      </trkpt>
      <trkpt lat="49.04357" lon="2.12047">
        <ele>27</ele>
        <time>2019-05-21T14:52:03Z</time>
      </trkpt>
      <trkpt lat="49.0435" lon="2.12056">
        <ele>28</ele>
        <time>2019-05-21T14:52:10Z</time>
      </trkpt>
      <trkpt lat="49.04341" lon="2.12063">
        <ele>28</ele>
        <time>2019-05-21T14:52:20Z</time>
      </trkpt>
      <trkpt lat="49.04335" lon="2.12075">
        <ele>28</ele>
        <time>2019-05-21T14:52:25Z</time>
      </trkpt>
      <trkpt lat="49.04329" lon="2.12086">
        <ele>28</ele>
        <time>2019-05-21T14:52:31Z</time>
      </trkpt>
      <trkpt lat="49.04323" lon="2.12096">
        <ele>29</ele>
        <time>2019-05-21T14:52:36Z</time>
      </trkpt>
      <trkpt lat="49.04316" lon="2.12105">
        <ele>29</ele>
        <time>2019-05-21T14:52:41Z</time>
      </trkpt>
      <trkpt lat="49.04306" lon="2.1211">
        <ele>30</ele>
        <time>2019-05-21T14:52:48Z</time>
      </trkpt>
      <trkpt lat="49.04299" lon="2.12119">
        <ele>30</ele>
        <time>2019-05-21T14:52:55Z</time>
      </trkpt>
      <trkpt lat="49.04293" lon="2.12131">
        <ele>30</ele>
        <time>2019-05-21T14:53:03Z</time>
      </trkpt>
      <trkpt lat="49.04287" lon="2.12143">
        <ele>30</ele>
        <time>2019-05-21T14:53:11Z</time>
      </trkpt>
      <trkpt lat="49.04283" lon="2.12155">
        <ele>30</ele>
        <time>2019-05-21T14:53:19Z</time>
      </trkpt>
      <trkpt lat="49.04273" lon="2.12154">
        <ele>30</ele>
        <time>2019-05-21T14:53:33Z</time>
      </trkpt>
      <trkpt lat="49.04277" lon="2.12139">
        <ele>30</ele>
        <time>2019-05-21T14:53:42Z</time>
      </trkpt>
      <trkpt lat="49.04284" lon="2.12129">
        <ele>30</ele>
        <time>2019-05-21T14:53:49Z</time>
      </trkpt>
      <trkpt lat="49.04289" lon="2.12119">
        <ele>30</ele>
        <time>2019-05-21T14:53:56Z</time>
      </trkpt>
      <trkpt lat="49.04297" lon="2.12111">
        <ele>30</ele>
        <time>2019-05-21T14:54:02Z</time>
      </trkpt>
      <trkpt lat="49.04303" lon="2.12099">
        <ele>30</ele>
        <time>2019-05-21T14:54:09Z</time>
      </trkpt>
      <trkpt lat="49.04309" lon="2.12089">
        <ele>29</ele>
        <time>2019-05-21T14:54:16Z</time>
      </trkpt>
      <trkpt lat="49.04318" lon="2.12079">
        <ele>28</ele>
        <time>2019-05-21T14:54:22Z</time>
      </trkpt>
      <trkpt lat="49.04324" lon="2.12067">
        <ele>28</ele>
        <time>2019-05-21T14:54:31Z</time>
      </trkpt>
      <trkpt lat="49.04331" lon="2.12054">
        <ele>28</ele>
        <time>2019-05-21T14:54:40Z</time>
      </trkpt>
      <trkpt lat="49.04337" lon="2.12043">
        <ele>27</ele>
        <time>2019-05-21T14:54:44Z</time>
      </trkpt>
      <trkpt lat="49.04343" lon="2.12031">
        <ele>27</ele>
        <time>2019-05-21T14:54:53Z</time>
      </trkpt>
      <trkpt lat="49.04349" lon="2.1202">
        <ele>27</ele>
        <time>2019-05-21T14:54:59Z</time>
      </trkpt>
      <trkpt lat="49.04354" lon="2.12007">
        <ele>27</ele>
        <time>2019-05-21T14:55:06Z</time>
      </trkpt>
      <trkpt lat="49.04362" lon="2.11997">
        <ele>27</ele>
        <time>2019-05-21T14:55:15Z</time>
      </trkpt>
      <trkpt lat="49.04367" lon="2.11985">
        <ele>28</ele>
        <time>2019-05-21T14:55:22Z</time>
      </trkpt>
      <trkpt lat="49.04374" lon="2.11975">
        <ele>28</ele>
        <time>2019-05-21T14:55:34Z</time>
      </trkpt>
      <trkpt lat="49.04383" lon="2.11977">
        <ele>28</ele>
        <time>2019-05-21T14:55:41Z</time>
      </trkpt>
      <trkpt lat="49.04392" lon="2.1198">
        <ele>28</ele>
        <time>2019-05-21T14:55:48Z</time>
      </trkpt>
      <trkpt lat="49.04402" lon="2.11975">
        <ele>28</ele>
        <time>2019-05-21T14:55:55Z</time>
      </trkpt>
      <trkpt lat="49.04412" lon="2.11972">
        <ele>28</ele>
        <time>2019-05-21T14:56:00Z</time>
      </trkpt>
      <trkpt lat="49.04422" lon="2.11968">
        <ele>28</ele>
        <time>2019-05-21T14:56:09Z</time>
      </trkpt>
      <trkpt lat="49.04431" lon="2.11963">
        <ele>28</ele>
        <time>2019-05-21T14:56:17Z</time>
      </trkpt>
      <trkpt lat="49.04441" lon="2.11961">
        <ele>28</ele>
        <time>2019-05-21T14:56:26Z</time>
      </trkpt>
      <trkpt lat="49.04452" lon="2.11963">
        <ele>28</ele>
        <time>2019-05-21T14:56:32Z</time>
      </trkpt>
      <trkpt lat="49.04461" lon="2.11961">
        <ele>27</ele>
        <time>2019-05-21T14:56:39Z</time>
      </trkpt>
      <trkpt lat="49.04466" lon="2.11976">
        <ele>28</ele>
        <time>2019-05-21T14:56:47Z</time>
      </trkpt>
      <trkpt lat="49.04468" lon="2.1199">
        <ele>28</ele>
        <time>2019-05-21T14:57:15Z</time>
      </trkpt>
      <trkpt lat="49.04476" lon="2.11999">
        <ele>28</ele>
        <time>2019-05-21T14:57:24Z</time>
      </trkpt>
      <trkpt lat="49.04484" lon="2.12008">
        <ele>28</ele>
        <time>2019-05-21T14:57:31Z</time>
      </trkpt>
      <trkpt lat="49.04494" lon="2.12005">
        <ele>28</ele>
        <time>2019-05-21T14:57:38Z</time>
      </trkpt>
      <trkpt lat="49.04503" lon="2.12003">
        <ele>28</ele>
        <time>2019-05-21T14:57:45Z</time>
      </trkpt>
      <trkpt lat="49.04513" lon="2.11999">
        <ele>28</ele>
        <time>2019-05-21T14:57:52Z</time>
      </trkpt>
      <trkpt lat="49.04521" lon="2.11994">
        <ele>28</ele>
        <time>2019-05-21T14:57:58Z</time>
      </trkpt>
      <trkpt lat="49.0453" lon="2.11989">
        <ele>28</ele>
        <time>2019-05-21T14:58:06Z</time>
      </trkpt>
      <trkpt lat="49.04538" lon="2.11983">
        <ele>28</ele>
        <time>2019-05-21T14:58:13Z</time>
      </trkpt>
      <trkpt lat="49.04547" lon="2.11978">
        <ele>29</ele>
        <time>2019-05-21T14:58:22Z</time>
      </trkpt>
      <trkpt lat="49.04548" lon="2.11963">
        <ele>28</ele>
        <time>2019-05-21T14:58:28Z</time>
      </trkpt>
      <trkpt lat="49.04544" lon="2.1195">
        <ele>28</ele>
        <time>2019-05-21T14:58:37Z</time>
      </trkpt>
      <trkpt lat="49.04541" lon="2.11935">
        <ele>28</ele>
        <time>2019-05-21T14:58:43Z</time>
      </trkpt>
      <trkpt lat="49.0454" lon="2.11921">
        <ele>28</ele>
        <time>2019-05-21T14:58:52Z</time>
      </trkpt>
      <trkpt lat="49.04537" lon="2.11908">
        <ele>27</ele>
        <time>2019-05-21T14:59:00Z</time>
      </trkpt>
      <trkpt lat="49.04535" lon="2.11893">
        <ele>27</ele>
        <time>2019-05-21T14:59:08Z</time>
      </trkpt>
      <trkpt lat="49.04533" lon="2.11879">
        <ele>27</ele>
        <time>2019-05-21T14:59:13Z</time>
      </trkpt>
      <trkpt lat="49.04531" lon="2.11865">
        <ele>27</ele>
        <time>2019-05-21T14:59:19Z</time>
      </trkpt>
      <trkpt lat="49.04539" lon="2.11858">
        <ele>27</ele>
        <time>2019-05-21T14:59:29Z</time>
      </trkpt>
      <trkpt lat="49.04548" lon="2.11854">
        <ele>27</ele>
        <time>2019-05-21T14:59:39Z</time>
      </trkpt>
      <trkpt lat="49.04556" lon="2.11846">
        <ele>27</ele>
        <time>2019-05-21T14:59:48Z</time>
      </trkpt>
      <trkpt lat="49.04567" lon="2.11845">
        <ele>28</ele>
        <time>2019-05-21T14:59:55Z</time>
      </trkpt>
      <trkpt lat="49.04576" lon="2.11839">
        <ele>28</ele>
        <time>2019-05-21T15:00:01Z</time>
      </trkpt>
      <trkpt lat="49.04582" lon="2.11828">
        <ele>28</ele>
        <time>2019-05-21T15:00:12Z</time>
      </trkpt>
      <trkpt lat="49.04591" lon="2.11825">
        <ele>28</ele>
        <time>2019-05-21T15:00:18Z</time>
      </trkpt>
      <trkpt lat="49.04599" lon="2.11818">
        <ele>29</ele>
        <time>2019-05-21T15:00:24Z</time>
      </trkpt>
      <trkpt lat="49.04609" lon="2.11811">
        <ele>29</ele>
        <time>2019-05-21T15:00:30Z</time>
      </trkpt>
      <trkpt lat="49.04617" lon="2.11805">
        <ele>29</ele>
        <time>2019-05-21T15:00:36Z</time>
      </trkpt>
      <trkpt lat="49.04626" lon="2.11811">
        <ele>29</ele>
        <time>2019-05-21T15:00:50Z</time>
      </trkpt>
      <trkpt lat="49.0463" lon="2.11825">
        <ele>29</ele>
        <time>2019-05-21T15:00:58Z</time>
      </trkpt>
      <trkpt lat="49.04634" lon="2.11838">
        <ele>29</ele>
        <time>2019-05-21T15:01:03Z</time>
      </trkpt>
      <trkpt lat="49.0464" lon="2.11848">
        <ele>29</ele>
        <time>2019-05-21T15:01:10Z</time>
      </trkpt>
      <trkpt lat="49.0465" lon="2.11854">
        <ele>29</ele>
        <time>2019-05-21T15:01:14Z</time>
      </trkpt>
      <trkpt lat="49.04659" lon="2.11854">
        <ele>29</ele>
        <time>2019-05-21T15:01:18Z</time>
      </trkpt>
      <trkpt lat="49.04662" lon="2.11869">
        <ele>29</ele>
        <time>2019-05-21T15:01:26Z</time>
      </trkpt>
      <trkpt lat="49.04667" lon="2.11881">
        <ele>30</ele>
        <time>2019-05-21T15:01:33Z</time>
      </trkpt>
      <trkpt lat="49.04673" lon="2.11892">
        <ele>30</ele>
        <time>2019-05-21T15:01:40Z</time>
      </trkpt>
      <trkpt lat="49.0468" lon="2.11902">
        <ele>30</ele>
        <time>2019-05-21T15:01:49Z</time>
      </trkpt>
      <trkpt lat="49.04684" lon="2.11914">
        <ele>30</ele>
        <time>2019-05-21T15:01:55Z</time>
      </trkpt>
      <trkpt lat="49.04689" lon="2.11928">
        <ele>30</ele>
        <time>2019-05-21T15:02:01Z</time>
      </trkpt>
      <trkpt lat="49.04694" lon="2.11941">
        <ele>30</ele>
        <time>2019-05-21T15:02:07Z</time>
      </trkpt>
      <trkpt lat="49.04698" lon="2.11954">
        <ele>31</ele>
        <time>2019-05-21T15:02:13Z</time>
      </trkpt>
      <trkpt lat="49.04701" lon="2.11968">
        <ele>31</ele>
        <time>2019-05-21T15:02:20Z</time>
      </trkpt>
      <trkpt lat="49.04706" lon="2.11979">
        <ele>31</ele>
        <time>2019-05-21T15:02:27Z</time>
      </trkpt>
      <trkpt lat="49.04713" lon="2.1199">
        <ele>31</ele>
        <time>2019-05-21T15:02:33Z</time>
      </trkpt>
      <trkpt lat="49.04719" lon="2.12001">
        <ele>31</ele>
        <time>2019-05-21T15:02:40Z</time>
      </trkpt>
      <trkpt lat="49.04726" lon="2.12011">
        <ele>31</ele>
        <time>2019-05-21T15:02:49Z</time>
      </trkpt>
      <trkpt lat="49.04732" lon="2.12022">
        <ele>31</ele>
        <time>2019-05-21T15:02:56Z</time>
      </trkpt>
      <trkpt lat="49.04742" lon="2.12016">
        <ele>32</ele>
        <time>2019-05-21T15:03:05Z</time>
      </trkpt>
      <trkpt lat="49.04749" lon="2.12008">
        <ele>32</ele>
        <time>2019-05-21T15:03:14Z</time>
      </trkpt>
      <trkpt lat="49.04756" lon="2.11998">
        <ele>32</ele>
        <time>2019-05-21T15:03:24Z</time>
      </trkpt>
      <trkpt lat="49.0476" lon="2.11985">
        <ele>32</ele>
        <time>2019-05-21T15:03:31Z</time>
      </trkpt>
      <trkpt lat="49.04766" lon="2.11972">
        <ele>32</ele>
        <time>2019-05-21T15:03:37Z</time>
      </trkpt>
      <trkpt lat="49.04771" lon="2.11961">
        <ele>32</ele>
        <time>2019-05-21T15:03:44Z</time>
      </trkpt>
      <trkpt lat="49.04776" lon="2.11949">
        <ele>32</ele>
        <time>2019-05-21T15:03:58Z</time>
      </trkpt>
      <trkpt lat="49.04783" lon="2.1194">
        <ele>32</ele>
        <time>2019-05-21T15:04:05Z</time>
      </trkpt>
      <trkpt lat="49.0479" lon="2.11925">
        <ele>32</ele>
        <time>2019-05-21T15:04:15Z</time>
      </trkpt>
      <trkpt lat="49.04797" lon="2.11914">
        <ele>31</ele>
        <time>2019-05-21T15:04:20Z</time>
      </trkpt>
      <trkpt lat="49.04805" lon="2.11902">
        <ele>31</ele>
        <time>2019-05-21T15:04:25Z</time>
      </trkpt>
      <trkpt lat="49.04814" lon="2.11891">
        <ele>31</ele>
        <time>2019-05-21T15:04:32Z</time>
      </trkpt>
      <trkpt lat="49.04816" lon="2.11877">
        <ele>31</ele>
        <time>2019-05-21T15:04:41Z</time>
      </trkpt>
      <trkpt lat="49.04814" lon="2.11863">
        <ele>30</ele>
        <time>2019-05-21T15:04:50Z</time>
      </trkpt>
      <trkpt lat="49.04809" lon="2.11851">
        <ele>30</ele>
        <time>2019-05-21T15:04:54Z</time>
      </trkpt>
      <trkpt lat="49.04801" lon="2.1184">
        <ele>30</ele>
        <time>2019-05-21T15:05:00Z</time>
      </trkpt>
      <trkpt lat="49.04794" lon="2.11832">
        <ele>29</ele>
        <time>2019-05-21T15:05:07Z</time>
      </trkpt>
      <trkpt lat="49.04788" lon="2.11821">
        <ele>29</ele>
        <time>2019-05-21T15:05:14Z</time>
      </trkpt>
      <trkpt lat="49.04782" lon="2.1181">
        <ele>30</ele>
        <time>2019-05-21T15:05:22Z</time>
      </trkpt>
      <trkpt lat="49.04774" lon="2.118">
        <ele>30</ele>
        <time>2019-05-21T15:05:30Z</time>
      </trkpt>
      <trkpt lat="49.04772" lon="2.11786">
        <ele>29</ele>
        <time>2019-05-21T15:05:40Z</time>
      </trkpt>
      <trkpt lat="49.04768" lon="2.11771">
        <ele>30</ele>
        <time>2019-05-21T15:05:48Z</time>
      </trkpt>
      <trkpt lat="49.04764" lon="2.11757">
        <ele>30</ele>
        <time>2019-05-21T15:05:54Z</time>
      </trkpt>
      <trkpt lat="49.04758" lon="2.11747">
        <ele>30</ele>
        <time>2019-05-21T15:06:01Z</time>
      </trkpt>
      <trkpt lat="49.04752" lon="2.11736">
        <ele>29</ele>
        <time>2019-05-21T15:06:07Z</time>
      </trkpt>
      <trkpt lat="49.04752" lon="2.1172">
        <ele>29</ele>
        <time>2019-05-21T15:06:18Z</time>
      </trkpt>
      <trkpt lat="49.04756" lon="2.11706">
        <ele>29</ele>
        <time>2019-05-21T15:06:25Z</time>
      </trkpt>
      <trkpt lat="49.04761" lon="2.11695">
        <ele>29</ele>
        <time>2019-05-21T15:06:31Z</time>
      </trkpt>
      <trkpt lat="49.04766" lon="2.11683">
        <ele>29</ele>
        <time>2019-05-21T15:06:37Z</time>
      </trkpt>
      <trkpt lat="49.04769" lon="2.11669">
        <ele>28</ele>
        <time>2019-05-21T15:06:43Z</time>
      </trkpt>
      <trkpt lat="49.04771" lon="2.11653">
        <ele>27</ele>
        <time>2019-05-21T15:06:52Z</time>
      </trkpt>
      <trkpt lat="49.04771" lon="2.11639">
        <ele>27</ele>
        <time>2019-05-21T15:07:00Z</time>
      </trkpt>
      <trkpt lat="49.04769" lon="2.11625">
        <ele>27</ele>
        <time>2019-05-21T15:07:07Z</time>
      </trkpt>
      <trkpt lat="49.04768" lon="2.11611">
        <ele>27</ele>
        <time>2019-05-21T15:07:16Z</time>
      </trkpt>
      <trkpt lat="49.04766" lon="2.11596">
        <ele>27</ele>
        <time>2019-05-21T15:07:25Z</time>
      </trkpt>
      <trkpt lat="49.04765" lon="2.11582">
        <ele>26</ele>
        <time>2019-05-21T15:07:32Z</time>
      </trkpt>
      <trkpt lat="49.04764" lon="2.11567">
        <ele>26</ele>
        <time>2019-05-21T15:07:39Z</time>
      </trkpt>
      <trkpt lat="49.04763" lon="2.11552">
        <ele>26</ele>
        <time>2019-05-21T15:07:45Z</time>
      </trkpt>
      <trkpt lat="49.04761" lon="2.11537">
        <ele>26</ele>
        <time>2019-05-21T15:07:52Z</time>
      </trkpt>
      <trkpt lat="49.04761" lon="2.11522">
        <ele>26</ele>
        <time>2019-05-21T15:07:58Z</time>
      </trkpt>
      <trkpt lat="49.04758" lon="2.11507">
        <ele>26</ele>
        <time>2019-05-21T15:08:03Z</time>
      </trkpt>
      <trkpt lat="49.04754" lon="2.11494">
        <ele>26</ele>
        <time>2019-05-21T15:08:10Z</time>
      </trkpt>
      <trkpt lat="49.0475" lon="2.11481">
        <ele>26</ele>
        <time>2019-05-21T15:08:16Z</time>
      </trkpt>
      <trkpt lat="49.04746" lon="2.11466">
        <ele>27</ele>
        <time>2019-05-21T15:08:22Z</time>
      </trkpt>
      <trkpt lat="49.04742" lon="2.11452">
        <ele>27</ele>
        <time>2019-05-21T15:08:28Z</time>
      </trkpt>
      <trkpt lat="49.04739" lon="2.11438">
        <ele>26</ele>
        <time>2019-05-21T15:08:34Z</time>
      </trkpt>
      <trkpt lat="49.04738" lon="2.11424">
        <ele>25</ele>
        <time>2019-05-21T15:08:40Z</time>
      </trkpt>
      <trkpt lat="49.04736" lon="2.1141">
        <ele>25</ele>
        <time>2019-05-21T15:08:47Z</time>
      </trkpt>
      <trkpt lat="49.04733" lon="2.11396">
        <ele>25</ele>
        <time>2019-05-21T15:08:54Z</time>
      </trkpt>
      <trkpt lat="49.04727" lon="2.11384">
        <ele>25</ele>
        <time>2019-05-21T15:09:01Z</time>
      </trkpt>
      <trkpt lat="49.04722" lon="2.11371">
        <ele>25</ele>
        <time>2019-05-21T15:09:08Z</time>
      </trkpt>
      <trkpt lat="49.04716" lon="2.11361">
        <ele>25</ele>
        <time>2019-05-21T15:09:14Z</time>
      </trkpt>
      <trkpt lat="49.04715" lon="2.11345">
        <ele>25</ele>
        <time>2019-05-21T15:09:20Z</time>
      </trkpt>
      <trkpt lat="49.04714" lon="2.11331">
        <ele>25</ele>
        <time>2019-05-21T15:09:28Z</time>
      </trkpt>
      <trkpt lat="49.04711" lon="2.11317">
        <ele>26</ele>
        <time>2019-05-21T15:09:34Z</time>
      </trkpt>
      <trkpt lat="49.04706" lon="2.11303">
        <ele>26</ele>
        <time>2019-05-21T15:09:41Z</time>
      </trkpt>
      <trkpt lat="49.04702" lon="2.11291">
        <ele>26</ele>
        <time>2019-05-21T15:09:46Z</time>
      </trkpt>
      <trkpt lat="49.04698" lon="2.11277">
        <ele>26</ele>
        <time>2019-05-21T15:09:53Z</time>
      </trkpt>
      <trkpt lat="49.04693" lon="2.11265">
        <ele>26</ele>
        <time>2019-05-21T15:10:00Z</time>
      </trkpt>
      <trkpt lat="49.04689" lon="2.11252">
        <ele>26</ele>
        <time>2019-05-21T15:10:06Z</time>
      </trkpt>
      <trkpt lat="49.04684" lon="2.1124">
        <ele>27</ele>
        <time>2019-05-21T15:10:13Z</time>
      </trkpt>
      <trkpt lat="49.04676" lon="2.1123">
        <ele>27</ele>
        <time>2019-05-21T15:10:20Z</time>
      </trkpt>
      <trkpt lat="49.04667" lon="2.11229">
        <ele>27</ele>
        <time>2019-05-21T15:10:29Z</time>
      </trkpt>
      <trkpt lat="49.04662" lon="2.11241">
        <ele>27</ele>
        <time>2019-05-21T15:10:35Z</time>
      </trkpt>
      <trkpt lat="49.04657" lon="2.11253">
        <ele>27</ele>
        <time>2019-05-21T15:10:43Z</time>
      </trkpt>
      <trkpt lat="49.04651" lon="2.11264">
        <ele>28</ele>
        <time>2019-05-21T15:10:50Z</time>
      </trkpt>
      <trkpt lat="49.04644" lon="2.11275">
        <ele>28</ele>
        <time>2019-05-21T15:10:57Z</time>
      </trkpt>
      <trkpt lat="49.04634" lon="2.11274">
        <ele>28</ele>
        <time>2019-05-21T15:11:05Z</time>
      </trkpt>
      <trkpt lat="49.04625" lon="2.11268">
        <ele>28</ele>
        <time>2019-05-21T15:11:11Z</time>
      </trkpt>
      <trkpt lat="49.0462" lon="2.11255">
        <ele>29</ele>
        <time>2019-05-21T15:11:15Z</time>
      </trkpt>
      <trkpt lat="49.04612" lon="2.11249">
        <ele>29</ele>
        <time>2019-05-21T15:11:21Z</time>
      </trkpt>
      <trkpt lat="49.04602" lon="2.11245">
        <ele>29</ele>
        <time>2019-05-21T15:11:27Z</time>
      </trkpt>
      <trkpt lat="49.04593" lon="2.11237">
        <ele>29</ele>
        <time>2019-05-21T15:11:36Z</time>
      </trkpt>
      <trkpt lat="49.04587" lon="2.11226">
        <ele>29</ele>
        <time>2019-05-21T15:11:42Z</time>
      </trkpt>
      <trkpt lat="49.0458" lon="2.11217">
        <ele>30</ele>
        <time>2019-05-21T15:11:56Z</time>
      </trkpt>
      <trkpt lat="49.04573" lon="2.11231">
        <ele>30</ele>
        <time>2019-05-21T15:12:24Z</time>
      </trkpt>
      <trkpt lat="49.04571" lon="2.11245">
        <ele>30</ele>
        <time>2019-05-21T15:12:29Z</time>
      </trkpt>
      <trkpt lat="49.04575" lon="2.11258">
        <ele>31</ele>
        <time>2019-05-21T15:12:36Z</time>
      </trkpt>
      <trkpt lat="49.04579" lon="2.11272">
        <ele>31</ele>
        <time>2019-05-21T15:12:43Z</time>
      </trkpt>
      <trkpt lat="49.04585" lon="2.11284">
        <ele>29</ele>
        <time>2019-05-21T15:12:49Z</time>
      </trkpt>
      <trkpt lat="49.04581" lon="2.11268">
        <ele>31</ele>
        <time>2019-05-21T15:13:14Z</time>
      </trkpt>
      <trkpt lat="49.04575" lon="2.11257">
        <ele>31</ele>
        <time>2019-05-21T15:13:21Z</time>
      </trkpt>
      <trkpt lat="49.04573" lon="2.11241">
        <ele>30</ele>
        <time>2019-05-21T15:13:26Z</time>
      </trkpt>
      <trkpt lat="49.04583" lon="2.11239">
        <ele>30</ele>
        <time>2019-05-21T15:13:34Z</time>
      </trkpt>
      <trkpt lat="49.04592" lon="2.11241">
        <ele>29</ele>
        <time>2019-05-21T15:13:42Z</time>
      </trkpt>
      <trkpt lat="49.04601" lon="2.11247">
        <ele>29</ele>
        <time>2019-05-21T15:13:51Z</time>
      </trkpt>
      <trkpt lat="49.0461" lon="2.11254">
        <ele>29</ele>
        <time>2019-05-21T15:13:57Z</time>
      </trkpt>
      <trkpt lat="49.04618" lon="2.11262">
        <ele>29</ele>
        <time>2019-05-21T15:14:03Z</time>
      </trkpt>
      <trkpt lat="49.04626" lon="2.11273">
        <ele>28</ele>
        <time>2019-05-21T15:14:08Z</time>
      </trkpt>
      <trkpt lat="49.04633" lon="2.11285">
        <ele>28</ele>
        <time>2019-05-21T15:14:14Z</time>
      </trkpt>
      <trkpt lat="49.04637" lon="2.11298">
        <ele>28</ele>
        <time>2019-05-21T15:14:23Z</time>
      </trkpt>
      <trkpt lat="49.0463" lon="2.1131">
        <ele>28</ele>
        <time>2019-05-21T15:14:31Z</time>
      </trkpt>
      <trkpt lat="49.04625" lon="2.11322">
        <ele>28</ele>
        <time>2019-05-21T15:14:38Z</time>
      </trkpt>
      <trkpt lat="49.04619" lon="2.11333">
        <ele>29</ele>
        <time>2019-05-21T15:14:43Z</time>
      </trkpt>
      <trkpt lat="49.04614" lon="2.11346">
        <ele>30</ele>
        <time>2019-05-21T15:14:49Z</time>
      </trkpt>
      <trkpt lat="49.0461" lon="2.11361">
        <ele>30</ele>
        <time>2019-05-21T15:14:58Z</time>
      </trkpt>
      <trkpt lat="49.04604" lon="2.11372">
        <ele>30</ele>
        <time>2019-05-21T15:15:04Z</time>
      </trkpt>
      <trkpt lat="49.04598" lon="2.11385">
        <ele>31</ele>
        <time>2019-05-21T15:15:12Z</time>
      </trkpt>
      <trkpt lat="49.04592" lon="2.11396">
        <ele>31</ele>
        <time>2019-05-21T15:15:20Z</time>
      </trkpt>
      <trkpt lat="49.04588" lon="2.11409">
        <ele>33</ele>
        <time>2019-05-21T15:15:28Z</time>
      </trkpt>
      <trkpt lat="49.04584" lon="2.11422">
        <ele>34</ele>
        <time>2019-05-21T15:15:32Z</time>
      </trkpt>
      <trkpt lat="49.0458" lon="2.11436">
        <ele>35</ele>
        <time>2019-05-21T15:15:40Z</time>
      </trkpt>
      <trkpt lat="49.04574" lon="2.11449">
        <ele>35</ele>
        <time>2019-05-21T15:15:46Z</time>
      </trkpt>
      <trkpt lat="49.04569" lon="2.11461">
        <ele>35</ele>
        <time>2019-05-21T15:15:51Z</time>
      </trkpt>
      <trkpt lat="49.04567" lon="2.11474">
        <ele>35</ele>
        <time>2019-05-21T15:15:58Z</time>
      </trkpt>
      <trkpt lat="49.04563" lon="2.11487">
        <ele>35</ele>
        <time>2019-05-21T15:16:05Z</time>
      </trkpt>
      <trkpt lat="49.04556" lon="2.115">
        <ele>35</ele>
        <time>2019-05-21T15:16:13Z</time>
      </trkpt>
      <trkpt lat="49.04551" lon="2.11512">
        <ele>35</ele>
        <time>2019-05-21T15:16:20Z</time>
      </trkpt>
      <trkpt lat="49.04542" lon="2.11517">
        <ele>35</ele>
        <time>2019-05-21T15:16:27Z</time>
      </trkpt>
      <trkpt lat="49.04532" lon="2.11514">
        <ele>35</ele>
        <time>2019-05-21T15:16:34Z</time>
      </trkpt>
      <trkpt lat="49.04524" lon="2.11508">
        <ele>35</ele>
        <time>2019-05-21T15:16:40Z</time>
      </trkpt>
      <trkpt lat="49.04514" lon="2.11504">
        <ele>35</ele>
        <time>2019-05-21T15:16:48Z</time>
      </trkpt>
      <trkpt lat="49.04503" lon="2.11498">
        <ele>35</ele>
        <time>2019-05-21T15:16:52Z</time>
      </trkpt>
      <trkpt lat="49.04494" lon="2.11493">
        <ele>35</ele>
        <time>2019-05-21T15:16:58Z</time>
      </trkpt>
      <trkpt lat="49.04486" lon="2.11485">
        <ele>36</ele>
        <time>2019-05-21T15:17:07Z</time>
      </trkpt>
      <trkpt lat="49.04484" lon="2.1147">
        <ele>36</ele>
        <time>2019-05-21T15:17:54Z</time>
      </trkpt>
      <trkpt lat="49.04486" lon="2.11456">
        <ele>36</ele>
        <time>2019-05-21T15:18:02Z</time>
      </trkpt>
      <trkpt lat="49.04489" lon="2.11443">
        <ele>36</ele>
        <time>2019-05-21T15:18:09Z</time>
      </trkpt>
      <trkpt lat="49.04493" lon="2.11429">
        <ele>36</ele>
        <time>2019-05-21T15:18:16Z</time>
      </trkpt>
      <trkpt lat="49.04497" lon="2.11417">
        <ele>36</ele>
        <time>2019-05-21T15:18:22Z</time>
      </trkpt>
      <trkpt lat="49.04501" lon="2.11402">
        <ele>35</ele>
        <time>2019-05-21T15:18:28Z</time>
      </trkpt>
      <trkpt lat="49.04504" lon="2.11389">
        <ele>35</ele>
        <time>2019-05-21T15:18:33Z</time>
      </trkpt>
      <trkpt lat="49.04511" lon="2.11379">
        <ele>34</ele>
        <time>2019-05-21T15:18:40Z</time>
      </trkpt>
      <trkpt lat="49.04516" lon="2.11365">
        <ele>34</ele>
        <time>2019-05-21T15:18:46Z</time>
      </trkpt>
      <trkpt lat="49.04521" lon="2.11354">
        <ele>34</ele>
        <time>2019-05-21T15:18:51Z</time>
      </trkpt>
      <trkpt lat="49.04525" lon="2.1134">
        <ele>34</ele>
        <time>2019-05-21T15:18:56Z</time>
      </trkpt>
      <trkpt lat="49.04528" lon="2.11327">
        <ele>33</ele>
        <time>2019-05-21T15:19:02Z</time>
      </trkpt>
      <trkpt lat="49.04532" lon="2.11313">
        <ele>32</ele>
        <time>2019-05-21T15:19:10Z</time>
      </trkpt>
      <trkpt lat="49.04531" lon="2.11298">
        <ele>32</ele>
        <time>2019-05-21T15:19:18Z</time>
      </trkpt>
      <trkpt lat="49.04525" lon="2.11285">
        <ele>32</ele>
        <time>2019-05-21T15:19:24Z</time>
      </trkpt>
      <trkpt lat="49.0452" lon="2.11271">
        <ele>32</ele>
        <time>2019-05-21T15:19:31Z</time>
      </trkpt>
      <trkpt lat="49.04513" lon="2.11259">
        <ele>32</ele>
        <time>2019-05-21T15:19:37Z</time>
      </trkpt>
      <trkpt lat="49.04508" lon="2.11246">
        <ele>32</ele>
        <time>2019-05-21T15:19:43Z</time>
      </trkpt>
      <trkpt lat="49.04504" lon="2.11234">
        <ele>31</ele>
        <time>2019-05-21T15:19:50Z</time>
      </trkpt>
      <trkpt lat="49.045" lon="2.11219">
        <ele>31</ele>
        <time>2019-05-21T15:19:59Z</time>
      </trkpt>
      <trkpt lat="49.04493" lon="2.11207">
        <ele>34</ele>
        <time>2019-05-21T15:20:06Z</time>
      </trkpt>
      <trkpt lat="49.04488" lon="2.11194">
        <ele>34</ele>
        <time>2019-05-21T15:20:12Z</time>
      </trkpt>
      <trkpt lat="49.04482" lon="2.11182">
        <ele>34</ele>
        <time>2019-05-21T15:20:20Z</time>
      </trkpt>
      <trkpt lat="49.04475" lon="2.11169">
        <ele>34</ele>
        <time>2019-05-21T15:20:27Z</time>
      </trkpt>
      <trkpt lat="49.04471" lon="2.11155">
        <ele>33</ele>
        <time>2019-05-21T15:20:33Z</time>
      </trkpt>
      <trkpt lat="49.04466" lon="2.11143">
        <ele>34</ele>
        <time>2019-05-21T15:20:40Z</time>
      </trkpt>
      <trkpt lat="49.04459" lon="2.11133">
        <ele>34</ele>
        <time>2019-05-21T15:20:46Z</time>
      </trkpt>
      <trkpt lat="49.04453" lon="2.1112">
        <ele>34</ele>
        <time>2019-05-21T15:20:52Z</time>
      </trkpt>
      <trkpt lat="49.0445" lon="2.11105">
        <ele>34</ele>
        <time>2019-05-21T15:20:58Z</time>
      </trkpt>
      <trkpt lat="49.04445" lon="2.11093">
        <ele>34</ele>
        <time>2019-05-21T15:21:05Z</time>
      </trkpt>
      <trkpt lat="49.04441" lon="2.1108">
        <ele>33</ele>
        <time>2019-05-21T15:21:12Z</time>
      </trkpt>
      <trkpt lat="49.04449" lon="2.1107">
        <ele>32</ele>
        <time>2019-05-21T15:21:22Z</time>
      </trkpt>
      <trkpt lat="49.04458" lon="2.11064">
        <ele>32</ele>
        <time>2019-05-21T15:21:27Z</time>
      </trkpt>
      <trkpt lat="49.04466" lon="2.11056">
        <ele>31</ele>
        <time>2019-05-21T15:21:36Z</time>
      </trkpt>
      <trkpt lat="49.04474" lon="2.11048">
        <ele>31</ele>
        <time>2019-05-21T15:21:43Z</time>
      </trkpt>
      <trkpt lat="49.04482" lon="2.11039">
        <ele>30</ele>
        <time>2019-05-21T15:21:51Z</time>
      </trkpt>
      <trkpt lat="49.04489" lon="2.11029">
        <ele>30</ele>
        <time>2019-05-21T15:21:56Z</time>
      </trkpt>
      <trkpt lat="49.04496" lon="2.11018">
        <ele>29</ele>
        <time>2019-05-21T15:22:01Z</time>
      </trkpt>
      <trkpt lat="49.04503" lon="2.11008">
        <ele>27</ele>
        <time>2019-05-21T15:22:08Z</time>
      </trkpt>
      <trkpt lat="49.04511" lon="2.11">
        <ele>27</ele>
        <time>2019-05-21T15:22:15Z</time>
      </trkpt>
      <trkpt lat="49.04515" lon="2.10987">
        <ele>27</ele>
        <time>2019-05-21T15:22:23Z</time>
      </trkpt>
      <trkpt lat="49.04515" lon="2.10972">
        <ele>27</ele>
        <time>2019-05-21T15:22:29Z</time>
      </trkpt>
      <trkpt lat="49.04515" lon="2.10958">
        <ele>27</ele>
        <time>2019-05-21T15:22:35Z</time>
      </trkpt>
      <trkpt lat="49.04515" lon="2.10944">
        <ele>27</ele>
        <time>2019-05-21T15:22:39Z</time>
      </trkpt>
      <trkpt lat="49.0451" lon="2.1093">
        <ele>27</ele>
        <time>2019-05-21T15:22:46Z</time>
      </trkpt>
      <trkpt lat="49.04509" lon="2.10916">
        <ele>27</ele>
        <time>2019-05-21T15:22:51Z</time>
      </trkpt>
      <trkpt lat="49.045" lon="2.10909">
        <ele>27</ele>
        <time>2019-05-21T15:22:57Z</time>
      </trkpt>
      <trkpt lat="49.04501" lon="2.10894">
        <ele>27</ele>
        <time>2019-05-21T15:23:03Z</time>
      </trkpt>
      <trkpt lat="49.04501" lon="2.10879">
        <ele>26</ele>
        <time>2019-05-21T15:23:11Z</time>
      </trkpt>
      <trkpt lat="49.04499" lon="2.10864">
        <ele>28</ele>
        <time>2019-05-21T15:23:19Z</time>
      </trkpt>
      <trkpt lat="49.04492" lon="2.10853">
        <ele>27</ele>
        <time>2019-05-21T15:23:25Z</time>
      </trkpt>
      <trkpt lat="49.04485" lon="2.10845">
        <ele>27</ele>
        <time>2019-05-21T15:23:31Z</time>
      </trkpt>
      <trkpt lat="49.04482" lon="2.1083">
        <ele>27</ele>
        <time>2019-05-21T15:23:39Z</time>
      </trkpt>
      <trkpt lat="49.04478" lon="2.10815">
        <ele>27</ele>
        <time>2019-05-21T15:23:46Z</time>
      </trkpt>
      <trkpt lat="49.04472" lon="2.10804">
        <ele>28</ele>
        <time>2019-05-21T15:23:56Z</time>
      </trkpt>
      <trkpt lat="49.04477" lon="2.1079">
        <ele>27</ele>
        <time>2019-05-21T15:24:03Z</time>
      </trkpt>
      <trkpt lat="49.04484" lon="2.1078">
        <ele>27</ele>
        <time>2019-05-21T15:24:08Z</time>
      </trkpt>
      <trkpt lat="49.04492" lon="2.10772">
        <ele>27</ele>
        <time>2019-05-21T15:24:14Z</time>
      </trkpt>
      <trkpt lat="49.04499" lon="2.10763">
        <ele>27</ele>
        <time>2019-05-21T15:24:22Z</time>
      </trkpt>
      <trkpt lat="49.04506" lon="2.10752">
        <ele>26</ele>
        <time>2019-05-21T15:24:29Z</time>
      </trkpt>
      <trkpt lat="49.04515" lon="2.10745">
        <ele>27</ele>
        <time>2019-05-21T15:24:37Z</time>
      </trkpt>
      <trkpt lat="49.04522" lon="2.10736">
        <ele>27</ele>
        <time>2019-05-21T15:24:42Z</time>
      </trkpt>
      <trkpt lat="49.04531" lon="2.10727">
        <ele>27</ele>
        <time>2019-05-21T15:24:48Z</time>
      </trkpt>
      <trkpt lat="49.04543" lon="2.10721">
        <ele>28</ele>
        <time>2019-05-21T15:24:55Z</time>
      </trkpt>
      <trkpt lat="49.04551" lon="2.10711">
        <ele>28</ele>
        <time>2019-05-21T15:24:58Z</time>
      </trkpt>
      <trkpt lat="49.04554" lon="2.10697">
        <ele>28</ele>
        <time>2019-05-21T15:25:14Z</time>
      </trkpt>
      <trkpt lat="49.04563" lon="2.10691">
        <ele>28</ele>
        <time>2019-05-21T15:25:25Z</time>
      </trkpt>
      <trkpt lat="49.0457" lon="2.10681">
        <ele>28</ele>
        <time>2019-05-21T15:25:32Z</time>
      </trkpt>
      <trkpt lat="49.04574" lon="2.10669">
        <ele>28</ele>
        <time>2019-05-21T15:25:37Z</time>
      </trkpt>
      <trkpt lat="49.04581" lon="2.10659">
        <ele>28</ele>
        <time>2019-05-21T15:25:45Z</time>
      </trkpt>
      <trkpt lat="49.04588" lon="2.10649">
        <ele>28</ele>
        <time>2019-05-21T15:25:52Z</time>
      </trkpt>
      <trkpt lat="49.04596" lon="2.1064">
        <ele>28</ele>
        <time>2019-05-21T15:25:58Z</time>
      </trkpt>
      <trkpt lat="49.04605" lon="2.10634">
        <ele>28</ele>
        <time>2019-05-21T15:26:05Z</time>
      </trkpt>
      <trkpt lat="49.04612" lon="2.10623">
        <ele>28</ele>
        <time>2019-05-21T15:26:12Z</time>
      </trkpt>
      <trkpt lat="49.04621" lon="2.10617">
        <ele>28</ele>
        <time>2019-05-21T15:26:19Z</time>
      </trkpt>
      <trkpt lat="49.04629" lon="2.10605">
        <ele>28</ele>
        <time>2019-05-21T15:26:27Z</time>
      </trkpt>
      <trkpt lat="49.04637" lon="2.10597">
        <ele>28</ele>
        <time>2019-05-21T15:26:35Z</time>
      </trkpt>
      <trkpt lat="49.04645" lon="2.10591">
        <ele>27</ele>
        <time>2019-05-21T15:26:40Z</time>
      </trkpt>
      <trkpt lat="49.04652" lon="2.10582">
        <ele>27</ele>
        <time>2019-05-21T15:26:49Z</time>
      </trkpt>
      <trkpt lat="49.04658" lon="2.1057">
        <ele>27</ele>
        <time>2019-05-21T15:26:58Z</time>
      </trkpt>
      <trkpt lat="49.04668" lon="2.10565">
        <ele>27</ele>
        <time>2019-05-21T15:27:03Z</time>
      </trkpt>
      <trkpt lat="49.04676" lon="2.10557">
        <ele>27</ele>
        <time>2019-05-21T15:27:08Z</time>
      </trkpt>
      <trkpt lat="49.04681" lon="2.10545">
        <ele>27</ele>
        <time>2019-05-21T15:27:16Z</time>
      </trkpt>
      <trkpt lat="49.04681" lon="2.10529">
        <ele>27</ele>
        <time>2019-05-21T15:27:21Z</time>
      </trkpt>
      <trkpt lat="49.04688" lon="2.10519">
        <ele>27</ele>
        <time>2019-05-21T15:27:28Z</time>
      </trkpt>
      <trkpt lat="49.04693" lon="2.10507">
        <ele>27</ele>
        <time>2019-05-21T15:27:35Z</time>
      </trkpt>
      <trkpt lat="49.04698" lon="2.10495">
        <ele>27</ele>
        <time>2019-05-21T15:27:42Z</time>
      </trkpt>
      <trkpt lat="49.04705" lon="2.10483">
        <ele>27</ele>
        <time>2019-05-21T15:27:51Z</time>
      </trkpt>
      <trkpt lat="49.0471" lon="2.10471">
        <ele>27</ele>
        <time>2019-05-21T15:27:57Z</time>
      </trkpt>
      <trkpt lat="49.04713" lon="2.10457">
        <ele>27</ele>
        <time>2019-05-21T15:28:04Z</time>
      </trkpt>
      <trkpt lat="49.04718" lon="2.10443">
        <ele>27</ele>
        <time>2019-05-21T15:28:11Z</time>
      </trkpt>
      <trkpt lat="49.04723" lon="2.10432">
        <ele>27</ele>
        <time>2019-05-21T15:28:17Z</time>
      </trkpt>
      <trkpt lat="49.04729" lon="2.10421">
        <ele>27</ele>
        <time>2019-05-21T15:28:25Z</time>
      </trkpt>
      <trkpt lat="49.04736" lon="2.10411">
        <ele>27</ele>
        <time>2019-05-21T15:28:32Z</time>
      </trkpt>
      <trkpt lat="49.04741" lon="2.10397">
        <ele>27</ele>
        <time>2019-05-21T15:28:37Z</time>
      </trkpt>
      <trkpt lat="49.04744" lon="2.10381">
        <ele>27</ele>
        <time>2019-05-21T15:28:46Z</time>
      </trkpt>
      <trkpt lat="49.04747" lon="2.10367">
        <ele>27</ele>
        <time>2019-05-21T15:28:53Z</time>
      </trkpt>
      <trkpt lat="49.04754" lon="2.10359">
        <ele>27</ele>
        <time>2019-05-21T15:29:00Z</time>
      </trkpt>
      <trkpt lat="49.04757" lon="2.10345">
        <ele>28</ele>
        <time>2019-05-21T15:29:05Z</time>
      </trkpt>
    </trkseg>
  </trk>
</gpx>